Darstellungsparameter: Aktuell verwendete Einstellungen:
Skalierung der Graphiken ... ?
xyx+y,   Skalierungsfaktor:      Skalierung: Modus: x, Faktor: 1
Darstellungszeitraum ... ?
Vom - - bis: - -   Zeitraum: 24.01.2009 - 23.04.2009
Min/Max/Avg-Anzeige ... ?
Zeige MMA aktuell
Zeige MMA Monat
Zeige MMA alles
Zeige --A aktuell
Zeige --A Monat
Zeige --A alles
Keine MMA-Anzeige
MMA:
Keine MMA-Graphiken
MMA-Basis: 24.01.2009 - 23.04.2009
Quicknavigation für Darstellung... ?
Tage:      1T, 2T, 3T, 5T -1T -2T -3T -5T +1T +2T +3T +5T
Wochen: 1W, 2W, 3W -1W -2W -3W +1W +2W +3W
Monate: 1M, 3M, 6M -1M -3M -6M +1M +3M +6M
Jahre:    1J, 3J, 5J, 10J -1J -3J -5J -10J +1J +3J +5J +10J
Nutze für die Darstellung ... ?
Originaldaten oder Mittelwerte auf ...
Stundenbasis Tagesbasis Wochenbasis
Monatsbasis Jahresbasis      Datenbasis: Original-Daten
Darstellen als:
Statistik (Auto) Statistik J:M      Darstellung:
Zur Graphik,    zurück zur Übersicht aller Sensoren.
 
Tabellarische Datenbersicht: ?
 
Sensor: Nr:Datum:Temp:Abs-Feuchte:Windchill:Wind:
Aussen-T/F 1 24-01-2009 00:03:46 4.2 C 4.25 g/m*3 4.2 C 0 km/h
2 24-01-2009 00:15:46 4.1 C 4.22 g/m*3 4.1 C 0 km/h
3 24-01-2009 00:27:46 4.2 C 4.12 g/m*3 4.2 C 0 km/h
4 24-01-2009 00:39:46 4.2 C 4.06 g/m*3 4.2 C 0 km/h
5 24-01-2009 00:51:45 4.2 C 4.06 g/m*3 4.2 C 0 km/h
6 24-01-2009 01:03:45 4.2 C 3.99 g/m*3 4.2 C 0 km/h
7 24-01-2009 01:15:46 4.2 C 3.99 g/m*3 4.2 C 0 km/h
8 24-01-2009 01:27:46 4.2 C 3.99 g/m*3 4.2 C 0 km/h
9 24-01-2009 01:39:45 4.2 C 3.93 g/m*3 4.2 C 0 km/h
10 24-01-2009 01:51:45 4.1 C 3.97 g/m*3 4.1 C 0 km/h
11 24-01-2009 02:03:45 4.1 C 3.97 g/m*3 4.1 C 0 km/h
12 24-01-2009 02:15:45 4 C 3.94 g/m*3 4 C 0 km/h
13 24-01-2009 02:27:45 3.8 C 4.08 g/m*3 3.8 C 0 km/h
14 24-01-2009 02:39:44 3.8 C 4.08 g/m*3 3.8 C 0 km/h
15 24-01-2009 02:52:46 3.9 C 4.17 g/m*3 3.9 C 0 km/h
16 24-01-2009 03:04:46 3.8 C 4.2 g/m*3 3.8 C 0 km/h
17 24-01-2009 03:16:46 3.6 C 4.27 g/m*3 3.6 C 0 km/h
18 24-01-2009 03:28:46 3.5 C 4.24 g/m*3 3.5 C 0 km/h
19 24-01-2009 03:40:46 3.5 C 4.3 g/m*3 3.5 C 0 km/h
20 24-01-2009 03:52:46 3.4 C 4.28 g/m*3 3.4 C 0 km/h
21 24-01-2009 04:04:45 3.3 C 4.25 g/m*3 3.3 C 0 km/h
22 24-01-2009 04:16:45 3.2 C 4.28 g/m*3 3.2 C 0 km/h
23 24-01-2009 04:28:45 2.8 C 4.22 g/m*3 2.8 C 0 km/h
24 24-01-2009 04:40:45 2.7 C 4.25 g/m*3 2.7 C 0 km/h
25 24-01-2009 04:52:45 2.7 C 4.2 g/m*3 2.7 C 0 km/h
Sensor: Nr:Datum:Temp:Abs-Feuchte:Windchill:Wind:
Aussen-T/F 26 24-01-2009 05:04:45 2.7 C 4.2 g/m*3 2.7 C 0 km/h
27 24-01-2009 05:16:45 2.8 C 4.16 g/m*3 2.8 C 0 km/h
28 24-01-2009 05:28:45 2.7 C 4.2 g/m*3 2.7 C 0 km/h
29 24-01-2009 05:40:44 2.7 C 4.2 g/m*3 2.7 C 0 km/h
30 24-01-2009 05:52:44 2.1 C 4.08 g/m*3 2.1 C 0 km/h
31 24-01-2009 06:04:44 1.8 C 4.17 g/m*3 1.8 C 0 km/h
32 24-01-2009 06:16:44 1.5 C 4.14 g/m*3 1.5 C 0 km/h
33 24-01-2009 06:28:44 1.6 C 4.27 g/m*3 1.6 C 0 km/h
34 24-01-2009 06:40:44 1.6 C 4.27 g/m*3 1.6 C 0 km/h
35 24-01-2009 06:52:43 1.4 C 4.21 g/m*3 1.4 C 0 km/h
36 24-01-2009 07:04:44 1 C 4.15 g/m*3 1 C 0 km/h
37 24-01-2009 07:16:44 0.8 C 4.2 g/m*3 0.8 C 0 km/h
38 24-01-2009 07:28:44 0.7 C 4.22 g/m*3 0.7 C 0 km/h
39 24-01-2009 07:40:43 0.7 C 4.27 g/m*3 0.7 C 0 km/h
40 24-01-2009 07:52:44 0.5 C 4.21 g/m*3 0.5 C 0 km/h
41 24-01-2009 08:04:43 0.5 C 4.26 g/m*3 0.5 C 0 km/h
42 24-01-2009 08:16:43 0.5 C 4.26 g/m*3 0.5 C 0 km/h
43 24-01-2009 08:28:43 0.6 C 4.29 g/m*3 0.6 C 0 km/h
44 24-01-2009 08:40:43 0.8 C 4.35 g/m*3 0.8 C 0 km/h
45 24-01-2009 08:52:43 0.8 C 4.35 g/m*3 0.8 C 0 km/h
46 24-01-2009 09:04:43 0.8 C 4.35 g/m*3 0.8 C 0 km/h
47 24-01-2009 09:16:43 0.9 C 4.38 g/m*3 0.9 C 0 km/h
48 24-01-2009 09:28:43 0.8 C 4.35 g/m*3 0.8 C 0 km/h
49 24-01-2009 09:40:42 0.7 C 4.32 g/m*3 0.7 C 0 km/h
50 24-01-2009 09:52:43 0.7 C 4.32 g/m*3 0.7 C 0 km/h
Sensor: Nr:Datum:Temp:Abs-Feuchte:Windchill:Wind:
Aussen-T/F 51 24-01-2009 10:04:42 0.7 C 4.37 g/m*3 0.7 C 0 km/h
52 24-01-2009 10:16:42 0.9 C 4.43 g/m*3 0.9 C 0 km/h
53 24-01-2009 10:28:42 1 C 4.46 g/m*3 1 C 0 km/h
54 24-01-2009 10:40:41 1.3 C 4.56 g/m*3 1.3 C 0 km/h
55 24-01-2009 10:52:42 1.4 C 4.59 g/m*3 1.4 C 0 km/h
56 24-01-2009 11:04:41 1.6 C 4.65 g/m*3 1.6 C 0 km/h
57 24-01-2009 11:16:41 1.9 C 4.69 g/m*3 1.9 C 0 km/h
58 24-01-2009 11:28:42 2.2 C 4.62 g/m*3 2.2 C 0 km/h
59 24-01-2009 11:40:41 2.4 C 4.45 g/m*3 2.4 C 0 km/h
60 24-01-2009 11:52:41 2.7 C 4.43 g/m*3 2.7 C 0 km/h
61 24-01-2009 12:04:41 3.1 C 4.37 g/m*3 3.1 C 0 km/h
62 24-01-2009 12:16:41 3.7 C 4.42 g/m*3 3.7 C 0 km/h
63 24-01-2009 12:28:41 4.4 C 4.24 g/m*3 4.4 C 0 km/h
64 24-01-2009 12:40:40 4.6 C 3.97 g/m*3 4.6 C 0 km/h
65 24-01-2009 12:52:41 4.6 C 3.9 g/m*3 4.6 C 0 km/h
66 24-01-2009 13:04:40 4.8 C 3.96 g/m*3 4.8 C 0 km/h
67 24-01-2009 13:16:40 5.3 C 3.95 g/m*3 5.3 C 0 km/h
68 24-01-2009 13:28:40 4.9 C 4.05 g/m*3 4.9 C 0 km/h
69 24-01-2009 13:40:40 4.7 C 4.06 g/m*3 4.7 C 0 km/h
70 24-01-2009 13:52:40 4.8 C 4.16 g/m*3 4.8 C 0 km/h
71 24-01-2009 14:04:40 4.7 C 4.13 g/m*3 4.7 C 0 km/h
72 24-01-2009 14:16:39 4.7 C 4.2 g/m*3 4.7 C 0 km/h
73 24-01-2009 14:28:39 4.6 C 4.1 g/m*3 4.6 C 0 km/h
74 24-01-2009 14:40:40 4.6 C 4.1 g/m*3 4.6 C 0 km/h
75 24-01-2009 14:52:39 4.7 C 4.2 g/m*3 4.7 C 0 km/h
Sensor: Nr:Datum:Temp:Abs-Feuchte:Windchill:Wind:
Aussen-T/F 76 24-01-2009 15:04:39 4.8 C 4.16 g/m*3 4.8 C 0 km/h
77 24-01-2009 15:16:40 5.1 C 4.17 g/m*3 5.1 C 0 km/h
78 24-01-2009 15:28:40 5.4 C 4.26 g/m*3 5.4 C 0 km/h
79 24-01-2009 15:40:40 5.4 C 3.84 g/m*3 5.4 C 0 km/h
80 24-01-2009 15:52:40 5.1 C 3.83 g/m*3 5.1 C 0 km/h
81 24-01-2009 16:04:42 4.9 C 3.92 g/m*3 4.9 C 0 km/h
82 24-01-2009 16:16:39 4.7 C 3.93 g/m*3 4.7 C 0 km/h
83 24-01-2009 16:28:39 4.6 C 4.04 g/m*3 4.6 C 0 km/h
84 24-01-2009 16:40:38 4.4 C 4.11 g/m*3 4.4 C 0 km/h
85 24-01-2009 16:52:04 4.3 C 4.15 g/m*3 4.3 C 0 km/h
86 24-01-2009 17:04:04 4.2 C 4.19 g/m*3 4.2 C 0 km/h
87 24-01-2009 17:16:01 4.1 C 4.22 g/m*3 4.1 C 0 km/h
88 24-01-2009 17:28:01 4 C 4.26 g/m*3 4 C 0 km/h
89 24-01-2009 17:40:02 4 C 4.32 g/m*3 4 C 0 km/h
90 24-01-2009 17:52:01 3.9 C 4.36 g/m*3 3.9 C 0 km/h
91 24-01-2009 18:04:01 3.9 C 4.42 g/m*3 3.9 C 0 km/h
92 24-01-2009 18:16:01 3.8 C 4.45 g/m*3 3.8 C 0 km/h
93 24-01-2009 18:28:01 3.8 C 4.45 g/m*3 3.8 C 0 km/h
94 24-01-2009 18:40:01 3.8 C 4.45 g/m*3 3.8 C 0 km/h
95 24-01-2009 18:52:00 3.8 C 4.45 g/m*3 3.8 C 0 km/h
96 24-01-2009 19:04:01 3.8 C 4.39 g/m*3 3.8 C 0 km/h
97 24-01-2009 19:16:00 3.7 C 4.42 g/m*3 3.7 C 0 km/h
98 24-01-2009 19:28:00 3.7 C 4.49 g/m*3 3.7 C 0 km/h
99 24-01-2009 19:40:00 3.6 C 4.46 g/m*3 3.6 C 0 km/h
100 24-01-2009 19:52:00 3.3 C 4.31 g/m*3 3.3 C 0 km/h
Sensor: Nr:Datum:Temp:Abs-Feuchte:Windchill:Wind:
Aussen-T/F 101 24-01-2009 20:04:00 3 C 4.34 g/m*3 3 C 0 km/h
102 24-01-2009 20:15:59 2.8 C 4.4 g/m*3 2.8 C 0 km/h
103 24-01-2009 20:27:59 3 C 4.46 g/m*3 3 C 0 km/h
104 24-01-2009 20:40:00 3.1 C 4.49 g/m*3 3.1 C 0 km/h
105 24-01-2009 20:52:59 3.2 C 4.46 g/m*3 3.2 C 0 km/h
106 24-01-2009 21:04:00 3.2 C 4.46 g/m*3 3.2 C 0 km/h
107 24-01-2009 21:16:59 3 C 4.4 g/m*3 3 C 0 km/h
108 24-01-2009 21:28:59 3.1 C 4.43 g/m*3 3.1 C 0 km/h
109 24-01-2009 21:40:59 3.2 C 4.4 g/m*3 3.2 C 0 km/h
110 24-01-2009 21:52:59 3.3 C 4.43 g/m*3 3.3 C 0 km/h
111 24-01-2009 22:05:00 3.2 C 4.4 g/m*3 3.2 C 0 km/h
112 24-01-2009 22:17:00 3 C 4.34 g/m*3 3 C 0 km/h
113 24-01-2009 22:29:00 3 C 4.4 g/m*3 3 C 0 km/h
114 24-01-2009 22:41:00 3 C 4.4 g/m*3 3 C 0 km/h
115 24-01-2009 22:53:00 3 C 4.4 g/m*3 3 C 0 km/h
116 24-01-2009 23:05:00 2.8 C 4.4 g/m*3 2.8 C 0 km/h
117 24-01-2009 23:17:00 2.8 C 4.46 g/m*3 2.8 C 0 km/h
118 24-01-2009 23:29:00 2.7 C 4.43 g/m*3 2.7 C 0 km/h
119 24-01-2009 23:41:00 2.6 C 4.4 g/m*3 2.6 C 0 km/h
120 24-01-2009 23:53:00 2.6 C 4.4 g/m*3 2.6 C 0 km/h
121 25-01-2009 00:05:00 2.4 C 4.34 g/m*3 2.4 C 0 km/h
122 25-01-2009 00:17:00 2.2 C 4.34 g/m*3 2.2 C 0 km/h
123 25-01-2009 00:29:00 2.1 C 4.31 g/m*3 2.1 C 0 km/h
124 25-01-2009 00:41:00 1.8 C 4.33 g/m*3 1.8 C 0 km/h
125 25-01-2009 00:53:00 1.6 C 4.33 g/m*3 1.6 C 0 km/h
Sensor: Nr:Datum:Temp:Abs-Feuchte:Windchill:Wind:
Aussen-T/F 126 25-01-2009 01:05:00 1.4 C 4.32 g/m*3 1.4 C 0 km/h
127 25-01-2009 01:17:00 1.2 C 4.37 g/m*3 1.2 C 0 km/h
128 25-01-2009 01:29:01 1 C 4.31 g/m*3 1 C 0 km/h
129 25-01-2009 01:41:01 0.7 C 4.27 g/m*3 0.7 C 0 km/h
130 25-01-2009 01:53:01 0.7 C 4.32 g/m*3 0.7 C 0 km/h
131 25-01-2009 02:05:01 0.6 C 4.34 g/m*3 0.6 C 0 km/h
132 25-01-2009 02:17:01 0.5 C 4.31 g/m*3 0.5 C 0 km/h
133 25-01-2009 02:29:01 0.3 C 4.25 g/m*3 0.3 C 0 km/h
134 25-01-2009 02:41:01 0.3 C 4.3 g/m*3 0.3 C 0 km/h
135 25-01-2009 02:53:01 0.3 C 4.3 g/m*3 0.3 C 0 km/h
136 25-01-2009 03:05:01 0.3 C 4.3 g/m*3 0.3 C 0 km/h
137 25-01-2009 03:17:01 0.2 C 4.32 g/m*3 0.2 C 0 km/h
138 25-01-2009 03:29:01 0.2 C 4.32 g/m*3 0.2 C 0 km/h
139 25-01-2009 03:41:01 0.1 C 4.29 g/m*3 0.1 C 0 km/h
140 25-01-2009 03:53:01 -0.1 C 4.23 g/m*3 -0.1 C 0 km/h
141 25-01-2009 04:05:01 -0.2 C 4.21 g/m*3 -0.2 C 0 km/h
142 25-01-2009 04:17:01 -0.7 C 4.06 g/m*3 -0.7 C 0 km/h
143 25-01-2009 04:29:01 -0.9 C 4.01 g/m*3 -0.9 C 0 km/h
144 25-01-2009 04:41:01 -1.2 C 3.92 g/m*3 -1.2 C 0 km/h
145 25-01-2009 04:53:01 -1.5 C 3.84 g/m*3 -1.5 C 0 km/h
146 25-01-2009 05:05:01 -1.4 C 3.87 g/m*3 -1.4 C 0 km/h
147 25-01-2009 05:17:02 -1.6 C 3.86 g/m*3 -1.6 C 0 km/h
148 25-01-2009 05:29:02 -1.7 C 3.83 g/m*3 -1.7 C 0 km/h
149 25-01-2009 05:41:02 -1.8 C 3.8 g/m*3 -1.8 C 0 km/h
150 25-01-2009 05:53:02 -1.2 C 4.01 g/m*3 -1.2 C 0 km/h
Sensor: Nr:Datum:Temp:Abs-Feuchte:Windchill:Wind:
Aussen-T/F 151 25-01-2009 06:05:02 -1.1 C 4.09 g/m*3 -1.1 C 0 km/h
152 25-01-2009 06:17:02 -1 C 4.11 g/m*3 -1 C 0 km/h
153 25-01-2009 06:29:02 -0.9 C 4.19 g/m*3 -0.9 C 0 km/h
154 25-01-2009 06:41:02 -0.8 C 4.22 g/m*3 -0.8 C 0 km/h
155 25-01-2009 06:53:02 -1 C 4.16 g/m*3 -1 C 0 km/h
156 25-01-2009 07:05:02 -1.1 C 4.09 g/m*3 -1.1 C 0 km/h
157 25-01-2009 07:17:02 -1.2 C 4.06 g/m*3 -1.2 C 0 km/h
158 25-01-2009 07:29:02 -1.4 C 4 g/m*3 -1.4 C 0 km/h
159 25-01-2009 07:41:02 -1.5 C 3.97 g/m*3 -1.5 C 0 km/h
160 25-01-2009 07:53:02 -1.7 C 3.92 g/m*3 -1.7 C 0 km/h
161 25-01-2009 08:05:02 -1.8 C 3.89 g/m*3 -1.8 C 0 km/h
162 25-01-2009 08:17:02 -1.6 C 3.99 g/m*3 -1.6 C 0 km/h
163 25-01-2009 08:29:02 -1.9 C 3.86 g/m*3 -1.9 C 0 km/h
164 25-01-2009 08:41:02 -1.8 C 3.93 g/m*3 -1.8 C 0 km/h
165 25-01-2009 08:53:59 -1.7 C 3.96 g/m*3 -1.7 C 0 km/h
166 25-01-2009 09:05:59 -1.7 C 3.96 g/m*3 -1.7 C 0 km/h
167 25-01-2009 09:17:58 -1.6 C 3.99 g/m*3 -1.6 C 0 km/h
168 25-01-2009 09:29:58 -1.5 C 4.02 g/m*3 -1.5 C 0 km/h
169 25-01-2009 09:41:59 -1.3 C 4.07 g/m*3 -1.3 C 0 km/h
170 25-01-2009 09:53:58 -1.5 C 4.02 g/m*3 -1.5 C 0 km/h
171 25-01-2009 10:05:59 -1.4 C 4.04 g/m*3 -1.4 C 0 km/h
172 25-01-2009 10:17:59 -1.3 C 4.07 g/m*3 -1.3 C 0 km/h
173 25-01-2009 10:29:59 -1.2 C 4.1 g/m*3 -1.2 C 0 km/h
174 25-01-2009 10:41:58 -1 C 4.16 g/m*3 -1 C 0 km/h
175 25-01-2009 10:53:59 -0.8 C 4.26 g/m*3 -0.8 C 0 km/h
Sensor: Nr:Datum:Temp:Abs-Feuchte:Windchill:Wind:
Aussen-T/F 176 25-01-2009 11:05:58 -0.6 C 4.32 g/m*3 -0.6 C 0 km/h
177 25-01-2009 11:17:58 -0.5 C 4.31 g/m*3 -0.5 C 0 km/h
178 25-01-2009 11:29:58 -0.4 C 4.34 g/m*3 -0.4 C 0 km/h
179 25-01-2009 11:41:57 -0.2 C 4.44 g/m*3 -0.2 C 0 km/h
180 25-01-2009 11:53:58 0.3 C 4.6 g/m*3 0.3 C 0 km/h
181 25-01-2009 12:05:57 0.5 C 4.66 g/m*3 0.5 C 0 km/h
182 25-01-2009 12:17:57 1 C 4.78 g/m*3 1 C 0 km/h
183 25-01-2009 12:29:57 1.5 C 4.89 g/m*3 1.5 C 0 km/h
184 25-01-2009 12:41:57 1.9 C 4.91 g/m*3 1.9 C 0 km/h
185 25-01-2009 12:53:57 2.4 C 4.97 g/m*3 2.4 C 0 km/h
186 25-01-2009 13:05:57 3 C 4.93 g/m*3 3 C 0 km/h
187 25-01-2009 13:17:56 3.1 C 4.67 g/m*3 3.1 C 0 km/h
188 25-01-2009 13:29:56 3 C 4.34 g/m*3 3 C 0 km/h
189 25-01-2009 13:41:57 3.4 C 4.46 g/m*3 3.4 C 0 km/h
190 25-01-2009 13:53:56 3.9 C 4.29 g/m*3 3.9 C 0 km/h
191 25-01-2009 14:05:56 4.2 C 3.99 g/m*3 4.2 C 0 km/h
192 25-01-2009 14:17:57 4.5 C 3.94 g/m*3 4.5 C 0 km/h
193 25-01-2009 14:29:57 5 C 3.87 g/m*3 5 C 0 km/h
194 25-01-2009 14:41:56 5.4 C 3.7 g/m*3 5.4 C 0 km/h
195 25-01-2009 14:53:56 5.4 C 3.56 g/m*3 5.4 C 0 km/h
196 25-01-2009 15:05:56 5.2 C 3.51 g/m*3 5.2 C 0 km/h
197 25-01-2009 15:17:56 5.3 C 3.53 g/m*3 5.3 C 0 km/h
198 25-01-2009 15:29:56 4.6 C 3.57 g/m*3 4.6 C 0 km/h
199 25-01-2009 15:41:55 3.6 C 3.65 g/m*3 3.6 C 0 km/h
200 25-01-2009 15:53:55 3.2 C 3.74 g/m*3 3.2 C 0 km/h
Sensor: Nr:Datum:Temp:Abs-Feuchte:Windchill:Wind:
Aussen-T/F 201 25-01-2009 16:05:55 2.8 C 3.81 g/m*3 2.8 C 0 km/h
202 25-01-2009 16:17:55 2.6 C 3.82 g/m*3 2.6 C 0 km/h
203 25-01-2009 16:29:55 2.3 C 3.8 g/m*3 2.3 C 0 km/h
204 25-01-2009 16:41:55 2.1 C 3.8 g/m*3 2.1 C 0 km/h
205 25-01-2009 16:53:55 1.8 C 3.89 g/m*3 1.8 C 0 km/h
206 25-01-2009 17:05:54 1.6 C 3.89 g/m*3 1.6 C 0 km/h
207 25-01-2009 17:17:55 1.3 C 3.87 g/m*3 1.3 C 0 km/h
208 25-01-2009 17:29:55 1 C 3.89 g/m*3 1 C 0 km/h
209 25-01-2009 17:41:54 0.7 C 3.92 g/m*3 0.7 C 0 km/h
210 25-01-2009 17:53:55 0.4 C 3.88 g/m*3 0.4 C 0 km/h
211 25-01-2009 18:05:54 0 C 3.78 g/m*3 0 C 0 km/h
212 25-01-2009 18:17:54 -0.3 C 3.8 g/m*3 -0.3 C 0 km/h
213 25-01-2009 18:29:54 -0.4 C 3.82 g/m*3 -0.4 C 0 km/h
214 25-01-2009 18:41:54 -0.5 C 3.79 g/m*3 -0.5 C 0 km/h
215 25-01-2009 18:53:53 -0.5 C 3.88 g/m*3 -0.5 C 0 km/h
216 25-01-2009 19:05:54 -0.6 C 3.86 g/m*3 -0.6 C 0 km/h
217 25-01-2009 19:17:53 -0.7 C 3.88 g/m*3 -0.7 C 0 km/h
218 25-01-2009 19:29:53 -0.8 C 3.85 g/m*3 -0.8 C 0 km/h
219 25-01-2009 19:41:53 -0.9 C 3.82 g/m*3 -0.9 C 0 km/h
220 25-01-2009 19:53:53 -1.1 C 3.82 g/m*3 -1.1 C 0 km/h
221 25-01-2009 20:05:53 -1.2 C 3.79 g/m*3 -1.2 C 0 km/h
222 25-01-2009 20:17:53 -1.3 C 3.81 g/m*3 -1.3 C 0 km/h
223 25-01-2009 20:29:53 -1.3 C 3.85 g/m*3 -1.3 C 0 km/h
224 25-01-2009 20:41:53 -1.3 C 3.85 g/m*3 -1.3 C 0 km/h
225 25-01-2009 20:53:53 -1.3 C 3.85 g/m*3 -1.3 C 0 km/h
Sensor: Nr:Datum:Temp:Abs-Feuchte:Windchill:Wind:
Aussen-T/F 226 25-01-2009 21:05:52 -1.5 C 3.84 g/m*3 -1.5 C 0 km/h
227 25-01-2009 21:17:53 -1.5 C 3.84 g/m*3 -1.5 C 0 km/h
228 25-01-2009 21:29:53 -1.6 C 3.81 g/m*3 -1.6 C 0 km/h
229 25-01-2009 21:41:52 -1.7 C 3.79 g/m*3 -1.7 C 0 km/h
230 25-01-2009 21:53:52 -1.6 C 3.81 g/m*3 -1.6 C 0 km/h
231 25-01-2009 22:05:52 -1.7 C 3.83 g/m*3 -1.7 C 0 km/h
232 25-01-2009 22:17:52 -1.8 C 3.8 g/m*3 -1.8 C 0 km/h
233 25-01-2009 22:29:52 -1.9 C 3.78 g/m*3 -1.9 C 0 km/h
234 25-01-2009 22:41:51 -1.8 C 3.8 g/m*3 -1.8 C 0 km/h
235 25-01-2009 22:54:53 -1.9 C 3.78 g/m*3 -1.9 C 0 km/h
236 25-01-2009 23:06:53 -1.8 C 3.85 g/m*3 -1.8 C 0 km/h
237 25-01-2009 23:18:53 -1.9 C 3.82 g/m*3 -1.9 C 0 km/h
238 25-01-2009 23:30:53 -1.9 C 3.82 g/m*3 -1.9 C 0 km/h
239 25-01-2009 23:42:53 -2 C 3.79 g/m*3 -2 C 0 km/h
240 25-01-2009 23:54:53 -2.1 C 3.77 g/m*3 -2.1 C 0 km/h
241 26-01-2009 00:06:53 -2.2 C 3.74 g/m*3 -2.2 C 0 km/h
242 26-01-2009 00:18:53 -2.4 C 3.69 g/m*3 -2.4 C 0 km/h
243 26-01-2009 00:30:53 -2.4 C 3.69 g/m*3 -2.4 C 0 km/h
244 26-01-2009 00:42:53 -2.5 C 3.62 g/m*3 -2.5 C 0 km/h
245 26-01-2009 00:54:53 -2.5 C 3.66 g/m*3 -2.5 C 0 km/h
246 26-01-2009 01:06:53 -2.5 C 3.66 g/m*3 -2.5 C 0 km/h
247 26-01-2009 01:18:53 -2.7 C 3.57 g/m*3 -2.7 C 0 km/h
248 26-01-2009 01:30:53 -2.9 C 3.52 g/m*3 -2.9 C 0 km/h
249 26-01-2009 01:42:53 -3 C 3.5 g/m*3 -3 C 0 km/h
250 26-01-2009 01:54:53 -3.1 C 3.47 g/m*3 -3.1 C 0 km/h
Sensor: Nr:Datum:Temp:Abs-Feuchte:Windchill:Wind:
Aussen-T/F 251 26-01-2009 02:06:53 -3.2 C 3.45 g/m*3 -3.2 C 0 km/h
252 26-01-2009 02:18:53 -3.2 C 3.45 g/m*3 -3.2 C 0 km/h
253 26-01-2009 02:30:54 -3.3 C 3.42 g/m*3 -3.3 C 0 km/h
254 26-01-2009 02:42:54 -3.2 C 3.49 g/m*3 -3.2 C 0 km/h
255 26-01-2009 02:54:54 -3.2 C 3.49 g/m*3 -3.2 C 0 km/h
256 26-01-2009 03:06:54 -3.2 C 3.49 g/m*3 -3.2 C 0 km/h
257 26-01-2009 03:18:54 -3.3 C 3.46 g/m*3 -3.3 C 0 km/h
258 26-01-2009 03:30:54 -3.4 C 3.47 g/m*3 -3.4 C 0 km/h
259 26-01-2009 03:42:54 -3.4 C 3.47 g/m*3 -3.4 C 0 km/h
260 26-01-2009 03:54:54 -3.4 C 3.47 g/m*3 -3.4 C 0 km/h
261 26-01-2009 04:06:54 -3.5 C 3.45 g/m*3 -3.5 C 0 km/h
262 26-01-2009 04:18:54 -3.8 C 3.38 g/m*3 -3.8 C 0 km/h
263 26-01-2009 04:30:54 -3.7 C 3.4 g/m*3 -3.7 C 0 km/h
264 26-01-2009 04:42:54 -3.8 C 3.38 g/m*3 -3.8 C 0 km/h
265 26-01-2009 04:54:54 -3.8 C 3.38 g/m*3 -3.8 C 0 km/h
266 26-01-2009 05:06:54 -3.8 C 3.38 g/m*3 -3.8 C 0 km/h
267 26-01-2009 05:18:54 -3.9 C 3.39 g/m*3 -3.9 C 0 km/h
268 26-01-2009 05:30:54 -3.7 C 3.44 g/m*3 -3.7 C 0 km/h
269 26-01-2009 05:42:54 -3.7 C 3.44 g/m*3 -3.7 C 0 km/h
270 26-01-2009 05:54:54 -3.6 C 3.46 g/m*3 -3.6 C 0 km/h
271 26-01-2009 06:06:54 -3.5 C 3.49 g/m*3 -3.5 C 0 km/h
272 26-01-2009 06:18:55 -3.4 C 3.55 g/m*3 -3.4 C 0 km/h
273 26-01-2009 06:30:55 -3.4 C 3.55 g/m*3 -3.4 C 0 km/h
274 26-01-2009 06:42:55 -3.4 C 3.55 g/m*3 -3.4 C 0 km/h
275 26-01-2009 06:54:55 -3.3 C 3.58 g/m*3 -3.3 C 0 km/h
Sensor: Nr:Datum:Temp:Abs-Feuchte:Windchill:Wind:
Aussen-T/F 276 26-01-2009 07:06:52 -3.4 C 3.55 g/m*3 -3.4 C 0 km/h
277 26-01-2009 07:18:53 -3.3 C 3.58 g/m*3 -3.3 C 0 km/h
278 26-01-2009 07:30:52 -3.4 C 3.55 g/m*3 -3.4 C 0 km/h
279 26-01-2009 07:42:52 -3.5 C 3.53 g/m*3 -3.5 C 0 km/h
280 26-01-2009 07:54:52 -3.5 C 3.53 g/m*3 -3.5 C 0 km/h
281 26-01-2009 08:06:52 -3.4 C 3.59 g/m*3 -3.4 C 0 km/h
282 26-01-2009 08:18:52 -3.3 C 3.61 g/m*3 -3.3 C 0 km/h
283 26-01-2009 08:30:52 -3.4 C 3.59 g/m*3 -3.4 C 0 km/h
284 26-01-2009 08:42:52 -3.4 C 3.59 g/m*3 -3.4 C 0 km/h
285 26-01-2009 08:54:52 -3.4 C 3.59 g/m*3 -3.4 C 0 km/h
286 26-01-2009 09:06:52 -3.1 C 3.67 g/m*3 -3.1 C 0 km/h
287 26-01-2009 09:18:51 -3.1 C 3.67 g/m*3 -3.1 C 0 km/h
288 26-01-2009 09:30:51 -3.1 C 3.67 g/m*3 -3.1 C 0 km/h
289 26-01-2009 09:42:51 -3.1 C 3.67 g/m*3 -3.1 C 0 km/h
290 26-01-2009 09:54:51 -2.9 C 3.72 g/m*3 -2.9 C 0 km/h
291 26-01-2009 10:06:51 -2.6 C 3.8 g/m*3 -2.6 C 0 km/h
292 26-01-2009 10:18:50 -2.2 C 3.91 g/m*3 -2.2 C 0 km/h
293 26-01-2009 10:30:51 -2 C 3.96 g/m*3 -2 C 0 km/h
294 26-01-2009 10:42:51 -1.7 C 4.05 g/m*3 -1.7 C 0 km/h
295 26-01-2009 10:54:50 -1.5 C 4.1 g/m*3 -1.5 C 0 km/h
296 26-01-2009 11:06:50 -1.6 C 4.03 g/m*3 -1.6 C 0 km/h
297 26-01-2009 11:18:51 -1.8 C 3.93 g/m*3 -1.8 C 0 km/h
298 26-01-2009 11:30:50 -1.9 C 3.82 g/m*3 -1.9 C 0 km/h
299 26-01-2009 11:42:50 -1.6 C 3.9 g/m*3 -1.6 C 0 km/h
300 26-01-2009 11:54:50 -1.1 C 4.04 g/m*3 -1.1 C 0 km/h
Sensor: Nr:Datum:Temp:Abs-Feuchte:Windchill:Wind:
Aussen-T/F 301 26-01-2009 12:06:50 -0.4 C 4.19 g/m*3 -0.4 C 0 km/h
302 26-01-2009 12:18:50 -0.1 C 4.23 g/m*3 -0.1 C 0 km/h
303 26-01-2009 12:30:49 0.3 C 4.3 g/m*3 0.3 C 0 km/h
304 26-01-2009 12:42:49 0 C 4.07 g/m*3 0 C 0 km/h
305 26-01-2009 12:54:50 0.1 C 4.05 g/m*3 0.1 C 0 km/h
306 26-01-2009 13:06:50 0.5 C 4.16 g/m*3 0.5 C 0 km/h
307 26-01-2009 13:18:50 0.7 C 4.17 g/m*3 0.7 C 0 km/h
308 26-01-2009 13:30:52 0.6 C 4.14 g/m*3 0.6 C 0 km/h
309 26-01-2009 13:42:52 0.6 C 4.14 g/m*3 0.6 C 0 km/h
310 26-01-2009 13:54:49 1 C 4.26 g/m*3 1 C 0 km/h
311 26-01-2009 14:06:48 1.3 C 4.34 g/m*3 1.3 C 0 km/h
312 26-01-2009 14:18:49 1.3 C 4.24 g/m*3 1.3 C 0 km/h
313 26-01-2009 14:30:49 1.2 C 4.21 g/m*3 1.2 C 0 km/h
314 26-01-2009 14:42:49 1.1 C 4.18 g/m*3 1.1 C 0 km/h
315 26-01-2009 14:54:48 1.2 C 4.21 g/m*3 1.2 C 0 km/h
316 26-01-2009 15:06:49 1.3 C 4.24 g/m*3 1.3 C 0 km/h
317 26-01-2009 15:18:48 1.2 C 4.21 g/m*3 1.2 C 0 km/h
318 26-01-2009 15:30:48 1.1 C 4.18 g/m*3 1.1 C 0 km/h
319 26-01-2009 15:42:48 1 C 4.2 g/m*3 1 C 0 km/h
320 26-01-2009 15:54:48 0.9 C 4.23 g/m*3 0.9 C 0 km/h
321 26-01-2009 16:06:47 0.7 C 4.17 g/m*3 0.7 C 0 km/h
322 26-01-2009 16:18:48 0.4 C 4.08 g/m*3 0.4 C 0 km/h
323 26-01-2009 16:30:47 0.2 C 4.03 g/m*3 0.2 C 0 km/h
324 26-01-2009 16:42:47 -0.2 C 3.92 g/m*3 -0.2 C 0 km/h
325 26-01-2009 16:54:27 -0.5 C 3.84 g/m*3 -0.5 C 0 km/h
Sensor: Nr:Datum:Temp:Abs-Feuchte:Windchill:Wind:
Aussen-T/F 326 26-01-2009 17:06:02 -0.8 C 3.76 g/m*3 -0.8 C 0 km/h
327 26-01-2009 17:18:02 -1 C 3.75 g/m*3 -1 C 0 km/h
328 26-01-2009 17:30:02 -1.4 C 3.69 g/m*3 -1.4 C 0 km/h
329 26-01-2009 17:42:02 -1.7 C 3.62 g/m*3 -1.7 C 0 km/h
330 26-01-2009 17:54:02 -1.8 C 3.63 g/m*3 -1.8 C 0 km/h
331 26-01-2009 18:06:01 -1.8 C 3.72 g/m*3 -1.8 C 0 km/h
332 26-01-2009 18:18:01 -1.9 C 3.69 g/m*3 -1.9 C 0 km/h
333 26-01-2009 18:30:01 -2 C 3.67 g/m*3 -2 C 0 km/h
334 26-01-2009 18:42:01 -2 C 3.71 g/m*3 -2 C 0 km/h
335 26-01-2009 18:54:01 -2.1 C 3.68 g/m*3 -2.1 C 0 km/h
336 26-01-2009 19:06:00 -2.1 C 3.68 g/m*3 -2.1 C 0 km/h
337 26-01-2009 19:18:01 -2.3 C 3.63 g/m*3 -2.3 C 0 km/h
338 26-01-2009 19:30:02 -2.4 C 3.61 g/m*3 -2.4 C 0 km/h
339 26-01-2009 19:42:00 -2.3 C 3.63 g/m*3 -2.3 C 0 km/h
340 26-01-2009 19:54:00 -2.6 C 3.56 g/m*3 -2.6 C 0 km/h
341 26-01-2009 20:06:00 -2.6 C 3.56 g/m*3 -2.6 C 0 km/h
342 26-01-2009 20:18:00 -2.6 C 3.56 g/m*3 -2.6 C 0 km/h
343 26-01-2009 20:30:00 -2.8 C 3.51 g/m*3 -2.8 C 0 km/h
344 26-01-2009 20:42:00 -3 C 3.46 g/m*3 -3 C 0 km/h
345 26-01-2009 20:54:00 -2.9 C 3.48 g/m*3 -2.9 C 0 km/h
346 26-01-2009 21:06:00 -3.1 C 3.43 g/m*3 -3.1 C 0 km/h
347 26-01-2009 21:18:59 -3.3 C 3.38 g/m*3 -3.3 C 0 km/h
348 26-01-2009 21:29:59 -3.2 C 3.41 g/m*3 -3.2 C 0 km/h
349 26-01-2009 21:41:59 -3.3 C 3.38 g/m*3 -3.3 C 0 km/h
350 26-01-2009 21:55:00 -3.3 C 3.42 g/m*3 -3.3 C 0 km/h
Sensor: Nr:Datum:Temp:Abs-Feuchte:Windchill:Wind:
Aussen-T/F 351 26-01-2009 22:07:00 -3.2 C 3.45 g/m*3 -3.2 C 0 km/h
352 26-01-2009 22:19:00 -3.4 C 3.4 g/m*3 -3.4 C 0 km/h
353 26-01-2009 22:31:00 -3.7 C 3.33 g/m*3 -3.7 C 0 km/h
354 26-01-2009 22:43:00 -3.8 C 3.3 g/m*3 -3.8 C 0 km/h
355 26-01-2009 22:55:00 -3.9 C 3.28 g/m*3 -3.9 C 0 km/h
356 26-01-2009 23:07:00 -3.8 C 3.3 g/m*3 -3.8 C 0 km/h
357 26-01-2009 23:19:01 -3.8 C 3.3 g/m*3 -3.8 C 0 km/h
358 26-01-2009 23:31:01 -3.7 C 3.33 g/m*3 -3.7 C 0 km/h
359 26-01-2009 23:43:01 -3.8 C 3.3 g/m*3 -3.8 C 0 km/h
360 26-01-2009 23:55:01 -3.8 C 3.34 g/m*3 -3.8 C 0 km/h
361 27-01-2009 00:07:01 -3.8 C 3.34 g/m*3 -3.8 C 0 km/h
362 27-01-2009 00:19:01 -3.9 C 3.32 g/m*3 -3.9 C 0 km/h
363 27-01-2009 00:31:01 -3.8 C 3.34 g/m*3 -3.8 C 0 km/h
364 27-01-2009 00:43:01 -3.8 C 3.34 g/m*3 -3.8 C 0 km/h
365 27-01-2009 00:55:01 -3.7 C 3.36 g/m*3 -3.7 C 0 km/h
366 27-01-2009 01:07:01 -3.7 C 3.4 g/m*3 -3.7 C 0 km/h
367 27-01-2009 01:19:01 -3.6 C 3.43 g/m*3 -3.6 C 0 km/h
368 27-01-2009 01:31:01 -3.6 C 3.43 g/m*3 -3.6 C 0 km/h
369 27-01-2009 01:43:01 -3.7 C 3.4 g/m*3 -3.7 C 0 km/h
370 27-01-2009 01:55:01 -3.8 C 3.38 g/m*3 -3.8 C 0 km/h
371 27-01-2009 02:07:01 -3.8 C 3.38 g/m*3 -3.8 C 0 km/h
372 27-01-2009 02:19:01 -3.8 C 3.38 g/m*3 -3.8 C 0 km/h
373 27-01-2009 02:31:01 -3.7 C 3.44 g/m*3 -3.7 C 0 km/h
374 27-01-2009 02:43:01 -3.6 C 3.46 g/m*3 -3.6 C 0 km/h
375 27-01-2009 02:55:01 -3.5 C 3.49 g/m*3 -3.5 C 0 km/h
Sensor: Nr:Datum:Temp:Abs-Feuchte:Windchill:Wind:
Aussen-T/F 376 27-01-2009 03:07:02 -3.4 C 3.51 g/m*3 -3.4 C 0 km/h
377 27-01-2009 03:19:02 -3.2 C 3.6 g/m*3 -3.2 C 0 km/h
378 27-01-2009 03:31:02 -3.1 C 3.63 g/m*3 -3.1 C 0 km/h
379 27-01-2009 03:43:02 -3 C 3.65 g/m*3 -3 C 0 km/h
380 27-01-2009 03:55:02 -3 C 3.65 g/m*3 -3 C 0 km/h
381 27-01-2009 04:07:02 -2.9 C 3.68 g/m*3 -2.9 C 0 km/h
382 27-01-2009 04:19:02 -2.7 C 3.73 g/m*3 -2.7 C 0 km/h
383 27-01-2009 04:31:02 -2.7 C 3.73 g/m*3 -2.7 C 0 km/h
384 27-01-2009 04:43:02 -2.7 C 3.73 g/m*3 -2.7 C 0 km/h
385 27-01-2009 04:55:02 -2.8 C 3.71 g/m*3 -2.8 C 0 km/h
386 27-01-2009 05:07:02 -2.7 C 3.73 g/m*3 -2.7 C 0 km/h
387 27-01-2009 05:19:02 -2.5 C 3.78 g/m*3 -2.5 C 0 km/h
388 27-01-2009 05:31:02 -2.5 C 3.78 g/m*3 -2.5 C 0 km/h
389 27-01-2009 05:43:02 -2.4 C 3.81 g/m*3 -2.4 C 0 km/h
390 27-01-2009 05:55:02 -2.5 C 3.78 g/m*3 -2.5 C 0 km/h
391 27-01-2009 06:07:02 -2.4 C 3.81 g/m*3 -2.4 C 0 km/h
392 27-01-2009 06:19:02 -2.6 C 3.72 g/m*3 -2.6 C 0 km/h
393 27-01-2009 06:31:00 -2.6 C 3.72 g/m*3 -2.6 C 0 km/h
394 27-01-2009 06:43:00 -2.5 C 3.7 g/m*3 -2.5 C 0 km/h
395 27-01-2009 06:55:00 -2.5 C 3.66 g/m*3 -2.5 C 0 km/h
396 27-01-2009 07:07:00 -2.5 C 3.66 g/m*3 -2.5 C 0 km/h
397 27-01-2009 07:19:59 -2.4 C 3.69 g/m*3 -2.4 C 0 km/h
398 27-01-2009 07:31:59 -2.3 C 3.71 g/m*3 -2.3 C 0 km/h
399 27-01-2009 07:42:59 -2.3 C 3.67 g/m*3 -2.3 C 0 km/h
400 27-01-2009 07:55:59 -2.2 C 3.7 g/m*3 -2.2 C 0 km/h
Sensor: Nr:Datum:Temp:Abs-Feuchte:Windchill:Wind:
Aussen-T/F 401 27-01-2009 08:07:59 -2.1 C 3.73 g/m*3 -2.1 C 0 km/h
402 27-01-2009 08:19:58 -2.1 C 3.73 g/m*3 -2.1 C 0 km/h
403 27-01-2009 08:31:59 -2.1 C 3.73 g/m*3 -2.1 C 0 km/h
404 27-01-2009 08:43:59 -2.1 C 3.73 g/m*3 -2.1 C 0 km/h
405 27-01-2009 08:55:00 -2 C 3.75 g/m*3 -2 C 0 km/h
406 27-01-2009 09:07:59 -2 C 3.75 g/m*3 -2 C 0 km/h
407 27-01-2009 09:19:58 -1.9 C 3.78 g/m*3 -1.9 C 0 km/h
408 27-01-2009 09:31:58 -1.8 C 3.8 g/m*3 -1.8 C 0 km/h
409 27-01-2009 09:43:58 -1.7 C 3.79 g/m*3 -1.7 C 0 km/h
410 27-01-2009 09:55:58 -1.6 C 3.81 g/m*3 -1.6 C 0 km/h
411 27-01-2009 10:07:57 -1.5 C 3.84 g/m*3 -1.5 C 0 km/h
412 27-01-2009 10:19:58 -1.5 C 3.84 g/m*3 -1.5 C 0 km/h
413 27-01-2009 10:30:59 -1.4 C 3.82 g/m*3 -1.4 C 0 km/h
414 27-01-2009 10:42:59 -1.2 C 3.88 g/m*3 -1.2 C 0 km/h
415 27-01-2009 10:55:57 -1 C 3.93 g/m*3 -1 C 0 km/h
416 27-01-2009 11:07:57 -0.9 C 3.91 g/m*3 -0.9 C 0 km/h
417 27-01-2009 11:19:57 -0.8 C 3.94 g/m*3 -0.8 C 0 km/h
418 27-01-2009 11:31:57 -0.5 C 3.98 g/m*3 -0.5 C 0 km/h
419 27-01-2009 11:43:58 -0.4 C 3.96 g/m*3 -0.4 C 0 km/h
420 27-01-2009 11:55:56 -0.3 C 3.99 g/m*3 -0.3 C 0 km/h
421 27-01-2009 12:07:57 -0.1 C 3.99 g/m*3 -0.1 C 0 km/h
422 27-01-2009 12:19:56 0.1 C 4.05 g/m*3 0.1 C 0 km/h
423 27-01-2009 12:31:56 0.4 C 4.08 g/m*3 0.4 C 0 km/h
424 27-01-2009 12:43:56 0.7 C 4.17 g/m*3 0.7 C 0 km/h
425 27-01-2009 12:55:56 0.8 C 4.15 g/m*3 0.8 C 0 km/h
Sensor: Nr:Datum:Temp:Abs-Feuchte:Windchill:Wind:
Aussen-T/F 426 27-01-2009 13:07:56 1 C 4.15 g/m*3 1 C 0 km/h
427 27-01-2009 13:19:56 1.2 C 4.21 g/m*3 1.2 C 0 km/h
428 27-01-2009 13:31:55 1.2 C 4.1 g/m*3 1.2 C 0 km/h
429 27-01-2009 13:43:55 1.4 C 4.16 g/m*3 1.4 C 0 km/h
430 27-01-2009 13:55:56 1.4 C 4.11 g/m*3 1.4 C 0 km/h
431 27-01-2009 14:07:55 1.5 C 4.14 g/m*3 1.5 C 0 km/h
432 27-01-2009 14:19:55 1.6 C 4.16 g/m*3 1.6 C 0 km/h
433 27-01-2009 14:31:55 1.7 C 4.19 g/m*3 1.7 C 0 km/h
434 27-01-2009 14:43:55 1.7 C 4.25 g/m*3 1.7 C 0 km/h
435 27-01-2009 14:55:56 1.8 C 4.28 g/m*3 1.8 C 0 km/h
436 27-01-2009 15:07:55 1.8 C 4.28 g/m*3 1.8 C 0 km/h
437 27-01-2009 15:19:54 1.8 C 4.28 g/m*3 1.8 C 0 km/h
438 27-01-2009 15:31:54 1.8 C 4.28 g/m*3 1.8 C 0 km/h
439 27-01-2009 15:43:54 1.7 C 4.25 g/m*3 1.7 C 0 km/h
440 27-01-2009 15:55:54 1.5 C 4.24 g/m*3 1.5 C 0 km/h
441 27-01-2009 16:07:54 1.4 C 4.21 g/m*3 1.4 C 0 km/h
442 27-01-2009 16:19:54 1.2 C 4.16 g/m*3 1.2 C 0 km/h
443 27-01-2009 16:31:54 1 C 4.1 g/m*3 1 C 0 km/h
444 27-01-2009 16:43:54 0.8 C 4.15 g/m*3 0.8 C 0 km/h
445 27-01-2009 16:55:54 0.6 C 4.09 g/m*3 0.6 C 0 km/h
446 27-01-2009 17:07:54 0.5 C 4.06 g/m*3 0.5 C 0 km/h
447 27-01-2009 17:19:53 0.4 C 4.08 g/m*3 0.4 C 0 km/h
448 27-01-2009 17:31:54 0.3 C 4.06 g/m*3 0.3 C 0 km/h
449 27-01-2009 17:43:54 0.3 C 4.06 g/m*3 0.3 C 0 km/h
450 27-01-2009 17:55:53 0.3 C 4.11 g/m*3 0.3 C 0 km/h
Sensor: Nr:Datum:Temp:Abs-Feuchte:Windchill:Wind:
Aussen-T/F 451 27-01-2009 18:07:53 0.3 C 4.11 g/m*3 0.3 C 0 km/h
452 27-01-2009 18:19:53 0.1 C 4.05 g/m*3 0.1 C 0 km/h
453 27-01-2009 18:31:53 0.1 C 4.1 g/m*3 0.1 C 0 km/h
454 27-01-2009 18:43:54 0.1 C 4.1 g/m*3 0.1 C 0 km/h
455 27-01-2009 18:55:52 0.1 C 4.1 g/m*3 0.1 C 0 km/h
456 27-01-2009 19:07:53 0.1 C 4.15 g/m*3 0.1 C 0 km/h
457 27-01-2009 19:19:52 0.1 C 4.15 g/m*3 0.1 C 0 km/h
458 27-01-2009 19:31:52 0.2 C 4.18 g/m*3 0.2 C 0 km/h
459 27-01-2009 19:43:52 0.3 C 4.25 g/m*3 0.3 C 0 km/h
460 27-01-2009 19:55:52 0.2 C 4.22 g/m*3 0.2 C 0 km/h
461 27-01-2009 20:07:52 0.3 C 4.25 g/m*3 0.3 C 0 km/h
462 27-01-2009 20:19:52 0.3 C 4.25 g/m*3 0.3 C 0 km/h
463 27-01-2009 20:31:52 0.3 C 4.25 g/m*3 0.3 C 0 km/h
464 27-01-2009 20:43:52 0.3 C 4.25 g/m*3 0.3 C 0 km/h
465 27-01-2009 20:55:51 0.3 C 4.25 g/m*3 0.3 C 0 km/h
466 27-01-2009 21:07:51 0.3 C 4.25 g/m*3 0.3 C 0 km/h
467 27-01-2009 21:19:52 0.3 C 4.3 g/m*3 0.3 C 0 km/h
468 27-01-2009 21:31:51 0.3 C 4.3 g/m*3 0.3 C 0 km/h
469 27-01-2009 21:43:51 0.3 C 4.3 g/m*3 0.3 C 0 km/h
470 27-01-2009 21:55:51 0.2 C 4.27 g/m*3 0.2 C 0 km/h
471 27-01-2009 22:08:51 0.3 C 4.3 g/m*3 0.3 C 0 km/h
472 27-01-2009 22:20:51 0.3 C 4.3 g/m*3 0.3 C 0 km/h
473 27-01-2009 22:32:51 0.3 C 4.35 g/m*3 0.3 C 0 km/h
474 27-01-2009 22:44:51 0.3 C 4.35 g/m*3 0.3 C 0 km/h
475 27-01-2009 22:56:51 0.3 C 4.35 g/m*3 0.3 C 0 km/h
Sensor: Nr:Datum:Temp:Abs-Feuchte:Windchill:Wind:
Aussen-T/F 476 27-01-2009 23:08:51 0.3 C 4.35 g/m*3 0.3 C 0 km/h
477 27-01-2009 23:20:51 0.3 C 4.35 g/m*3 0.3 C 0 km/h
478 27-01-2009 23:32:51 0.3 C 4.35 g/m*3 0.3 C 0 km/h
479 27-01-2009 23:44:52 0.3 C 4.35 g/m*3 0.3 C 0 km/h
480 27-01-2009 23:56:52 0.3 C 4.35 g/m*3 0.3 C 0 km/h
481 28-01-2009 00:08:52 0.2 C 4.32 g/m*3 0.2 C 0 km/h
482 28-01-2009 00:20:52 0.2 C 4.32 g/m*3 0.2 C 0 km/h
483 28-01-2009 00:32:52 0.2 C 4.32 g/m*3 0.2 C 0 km/h
484 28-01-2009 00:44:52 0.2 C 4.32 g/m*3 0.2 C 0 km/h
485 28-01-2009 00:56:52 0.1 C 4.29 g/m*3 0.1 C 0 km/h
486 28-01-2009 01:08:52 0 C 4.26 g/m*3 0 C 0 km/h
487 28-01-2009 01:20:52 0.1 C 4.29 g/m*3 0.1 C 0 km/h
488 28-01-2009 01:32:52 0.1 C 4.29 g/m*3 0.1 C 0 km/h
489 28-01-2009 01:44:52 0.1 C 4.29 g/m*3 0.1 C 0 km/h
490 28-01-2009 01:56:52 0.1 C 4.29 g/m*3 0.1 C 0 km/h
491 28-01-2009 02:08:52 0.1 C 4.29 g/m*3 0.1 C 0 km/h
492 28-01-2009 02:20:52 0 C 4.22 g/m*3 0 C 0 km/h
493 28-01-2009 02:32:52 0 C 4.22 g/m*3 0 C 0 km/h
494 28-01-2009 02:44:52 0 C 4.22 g/m*3 0 C 0 km/h
495 28-01-2009 02:56:52 0 C 4.22 g/m*3 0 C 0 km/h
496 28-01-2009 03:08:52 0 C 4.22 g/m*3 0 C 0 km/h
497 28-01-2009 03:20:52 -0.2 C 4.16 g/m*3 -0.2 C 0 km/h
498 28-01-2009 03:32:53 -0.2 C 4.16 g/m*3 -0.2 C 0 km/h
499 28-01-2009 03:44:53 -0.2 C 4.16 g/m*3 -0.2 C 0 km/h
500 28-01-2009 03:56:53 -0.2 C 4.16 g/m*3 -0.2 C 0 km/h
Sensor: Nr:Datum:Temp:Abs-Feuchte:Windchill:Wind:
Aussen-T/F 501 28-01-2009 04:08:53 -0.3 C 4.13 g/m*3 -0.3 C 0 km/h
502 28-01-2009 04:20:53 -0.3 C 4.13 g/m*3 -0.3 C 0 km/h
503 28-01-2009 04:32:53 -0.4 C 4.05 g/m*3 -0.4 C 0 km/h
504 28-01-2009 04:44:53 -0.6 C 4 g/m*3 -0.6 C 0 km/h
505 28-01-2009 04:56:53 -0.8 C 3.94 g/m*3 -0.8 C 0 km/h
506 28-01-2009 05:08:53 -1 C 3.89 g/m*3 -1 C 0 km/h
507 28-01-2009 05:20:53 -0.9 C 3.91 g/m*3 -0.9 C 0 km/h
508 28-01-2009 05:32:53 -0.6 C 4.04 g/m*3 -0.6 C 0 km/h
509 28-01-2009 05:44:53 -0.6 C 4 g/m*3 -0.6 C 0 km/h
510 28-01-2009 05:56:53 -0.6 C 4 g/m*3 -0.6 C 0 km/h
511 28-01-2009 06:08:53 -0.6 C 4 g/m*3 -0.6 C 0 km/h
512 28-01-2009 06:20:53 -0.7 C 3.97 g/m*3 -0.7 C 0 km/h
513 28-01-2009 06:32:53 -0.7 C 3.97 g/m*3 -0.7 C 0 km/h
514 28-01-2009 06:44:53 -0.7 C 3.92 g/m*3 -0.7 C 0 km/h
515 28-01-2009 06:56:53 -0.6 C 3.95 g/m*3 -0.6 C 0 km/h
516 28-01-2009 07:08:52 -0.6 C 3.95 g/m*3 -0.6 C 0 km/h
517 28-01-2009 07:20:51 -0.6 C 3.95 g/m*3 -0.6 C 0 km/h
518 28-01-2009 07:32:51 -0.5 C 3.98 g/m*3 -0.5 C 0 km/h
519 28-01-2009 07:44:51 -0.5 C 3.98 g/m*3 -0.5 C 0 km/h
520 28-01-2009 07:56:51 -0.5 C 3.98 g/m*3 -0.5 C 0 km/h
521 28-01-2009 08:08:51 -0.4 C 4.01 g/m*3 -0.4 C 0 km/h
522 28-01-2009 08:20:50 -0.5 C 3.93 g/m*3 -0.5 C 0 km/h
523 28-01-2009 08:32:50 -0.5 C 3.93 g/m*3 -0.5 C 0 km/h
524 28-01-2009 08:44:50 -0.4 C 3.96 g/m*3 -0.4 C 0 km/h
525 28-01-2009 08:56:50 -0.5 C 3.93 g/m*3 -0.5 C 0 km/h
Sensor: Nr:Datum:Temp:Abs-Feuchte:Windchill:Wind:
Aussen-T/F 526 28-01-2009 09:08:50 -0.4 C 3.96 g/m*3 -0.4 C 0 km/h
527 28-01-2009 09:20:49 -0.3 C 3.99 g/m*3 -0.3 C 0 km/h
528 28-01-2009 09:32:50 -0.3 C 3.94 g/m*3 -0.3 C 0 km/h
529 28-01-2009 09:44:50 -0.1 C 3.99 g/m*3 -0.1 C 0 km/h
530 28-01-2009 09:56:50 0.1 C 4.05 g/m*3 0.1 C 0 km/h
531 28-01-2009 10:08:49 0.2 C 4.08 g/m*3 0.2 C 0 km/h
532 28-01-2009 10:20:50 0.3 C 4.06 g/m*3 0.3 C 0 km/h
533 28-01-2009 10:32:49 0.4 C 4.03 g/m*3 0.4 C 0 km/h
534 28-01-2009 10:44:49 0.6 C 4.09 g/m*3 0.6 C 0 km/h
535 28-01-2009 10:56:49 0.7 C 4.07 g/m*3 0.7 C 0 km/h
536 28-01-2009 11:08:48 0.8 C 3.99 g/m*3 0.8 C 0 km/h
537 28-01-2009 11:20:49 0.8 C 3.94 g/m*3 0.8 C 0 km/h
538 28-01-2009 11:32:48 1 C 3.94 g/m*3 1 C 0 km/h
539 28-01-2009 11:44:48 1.3 C 3.92 g/m*3 1.3 C 0 km/h
540 28-01-2009 11:56:48 1.4 C 3.89 g/m*3 1.4 C 0 km/h
541 28-01-2009 12:08:48 1.7 C 3.92 g/m*3 1.7 C 0 km/h
542 28-01-2009 12:20:48 2.2 C 4 g/m*3 2.2 C 0 km/h
543 28-01-2009 12:32:48 2.3 C 3.86 g/m*3 2.3 C 0 km/h
544 28-01-2009 12:44:48 2.5 C 3.91 g/m*3 2.5 C 0 km/h
545 28-01-2009 12:56:48 2.7 C 3.96 g/m*3 2.7 C 0 km/h
546 28-01-2009 13:08:48 2.6 C 3.88 g/m*3 2.6 C 0 km/h
547 28-01-2009 13:20:47 2.6 C 3.94 g/m*3 2.6 C 0 km/h
548 28-01-2009 13:32:48 2.6 C 3.94 g/m*3 2.6 C 0 km/h
549 28-01-2009 13:44:47 2.9 C 4.07 g/m*3 2.9 C 0 km/h
550 28-01-2009 13:56:47 3.2 C 4.1 g/m*3 3.2 C 0 km/h
Sensor: Nr:Datum:Temp:Abs-Feuchte:Windchill:Wind:
Aussen-T/F 551 28-01-2009 14:08:47 3.1 C 4.01 g/m*3 3.1 C 0 km/h
552 28-01-2009 14:20:46 3.1 C 4.07 g/m*3 3.1 C 0 km/h
553 28-01-2009 14:32:47 2.7 C 4.08 g/m*3 2.7 C 0 km/h
554 28-01-2009 14:44:46 2.8 C 4.11 g/m*3 2.8 C 0 km/h
555 28-01-2009 14:56:46 2.7 C 4.14 g/m*3 2.7 C 0 km/h
556 28-01-2009 15:08:46 2.6 C 4.17 g/m*3 2.6 C 0 km/h
557 28-01-2009 15:20:47 2.4 C 4.11 g/m*3 2.4 C 0 km/h
558 28-01-2009 15:32:46 2 C 4 g/m*3 2 C 0 km/h
559 28-01-2009 15:44:46 1.6 C 3.95 g/m*3 1.6 C 0 km/h
560 28-01-2009 15:56:46 1.3 C 3.92 g/m*3 1.3 C 0 km/h
561 28-01-2009 16:08:46 1.1 C 3.92 g/m*3 1.1 C 0 km/h
562 28-01-2009 16:20:46 1 C 3.89 g/m*3 1 C 0 km/h
563 28-01-2009 16:32:46 0.7 C 3.86 g/m*3 0.7 C 0 km/h
564 28-01-2009 16:44:45 0.5 C 3.86 g/m*3 0.5 C 0 km/h
565 28-01-2009 16:56:45 0.4 C 3.88 g/m*3 0.4 C 0 km/h
566 28-01-2009 17:08:46 0.2 C 3.83 g/m*3 0.2 C 0 km/h
567 28-01-2009 17:20:45 0 C 3.78 g/m*3 0 C 0 km/h
568 28-01-2009 17:32:45 -0.3 C 3.75 g/m*3 -0.3 C 0 km/h
569 28-01-2009 17:44:47 -0.4 C 3.77 g/m*3 -0.4 C 0 km/h
570 28-01-2009 17:56:47 -0.7 C 3.69 g/m*3 -0.7 C 0 km/h
571 28-01-2009 18:08:45 -0.8 C 3.67 g/m*3 -0.8 C 0 km/h
572 28-01-2009 18:20:45 -0.4 C 3.86 g/m*3 -0.4 C 0 km/h
573 28-01-2009 18:32:45 0 C 4.02 g/m*3 0 C 0 km/h
574 28-01-2009 18:44:44 0.2 C 4.08 g/m*3 0.2 C 0 km/h
575 28-01-2009 18:56:44 0.3 C 4.06 g/m*3 0.3 C 0 km/h
Sensor: Nr:Datum:Temp:Abs-Feuchte:Windchill:Wind:
Aussen-T/F 576 28-01-2009 19:08:45 0.4 C 4.08 g/m*3 0.4 C 0 km/h
577 28-01-2009 19:20:44 0.4 C 4.08 g/m*3 0.4 C 0 km/h
578 28-01-2009 19:32:44 0.5 C 4.11 g/m*3 0.5 C 0 km/h
579 28-01-2009 19:44:44 0.5 C 4.11 g/m*3 0.5 C 0 km/h
580 28-01-2009 19:56:44 0.6 C 4.14 g/m*3 0.6 C 0 km/h
581 28-01-2009 20:08:44 0.6 C 4.09 g/m*3 0.6 C 0 km/h
582 28-01-2009 20:20:43 0.6 C 4.09 g/m*3 0.6 C 0 km/h
583 28-01-2009 20:32:43 0.7 C 4.12 g/m*3 0.7 C 0 km/h
584 28-01-2009 20:44:43 0.8 C 4.15 g/m*3 0.8 C 0 km/h
585 28-01-2009 20:56:43 0.8 C 4.1 g/m*3 0.8 C 0 km/h
586 28-01-2009 21:08:43 0.8 C 4.1 g/m*3 0.8 C 0 km/h
587 28-01-2009 21:20:43 0.7 C 4.12 g/m*3 0.7 C 0 km/h
588 28-01-2009 21:32:43 0.7 C 4.07 g/m*3 0.7 C 0 km/h
589 28-01-2009 21:44:42 0.7 C 4.02 g/m*3 0.7 C 0 km/h
590 28-01-2009 21:56:42 0.8 C 4.04 g/m*3 0.8 C 0 km/h
591 28-01-2009 22:09:44 0.8 C 3.94 g/m*3 0.8 C 0 km/h
592 28-01-2009 22:21:44 0.7 C 3.81 g/m*3 0.7 C 0 km/h
593 28-01-2009 22:33:44 0.7 C 3.76 g/m*3 0.7 C 0 km/h
594 28-01-2009 22:45:44 0.7 C 3.71 g/m*3 0.7 C 0 km/h
595 28-01-2009 22:57:44 0.7 C 3.66 g/m*3 0.7 C 0 km/h
596 28-01-2009 23:09:44 0.7 C 3.61 g/m*3 0.7 C 0 km/h
597 28-01-2009 23:21:44 0.7 C 3.56 g/m*3 0.7 C 0 km/h
598 28-01-2009 23:33:44 0.7 C 3.51 g/m*3 0.7 C 0 km/h
599 28-01-2009 23:45:44 0.8 C 3.53 g/m*3 0.8 C 0 km/h
600 28-01-2009 23:57:44 0.8 C 3.48 g/m*3 0.8 C 0 km/h
Sensor: Nr:Datum:Temp:Abs-Feuchte:Windchill:Wind:
Aussen-T/F 601 29-01-2009 00:09:44 0.7 C 3.46 g/m*3 0.7 C 0 km/h
602 29-01-2009 00:21:44 0.7 C 3.46 g/m*3 0.7 C 0 km/h
603 29-01-2009 00:33:44 0.7 C 3.46 g/m*3 0.7 C 0 km/h
604 29-01-2009 00:45:44 0.7 C 3.46 g/m*3 0.7 C 0 km/h
605 29-01-2009 00:57:44 0.7 C 3.46 g/m*3 0.7 C 0 km/h
606 29-01-2009 01:09:44 0.7 C 3.41 g/m*3 0.7 C 0 km/h
607 29-01-2009 01:21:44 0.7 C 3.36 g/m*3 0.7 C 0 km/h
608 29-01-2009 01:33:44 0.6 C 3.38 g/m*3 0.6 C 0 km/h
609 29-01-2009 01:45:44 0.5 C 3.36 g/m*3 0.5 C 0 km/h
610 29-01-2009 01:57:44 0.4 C 3.34 g/m*3 0.4 C 0 km/h
611 29-01-2009 02:09:45 0.4 C 3.19 g/m*3 0.4 C 0 km/h
612 29-01-2009 02:21:45 0.5 C 3.21 g/m*3 0.5 C 0 km/h
613 29-01-2009 02:33:45 0.6 C 3.13 g/m*3 0.6 C 0 km/h
614 29-01-2009 02:45:45 0.6 C 3.08 g/m*3 0.6 C 0 km/h
615 29-01-2009 02:57:45 0.5 C 3.11 g/m*3 0.5 C 0 km/h
616 29-01-2009 03:09:45 0.5 C 3.16 g/m*3 0.5 C 0 km/h
617 29-01-2009 03:21:45 0.5 C 3.11 g/m*3 0.5 C 0 km/h
618 29-01-2009 03:33:45 0.6 C 3.13 g/m*3 0.6 C 0 km/h
619 29-01-2009 03:45:45 0.6 C 3.18 g/m*3 0.6 C 0 km/h
620 29-01-2009 03:57:45 0.7 C 3.05 g/m*3 0.7 C 0 km/h
621 29-01-2009 04:09:45 0.6 C 3.13 g/m*3 0.6 C 0 km/h
622 29-01-2009 04:21:45 0.7 C 3.15 g/m*3 0.7 C 0 km/h
623 29-01-2009 04:33:45 0.7 C 3.15 g/m*3 0.7 C 0 km/h
624 29-01-2009 04:45:45 0.6 C 3.18 g/m*3 0.6 C 0 km/h
625 29-01-2009 04:57:45 0.6 C 3.18 g/m*3 0.6 C 0 km/h
Sensor: Nr:Datum:Temp:Abs-Feuchte:Windchill:Wind:
Aussen-T/F 626 29-01-2009 05:09:45 0.8 C 3.12 g/m*3 0.8 C 0 km/h
627 29-01-2009 05:21:45 0.8 C 3.17 g/m*3 0.8 C 0 km/h
628 29-01-2009 05:33:45 0.7 C 3.2 g/m*3 0.7 C 0 km/h
629 29-01-2009 05:45:45 0.7 C 3.25 g/m*3 0.7 C 0 km/h
630 29-01-2009 05:57:45 0.7 C 3.3 g/m*3 0.7 C 0 km/h
631 29-01-2009 06:09:46 0.7 C 3.36 g/m*3 0.7 C 0 km/h
632 29-01-2009 06:21:46 0.8 C 3.33 g/m*3 0.8 C 0 km/h
633 29-01-2009 06:33:46 0.8 C 3.28 g/m*3 0.8 C 0 km/h
634 29-01-2009 06:45:44 0.8 C 3.28 g/m*3 0.8 C 0 km/h
635 29-01-2009 06:57:44 0.8 C 3.23 g/m*3 0.8 C 0 km/h
636 29-01-2009 07:09:44 0.9 C 3.25 g/m*3 0.9 C 0 km/h
637 29-01-2009 07:21:43 0.8 C 3.23 g/m*3 0.8 C 0 km/h
638 29-01-2009 07:33:43 0.8 C 3.17 g/m*3 0.8 C 0 km/h
639 29-01-2009 07:45:43 0.8 C 3.17 g/m*3 0.8 C 0 km/h
640 29-01-2009 07:57:43 0.8 C 3.17 g/m*3 0.8 C 0 km/h
641 29-01-2009 08:09:43 0.8 C 3.23 g/m*3 0.8 C 0 km/h
642 29-01-2009 08:21:42 0.8 C 3.23 g/m*3 0.8 C 0 km/h
643 29-01-2009 08:33:43 0.8 C 3.17 g/m*3 0.8 C 0 km/h
644 29-01-2009 08:45:42 0.8 C 3.17 g/m*3 0.8 C 0 km/h
645 29-01-2009 08:57:42 0.8 C 3.12 g/m*3 0.8 C 0 km/h
646 29-01-2009 09:09:42 0.9 C 3.14 g/m*3 0.9 C 0 km/h
647 29-01-2009 09:21:43 1 C 3.06 g/m*3 1 C 0 km/h
648 29-01-2009 09:33:42 1.1 C 2.98 g/m*3 1.1 C 0 km/h
649 29-01-2009 09:45:42 1.2 C 3 g/m*3 1.2 C 0 km/h
650 29-01-2009 09:57:42 1.4 C 3.04 g/m*3 1.4 C 0 km/h
Sensor: Nr:Datum:Temp:Abs-Feuchte:Windchill:Wind:
Aussen-T/F 651 29-01-2009 10:09:42 1.6 C 3.03 g/m*3 1.6 C 0 km/h
652 29-01-2009 10:21:42 1.5 C 2.95 g/m*3 1.5 C 0 km/h
653 29-01-2009 10:33:41 1.2 C 2.89 g/m*3 1.2 C 0 km/h
654 29-01-2009 10:45:41 1 C 2.96 g/m*3 1 C 0 km/h
655 29-01-2009 10:57:42 1 C 3.01 g/m*3 1 C 0 km/h
656 29-01-2009 11:09:41 1 C 3.11 g/m*3 1 C 0 km/h
657 29-01-2009 11:21:41 1.4 C 3.04 g/m*3 1.4 C 0 km/h
658 29-01-2009 11:33:41 1.6 C 3.03 g/m*3 1.6 C 0 km/h
659 29-01-2009 11:45:41 1.7 C 2.99 g/m*3 1.7 C 0 km/h
660 29-01-2009 11:57:41 2 C 3 g/m*3 2 C 0 km/h
661 29-01-2009 12:09:41 2.2 C 2.99 g/m*3 2.2 C 0 km/h
662 29-01-2009 12:21:40 2.6 C 3.01 g/m*3 2.6 C 0 km/h
663 29-01-2009 12:33:40 2.9 C 3.01 g/m*3 2.9 C 0 km/h
664 29-01-2009 12:45:40 3.3 C 2.97 g/m*3 3.3 C 0 km/h
665 29-01-2009 12:57:40 3.9 C 2.97 g/m*3 3.9 C 0 km/h
666 29-01-2009 13:09:40 4.2 C 2.9 g/m*3 4.2 C 0 km/h
667 29-01-2009 13:21:39 4.4 C 2.81 g/m*3 4.4 C 0 km/h
668 29-01-2009 13:33:40 4.8 C 2.82 g/m*3 4.8 C 0 km/h
669 29-01-2009 13:45:40 5.1 C 2.74 g/m*3 5.1 C 0 km/h
670 29-01-2009 13:57:40 5.3 C 2.77 g/m*3 5.3 C 0 km/h
671 29-01-2009 14:09:39 5.5 C 2.67 g/m*3 5.5 C 0 km/h
672 29-01-2009 14:21:40 5.8 C 2.72 g/m*3 5.8 C 0 km/h
673 29-01-2009 14:33:39 6.1 C 2.63 g/m*3 6.1 C 0 km/h
674 29-01-2009 14:45:39 6.2 C 2.65 g/m*3 6.2 C 0 km/h
675 29-01-2009 14:57:39 6.4 C 2.61 g/m*3 6.4 C 0 km/h
Sensor: Nr:Datum:Temp:Abs-Feuchte:Windchill:Wind:
Aussen-T/F 676 29-01-2009 15:09:39 6.6 C 2.64 g/m*3 6.6 C 0 km/h
677 29-01-2009 15:21:39 6.8 C 2.68 g/m*3 6.8 C 0 km/h
678 29-01-2009 15:33:39 6.5 C 2.62 g/m*3 6.5 C 0 km/h
679 29-01-2009 15:45:39 6.4 C 2.61 g/m*3 6.4 C 0 km/h
680 29-01-2009 15:57:39 5.6 C 2.55 g/m*3 5.6 C 0 km/h
681 29-01-2009 16:09:39 4.7 C 2.66 g/m*3 4.7 C 0 km/h
682 29-01-2009 16:21:38 4 C 2.61 g/m*3 4 C 0 km/h
683 29-01-2009 16:33:38 3.5 C 2.77 g/m*3 3.5 C 0 km/h
684 29-01-2009 16:45:38 3 C 2.73 g/m*3 3 C 0 km/h
685 29-01-2009 16:57:38 2.5 C 2.82 g/m*3 2.5 C 0 km/h
686 29-01-2009 17:09:38 2.1 C 2.85 g/m*3 2.1 C 0 km/h
687 29-01-2009 17:21:37 1.7 C 2.89 g/m*3 1.7 C 0 km/h
688 29-01-2009 17:33:37 1.2 C 2.95 g/m*3 1.2 C 0 km/h
689 29-01-2009 17:45:37 1 C 2.96 g/m*3 1 C 0 km/h
690 29-01-2009 17:57:37 0.7 C 3.05 g/m*3 0.7 C 0 km/h
691 29-01-2009 18:09:37 0.5 C 3.06 g/m*3 0.5 C 0 km/h
692 29-01-2009 18:21:38 0.4 C 3.09 g/m*3 0.4 C 0 km/h
693 29-01-2009 18:33:37 0.3 C 3.12 g/m*3 0.3 C 0 km/h
694 29-01-2009 18:45:37 0.2 C 3.09 g/m*3 0.2 C 0 km/h
695 29-01-2009 18:57:37 0.1 C 3.12 g/m*3 0.1 C 0 km/h
696 29-01-2009 19:09:37 -0.1 C 3.13 g/m*3 -0.1 C 0 km/h
697 29-01-2009 19:21:36 -0.3 C 3.13 g/m*3 -0.3 C 0 km/h
698 29-01-2009 19:33:36 -0.4 C 3.11 g/m*3 -0.4 C 0 km/h
699 29-01-2009 19:45:36 -0.6 C 3.11 g/m*3 -0.6 C 0 km/h
700 29-01-2009 19:57:37 -0.8 C 3.12 g/m*3 -0.8 C 0 km/h
Sensor: Nr:Datum:Temp:Abs-Feuchte:Windchill:Wind:
Aussen-T/F 701 29-01-2009 20:09:36 -0.9 C 3.14 g/m*3 -0.9 C 0 km/h
702 29-01-2009 20:21:36 -0.9 C 3.14 g/m*3 -0.9 C 0 km/h
703 29-01-2009 20:33:36 -1.1 C 3.14 g/m*3 -1.1 C 0 km/h
704 29-01-2009 20:45:36 -1.1 C 3.14 g/m*3 -1.1 C 0 km/h
705 29-01-2009 20:57:36 -1.2 C 3.12 g/m*3 -1.2 C 0 km/h
706 29-01-2009 21:09:35 -1.4 C 3.08 g/m*3 -1.4 C 0 km/h
707 29-01-2009 21:21:35 -1.5 C 3.1 g/m*3 -1.5 C 0 km/h
708 29-01-2009 21:34:36 -1.6 C 3.12 g/m*3 -1.6 C 0 km/h
709 29-01-2009 21:46:36 -1.7 C 3.14 g/m*3 -1.7 C 0 km/h
710 29-01-2009 21:58:36 -1.8 C 3.12 g/m*3 -1.8 C 0 km/h
711 29-01-2009 22:10:36 -2 C 3.08 g/m*3 -2 C 0 km/h
712 29-01-2009 22:22:36 -1.9 C 3.14 g/m*3 -1.9 C 0 km/h
713 29-01-2009 22:34:36 -2 C 3.12 g/m*3 -2 C 0 km/h
714 29-01-2009 22:46:36 -2.2 C 3.08 g/m*3 -2.2 C 0 km/h
715 29-01-2009 22:58:36 -2.4 C 3.03 g/m*3 -2.4 C 0 km/h
716 29-01-2009 23:10:36 -2.3 C 3.1 g/m*3 -2.3 C 0 km/h
717 29-01-2009 23:22:36 -2.4 C 3.07 g/m*3 -2.4 C 0 km/h
718 29-01-2009 23:34:36 -2.5 C 3.05 g/m*3 -2.5 C 0 km/h
719 29-01-2009 23:46:36 -2.5 C 3.09 g/m*3 -2.5 C 0 km/h
720 29-01-2009 23:58:36 -2.5 C 3.09 g/m*3 -2.5 C 0 km/h
721 30-01-2009 00:10:36 -2.5 C 3.13 g/m*3 -2.5 C 0 km/h
722 30-01-2009 00:22:37 -2.5 C 3.13 g/m*3 -2.5 C 0 km/h
723 30-01-2009 00:34:37 -2.5 C 3.13 g/m*3 -2.5 C 0 km/h
724 30-01-2009 00:46:37 -2.6 C 3.11 g/m*3 -2.6 C 0 km/h
725 30-01-2009 00:58:37 -2.7 C 3.09 g/m*3 -2.7 C 0 km/h
Sensor: Nr:Datum:Temp:Abs-Feuchte:Windchill:Wind:
Aussen-T/F 726 30-01-2009 01:10:37 -2.7 C 3.09 g/m*3 -2.7 C 0 km/h
727 30-01-2009 01:22:37 -2.9 C 3.05 g/m*3 -2.9 C 0 km/h
728 30-01-2009 01:34:37 -2.8 C 3.11 g/m*3 -2.8 C 0 km/h
729 30-01-2009 01:46:37 -3 C 3.06 g/m*3 -3 C 0 km/h
730 30-01-2009 01:58:37 -3.1 C 3 g/m*3 -3.1 C 0 km/h
731 30-01-2009 02:10:37 -3.2 C 3.02 g/m*3 -3.2 C 0 km/h
732 30-01-2009 02:22:37 -3.2 C 3.02 g/m*3 -3.2 C 0 km/h
733 30-01-2009 02:34:37 -3.5 C 2.96 g/m*3 -3.5 C 0 km/h
734 30-01-2009 02:46:37 -3.5 C 2.96 g/m*3 -3.5 C 0 km/h
735 30-01-2009 02:58:37 -3.5 C 2.96 g/m*3 -3.5 C 0 km/h
736 30-01-2009 03:10:37 -3.6 C 2.94 g/m*3 -3.6 C 0 km/h
737 30-01-2009 03:22:37 -3.7 C 2.95 g/m*3 -3.7 C 0 km/h
738 30-01-2009 03:34:37 -3.8 C 2.93 g/m*3 -3.8 C 0 km/h
739 30-01-2009 03:46:37 -3.6 C 3.01 g/m*3 -3.6 C 0 km/h
740 30-01-2009 03:58:37 -3.7 C 2.99 g/m*3 -3.7 C 0 km/h
741 30-01-2009 04:10:37 -3.8 C 2.97 g/m*3 -3.8 C 0 km/h
742 30-01-2009 04:22:37 -3.8 C 2.97 g/m*3 -3.8 C 0 km/h
743 30-01-2009 04:34:38 -3.9 C 2.95 g/m*3 -3.9 C 0 km/h
744 30-01-2009 04:46:38 -3.9 C 2.98 g/m*3 -3.9 C 0 km/h
745 30-01-2009 04:58:38 -3.9 C 2.98 g/m*3 -3.9 C 0 km/h
746 30-01-2009 05:10:38 -3.9 C 2.98 g/m*3 -3.9 C 0 km/h
747 30-01-2009 05:22:38 -3.8 C 3.04 g/m*3 -3.8 C 0 km/h
748 30-01-2009 05:34:38 -3.8 C 3.04 g/m*3 -3.8 C 0 km/h
749 30-01-2009 05:46:38 -3.8 C 3.04 g/m*3 -3.8 C 0 km/h
750 30-01-2009 05:58:38 -3.9 C 3.02 g/m*3 -3.9 C 0 km/h
Sensor: Nr:Datum:Temp:Abs-Feuchte:Windchill:Wind:
Aussen-T/F 751 30-01-2009 06:10:38 -3.9 C 3.02 g/m*3 -3.9 C 0 km/h
752 30-01-2009 06:22:38 -4.1 C 2.98 g/m*3 -4.1 C 0 km/h
753 30-01-2009 06:34:35 -4.1 C 2.98 g/m*3 -4.1 C 0 km/h
754 30-01-2009 06:46:35 -4.3 C 2.94 g/m*3 -4.3 C 0 km/h
755 30-01-2009 06:58:35 -4.3 C 2.94 g/m*3 -4.3 C 0 km/h
756 30-01-2009 07:10:35 -4.4 C 2.92 g/m*3 -4.4 C 0 km/h
757 30-01-2009 07:22:35 -4.6 C 2.87 g/m*3 -4.6 C 0 km/h
758 30-01-2009 07:34:34 -4.8 C 2.83 g/m*3 -4.8 C 0 km/h
759 30-01-2009 07:46:35 -4.8 C 2.83 g/m*3 -4.8 C 0 km/h
760 30-01-2009 07:58:35 -4.7 C 2.85 g/m*3 -4.7 C 0 km/h
761 30-01-2009 08:10:34 -4.7 C 2.89 g/m*3 -4.7 C 0 km/h
762 30-01-2009 08:22:34 -4.6 C 2.91 g/m*3 -4.6 C 0 km/h
763 30-01-2009 08:34:34 -4.2 C 3.03 g/m*3 -4.2 C 0 km/h
764 30-01-2009 08:46:34 -3.6 C 3.2 g/m*3 -3.6 C 0 km/h
765 30-01-2009 08:58:34 -3.3 C 3.31 g/m*3 -3.3 C 0 km/h
766 30-01-2009 09:10:33 -3 C 3.38 g/m*3 -3 C 0 km/h
767 30-01-2009 09:22:34 -2.7 C 3.45 g/m*3 -2.7 C 0 km/h
768 30-01-2009 09:34:34 -2.5 C 3.46 g/m*3 -2.5 C 0 km/h
769 30-01-2009 09:46:33 -2.2 C 3.49 g/m*3 -2.2 C 0 km/h
770 30-01-2009 09:58:33 -1.8 C 3.55 g/m*3 -1.8 C 0 km/h
771 30-01-2009 10:10:34 -1.5 C 3.54 g/m*3 -1.5 C 0 km/h
772 30-01-2009 10:22:33 -1.2 C 3.43 g/m*3 -1.2 C 0 km/h
773 30-01-2009 10:34:33 -1 C 3.25 g/m*3 -1 C 0 km/h
774 30-01-2009 10:46:32 -0.8 C 3.21 g/m*3 -0.8 C 0 km/h
775 30-01-2009 10:58:32 -0.7 C 3.18 g/m*3 -0.7 C 0 km/h
Sensor: Nr:Datum:Temp:Abs-Feuchte:Windchill:Wind:
Aussen-T/F 776 30-01-2009 11:10:33 -0.5 C 3.14 g/m*3 -0.5 C 0 km/h
777 30-01-2009 11:22:32 -0.3 C 3.08 g/m*3 -0.3 C 0 km/h
778 30-01-2009 11:34:32 0 C 3.1 g/m*3 0 C 0 km/h
779 30-01-2009 11:46:32 0.2 C 3.09 g/m*3 0.2 C 0 km/h
780 30-01-2009 11:58:32 0.5 C 3.16 g/m*3 0.5 C 0 km/h
781 30-01-2009 12:10:32 0.4 C 2.99 g/m*3 0.4 C 0 km/h
782 30-01-2009 12:22:32 0.4 C 2.99 g/m*3 0.4 C 0 km/h
783 30-01-2009 12:34:31 0.4 C 2.99 g/m*3 0.4 C 0 km/h
784 30-01-2009 12:46:32 0.6 C 3.03 g/m*3 0.6 C 0 km/h
785 30-01-2009 12:58:32 1.1 C 3.03 g/m*3 1.1 C 0 km/h
786 30-01-2009 13:10:31 1.4 C 2.99 g/m*3 1.4 C 0 km/h
787 30-01-2009 13:22:31 2 C 2.95 g/m*3 2 C 0 km/h
788 30-01-2009 13:34:31 2.5 C 2.93 g/m*3 2.5 C 0 km/h
789 30-01-2009 13:46:31 2.8 C 2.93 g/m*3 2.8 C 0 km/h
790 30-01-2009 13:58:31 3 C 2.73 g/m*3 3 C 0 km/h
791 30-01-2009 14:10:30 3.3 C 2.79 g/m*3 3.3 C 0 km/h
792 30-01-2009 14:22:31 3.4 C 2.75 g/m*3 3.4 C 0 km/h
793 30-01-2009 14:34:30 3.6 C 2.79 g/m*3 3.6 C 0 km/h
794 30-01-2009 14:46:30 3.8 C 2.82 g/m*3 3.8 C 0 km/h
795 30-01-2009 14:58:30 3.8 C 2.76 g/m*3 3.8 C 0 km/h
796 30-01-2009 15:10:30 3.9 C 2.72 g/m*3 3.9 C 0 km/h
797 30-01-2009 15:22:30 4.2 C 2.71 g/m*3 4.2 C 0 km/h
798 30-01-2009 15:34:30 3.9 C 2.72 g/m*3 3.9 C 0 km/h
799 30-01-2009 15:46:30 3.7 C 2.68 g/m*3 3.7 C 0 km/h
800 30-01-2009 15:58:30 3.6 C 2.72 g/m*3 3.6 C 0 km/h
Sensor: Nr:Datum:Temp:Abs-Feuchte:Windchill:Wind:
Aussen-T/F 801 30-01-2009 16:10:30 2.8 C 2.7 g/m*3 2.8 C 0 km/h
802 30-01-2009 16:22:29 2 C 2.72 g/m*3 2 C 0 km/h
803 30-01-2009 16:34:29 1.5 C 2.79 g/m*3 1.5 C 0 km/h
804 30-01-2009 16:46:29 0.8 C 2.87 g/m*3 0.8 C 0 km/h
805 30-01-2009 16:58:29 0.4 C 2.89 g/m*3 0.4 C 0 km/h
806 30-01-2009 17:10:29 0 C 2.91 g/m*3 0 C 0 km/h
807 30-01-2009 17:22:29 -0.2 C 2.87 g/m*3 -0.2 C 0 km/h
808 30-01-2009 17:34:29 -0.5 C 2.9 g/m*3 -0.5 C 0 km/h
809 30-01-2009 17:46:28 -0.8 C 2.89 g/m*3 -0.8 C 0 km/h
810 30-01-2009 17:58:28 -0.9 C 2.91 g/m*3 -0.9 C 0 km/h
811 30-01-2009 18:10:29 -1 C 2.94 g/m*3 -1 C 0 km/h
812 30-01-2009 18:22:29 -1 C 2.98 g/m*3 -1 C 0 km/h
813 30-01-2009 18:34:28 -1.1 C 2.96 g/m*3 -1.1 C 0 km/h
814 30-01-2009 18:46:29 -1.1 C 3.01 g/m*3 -1.1 C 0 km/h
815 30-01-2009 18:58:29 -1.2 C 2.99 g/m*3 -1.2 C 0 km/h
816 30-01-2009 19:10:28 -1.2 C 3.03 g/m*3 -1.2 C 0 km/h
817 30-01-2009 19:22:28 -1.2 C 3.03 g/m*3 -1.2 C 0 km/h
818 30-01-2009 19:34:27 -1.3 C 3.05 g/m*3 -1.3 C 0 km/h
819 30-01-2009 19:46:28 -1.5 C 3.06 g/m*3 -1.5 C 0 km/h
820 30-01-2009 19:58:28 -1.5 C 3.06 g/m*3 -1.5 C 0 km/h
821 30-01-2009 20:10:27 -1.5 C 3.1 g/m*3 -1.5 C 0 km/h
822 30-01-2009 20:22:27 -1.7 C 3.06 g/m*3 -1.7 C 0 km/h
823 30-01-2009 20:34:27 -1.7 C 3.1 g/m*3 -1.7 C 0 km/h
824 30-01-2009 20:46:27 -1.7 C 3.1 g/m*3 -1.7 C 0 km/h
825 30-01-2009 20:58:27 -1.8 C 3.08 g/m*3 -1.8 C 0 km/h
Sensor: Nr:Datum:Temp:Abs-Feuchte:Windchill:Wind:
Aussen-T/F 826 30-01-2009 21:10:27 -1.8 C 3.12 g/m*3 -1.8 C 0 km/h
827 30-01-2009 21:22:26 -1.8 C 3.12 g/m*3 -1.8 C 0 km/h
828 30-01-2009 21:34:26 -2 C 3.08 g/m*3 -2 C 0 km/h
829 30-01-2009 21:46:26 -2.1 C 3.1 g/m*3 -2.1 C 0 km/h
830 30-01-2009 21:58:26 -2 C 3.12 g/m*3 -2 C 0 km/h
831 30-01-2009 22:10:26 -2.1 C 3.06 g/m*3 -2.1 C 0 km/h
832 30-01-2009 22:22:26 -2.2 C 3.03 g/m*3 -2.2 C 0 km/h
833 30-01-2009 22:34:26 -2.3 C 3.01 g/m*3 -2.3 C 0 km/h
834 30-01-2009 22:46:26 -2.4 C 2.99 g/m*3 -2.4 C 0 km/h
835 30-01-2009 22:58:26 -2.4 C 2.99 g/m*3 -2.4 C 0 km/h
836 30-01-2009 23:10:25 -2.4 C 2.99 g/m*3 -2.4 C 0 km/h
837 30-01-2009 23:22:26 -2.6 C 2.95 g/m*3 -2.6 C 0 km/h
838 30-01-2009 23:35:25 -2.8 C 2.91 g/m*3 -2.8 C 0 km/h
839 30-01-2009 23:47:25 -2.8 C 2.95 g/m*3 -2.8 C 0 km/h
840 30-01-2009 23:59:25 -2.8 C 2.99 g/m*3 -2.8 C 0 km/h
841 31-01-2009 00:11:25 -2.7 C 3.01 g/m*3 -2.7 C 0 km/h
842 31-01-2009 00:23:25 -2.3 C 3.1 g/m*3 -2.3 C 0 km/h
843 31-01-2009 00:35:25 -2.1 C 3.1 g/m*3 -2.1 C 0 km/h
844 31-01-2009 00:47:25 -1.8 C 3.12 g/m*3 -1.8 C 0 km/h
845 31-01-2009 00:59:26 -1.7 C 3.06 g/m*3 -1.7 C 0 km/h
846 31-01-2009 01:11:26 -1.6 C 3.03 g/m*3 -1.6 C 0 km/h
847 31-01-2009 01:23:26 -1.5 C 2.97 g/m*3 -1.5 C 0 km/h
848 31-01-2009 01:35:26 -1.4 C 2.99 g/m*3 -1.4 C 0 km/h
849 31-01-2009 01:47:26 -1.3 C 2.97 g/m*3 -1.3 C 0 km/h
850 31-01-2009 01:59:26 -1.2 C 2.9 g/m*3 -1.2 C 0 km/h
Sensor: Nr:Datum:Temp:Abs-Feuchte:Windchill:Wind:
Aussen-T/F 851 31-01-2009 02:11:26 -1.2 C 2.85 g/m*3 -1.2 C 0 km/h
852 31-01-2009 02:23:26 -1.2 C 2.81 g/m*3 -1.2 C 0 km/h
853 31-01-2009 02:35:26 -1.2 C 2.81 g/m*3 -1.2 C 0 km/h
854 31-01-2009 02:47:26 -1.1 C 2.78 g/m*3 -1.1 C 0 km/h
855 31-01-2009 02:59:26 -1.1 C 2.78 g/m*3 -1.1 C 0 km/h
856 31-01-2009 03:11:26 -1.1 C 2.74 g/m*3 -1.1 C 0 km/h
857 31-01-2009 03:23:26 -1.1 C 2.74 g/m*3 -1.1 C 0 km/h
858 31-01-2009 03:35:26 -1 C 2.71 g/m*3 -1 C 0 km/h
859 31-01-2009 03:47:26 -1 C 2.76 g/m*3 -1 C 0 km/h
860 31-01-2009 03:59:26 -1 C 2.71 g/m*3 -1 C 0 km/h
861 31-01-2009 04:11:26 -0.9 C 2.73 g/m*3 -0.9 C 0 km/h
862 31-01-2009 04:23:26 -0.9 C 2.73 g/m*3 -0.9 C 0 km/h
863 31-01-2009 04:35:26 -0.9 C 2.73 g/m*3 -0.9 C 0 km/h
864 31-01-2009 04:47:26 -0.9 C 2.78 g/m*3 -0.9 C 0 km/h
865 31-01-2009 04:59:27 -0.9 C 2.73 g/m*3 -0.9 C 0 km/h
866 31-01-2009 05:11:27 -0.9 C 2.73 g/m*3 -0.9 C 0 km/h
867 31-01-2009 05:23:27 -0.8 C 2.7 g/m*3 -0.8 C 0 km/h
868 31-01-2009 05:35:27 -0.8 C 2.66 g/m*3 -0.8 C 0 km/h
869 31-01-2009 05:47:27 -0.7 C 2.68 g/m*3 -0.7 C 0 km/h
870 31-01-2009 05:59:27 -0.7 C 2.72 g/m*3 -0.7 C 0 km/h
871 31-01-2009 06:11:27 -0.7 C 2.68 g/m*3 -0.7 C 0 km/h
872 31-01-2009 06:23:27 -0.7 C 2.68 g/m*3 -0.7 C 0 km/h
873 31-01-2009 06:35:27 -0.6 C 2.65 g/m*3 -0.6 C 0 km/h
874 31-01-2009 06:47:27 -0.6 C 2.6 g/m*3 -0.6 C 0 km/h
875 31-01-2009 06:59:27 -0.6 C 2.6 g/m*3 -0.6 C 0 km/h
Sensor: Nr:Datum:Temp:Abs-Feuchte:Windchill:Wind:
Aussen-T/F 876 31-01-2009 07:11:27 -0.6 C 2.6 g/m*3 -0.6 C 0 km/h
877 31-01-2009 07:23:27 -0.6 C 2.6 g/m*3 -0.6 C 0 km/h
878 31-01-2009 07:35:27 -0.6 C 2.6 g/m*3 -0.6 C 0 km/h
879 31-01-2009 07:47:27 -0.6 C 2.6 g/m*3 -0.6 C 0 km/h
880 31-01-2009 07:59:27 -0.5 C 2.57 g/m*3 -0.5 C 0 km/h
881 31-01-2009 08:11:27 -0.6 C 2.56 g/m*3 -0.6 C 0 km/h
882 31-01-2009 08:23:27 -0.5 C 2.57 g/m*3 -0.5 C 0 km/h
883 31-01-2009 08:35:27 -0.5 C 2.57 g/m*3 -0.5 C 0 km/h
884 31-01-2009 08:47:27 -0.4 C 2.59 g/m*3 -0.4 C 0 km/h
885 31-01-2009 08:59:28 -0.4 C 2.59 g/m*3 -0.4 C 0 km/h
886 31-01-2009 09:11:25 -0.4 C 2.59 g/m*3 -0.4 C 0 km/h
887 31-01-2009 09:23:25 -0.3 C 2.61 g/m*3 -0.3 C 0 km/h
888 31-01-2009 09:35:26 -0.3 C 2.56 g/m*3 -0.3 C 0 km/h
889 31-01-2009 09:47:25 -0.2 C 2.53 g/m*3 -0.2 C 0 km/h
890 31-01-2009 09:59:25 -0.2 C 2.53 g/m*3 -0.2 C 0 km/h
891 31-01-2009 10:11:25 -0.1 C 2.55 g/m*3 -0.1 C 0 km/h
892 31-01-2009 10:23:25 -0.1 C 2.55 g/m*3 -0.1 C 0 km/h
893 31-01-2009 10:35:25 0 C 2.62 g/m*3 0 C 0 km/h
894 31-01-2009 10:47:24 0.1 C 2.59 g/m*3 0.1 C 0 km/h
895 31-01-2009 10:59:24 0.1 C 2.59 g/m*3 0.1 C 0 km/h
896 31-01-2009 11:11:25 0.2 C 2.55 g/m*3 0.2 C 0 km/h
897 31-01-2009 11:23:24 0.3 C 2.57 g/m*3 0.3 C 0 km/h
898 31-01-2009 11:35:24 0.5 C 2.56 g/m*3 0.5 C 0 km/h
899 31-01-2009 11:47:23 0.5 C 2.56 g/m*3 0.5 C 0 km/h
900 31-01-2009 11:59:23 0.6 C 2.52 g/m*3 0.6 C 0 km/h
Sensor: Nr:Datum:Temp:Abs-Feuchte:Windchill:Wind:
Aussen-T/F 901 31-01-2009 12:11:24 0.7 C 2.54 g/m*3 0.7 C 0 km/h
902 31-01-2009 12:23:23 0.7 C 2.49 g/m*3 0.7 C 0 km/h
903 31-01-2009 12:35:23 0.6 C 2.47 g/m*3 0.6 C 0 km/h
904 31-01-2009 12:47:24 0.7 C 2.49 g/m*3 0.7 C 0 km/h
905 31-01-2009 12:59:24 0.7 C 2.49 g/m*3 0.7 C 0 km/h
906 31-01-2009 13:11:23 0.6 C 2.42 g/m*3 0.6 C 0 km/h
907 31-01-2009 13:23:23 0.8 C 2.46 g/m*3 0.8 C 0 km/h
908 31-01-2009 13:35:23 0.8 C 2.41 g/m*3 0.8 C 0 km/h
909 31-01-2009 13:47:23 0.8 C 2.41 g/m*3 0.8 C 0 km/h
910 31-01-2009 13:59:23 0.7 C 2.44 g/m*3 0.7 C 0 km/h
911 31-01-2009 14:11:22 0.8 C 2.46 g/m*3 0.8 C 0 km/h
912 31-01-2009 14:23:23 1 C 2.39 g/m*3 1 C 0 km/h
913 31-01-2009 14:35:22 1.1 C 2.4 g/m*3 1.1 C 0 km/h
914 31-01-2009 14:47:22 1.3 C 2.44 g/m*3 1.3 C 0 km/h
915 31-01-2009 14:59:22 1.3 C 2.33 g/m*3 1.3 C 0 km/h
916 31-01-2009 15:11:22 1.2 C 2.32 g/m*3 1.2 C 0 km/h
917 31-01-2009 15:23:22 1.5 C 2.26 g/m*3 1.5 C 0 km/h
918 31-01-2009 15:35:22 2.5 C 2.3 g/m*3 2.5 C 0 km/h
919 31-01-2009 15:47:22 3.1 C 2.21 g/m*3 3.1 C 0 km/h
920 31-01-2009 15:59:22 3.3 C 2.24 g/m*3 3.3 C 0 km/h
921 31-01-2009 16:11:22 2.5 C 2.3 g/m*3 2.5 C 0 km/h
922 31-01-2009 16:23:21 1.8 C 2.41 g/m*3 1.8 C 0 km/h
923 31-01-2009 16:35:21 1.6 C 2.43 g/m*3 1.6 C 0 km/h
924 31-01-2009 16:47:21 1.4 C 2.45 g/m*3 1.4 C 0 km/h
925 31-01-2009 16:59:21 0.8 C 2.51 g/m*3 0.8 C 0 km/h
Sensor: Nr:Datum:Temp:Abs-Feuchte:Windchill:Wind:
Aussen-T/F 926 31-01-2009 17:11:21 0.5 C 2.56 g/m*3 0.5 C 0 km/h
927 31-01-2009 17:23:20 0.2 C 2.51 g/m*3 0.2 C 0 km/h
928 31-01-2009 17:35:21 0.1 C 2.54 g/m*3 0.1 C 0 km/h
929 31-01-2009 17:47:20 0.1 C 2.54 g/m*3 0.1 C 0 km/h
930 31-01-2009 17:59:20 0.1 C 2.49 g/m*3 0.1 C 0 km/h
931 31-01-2009 18:11:20 0.2 C 2.51 g/m*3 0.2 C 0 km/h
932 31-01-2009 18:23:20 0.2 C 2.51 g/m*3 0.2 C 0 km/h
933 31-01-2009 18:35:20 0.4 C 2.44 g/m*3 0.4 C 0 km/h
934 31-01-2009 18:47:19 0.6 C 2.47 g/m*3 0.6 C 0 km/h
935 31-01-2009 18:59:19 0.8 C 2.46 g/m*3 0.8 C 0 km/h
936 31-01-2009 19:11:20 0.8 C 2.46 g/m*3 0.8 C 0 km/h
937 31-01-2009 19:23:20 0.8 C 2.46 g/m*3 0.8 C 0 km/h
938 31-01-2009 19:35:19 0.7 C 2.54 g/m*3 0.7 C 0 km/h
939 31-01-2009 19:47:20 0.7 C 2.49 g/m*3 0.7 C 0 km/h
940 31-01-2009 19:59:20 0.7 C 2.54 g/m*3 0.7 C 0 km/h
941 31-01-2009 20:11:19 1 C 2.44 g/m*3 1 C 0 km/h
942 31-01-2009 20:23:19 1.1 C 2.35 g/m*3 1.1 C 0 km/h
943 31-01-2009 20:35:18 1 C 2.39 g/m*3 1 C 0 km/h
944 31-01-2009 20:47:19 1.1 C 2.3 g/m*3 1.1 C 0 km/h
945 31-01-2009 20:59:19 1.2 C 2.32 g/m*3 1.2 C 0 km/h
946 31-01-2009 21:11:18 1.2 C 2.26 g/m*3 1.2 C 0 km/h
947 31-01-2009 21:23:19 1.1 C 2.3 g/m*3 1.1 C 0 km/h
948 31-01-2009 21:35:18 1.2 C 2.21 g/m*3 1.2 C 0 km/h
949 31-01-2009 21:47:18 1 C 2.23 g/m*3 1 C 0 km/h
950 31-01-2009 21:59:18 1 C 2.28 g/m*3 1 C 0 km/h
Sensor: Nr:Datum:Temp:Abs-Feuchte:Windchill:Wind:
Aussen-T/F 951 31-01-2009 22:11:18 0.7 C 2.39 g/m*3 0.7 C 0 km/h
952 31-01-2009 22:24:20 0.6 C 2.42 g/m*3 0.6 C 0 km/h
953 31-01-2009 22:36:20 0.5 C 2.46 g/m*3 0.5 C 0 km/h
954 31-01-2009 22:48:20 0.3 C 2.52 g/m*3 0.3 C 0 km/h
955 31-01-2009 23:00:20 0.5 C 2.61 g/m*3 0.5 C 0 km/h
956 31-01-2009 23:12:20 0.3 C 2.62 g/m*3 0.3 C 0 km/h
957 31-01-2009 23:24:20 0 C 2.62 g/m*3 0 C 0 km/h
958 31-01-2009 23:36:20 -0.3 C 2.61 g/m*3 -0.3 C 0 km/h
959 31-01-2009 23:48:20 -0.4 C 2.64 g/m*3 -0.4 C 0 km/h
960 01-02-2009 00:00:20 -0.4 C 2.69 g/m*3 -0.4 C 0 km/h
961 01-02-2009 00:12:20 -0.3 C 2.66 g/m*3 -0.3 C 0 km/h
962 01-02-2009 00:24:20 -0.3 C 2.66 g/m*3 -0.3 C 0 km/h
963 01-02-2009 00:36:20 -0.3 C 2.66 g/m*3 -0.3 C 0 km/h
964 01-02-2009 00:48:20 -0.2 C 2.63 g/m*3 -0.2 C 0 km/h
965 01-02-2009 01:00:20 -0.2 C 2.48 g/m*3 -0.2 C 0 km/h
966 01-02-2009 01:12:20 -0.2 C 2.39 g/m*3 -0.2 C 0 km/h
967 01-02-2009 01:24:20 -0.2 C 2.34 g/m*3 -0.2 C 0 km/h
968 01-02-2009 01:36:20 -0.2 C 2.29 g/m*3 -0.2 C 0 km/h
969 01-02-2009 01:48:21 -0.1 C 2.21 g/m*3 -0.1 C 0 km/h
970 01-02-2009 02:00:21 -0.1 C 2.17 g/m*3 -0.1 C 0 km/h
971 01-02-2009 02:12:21 -0.1 C 2.17 g/m*3 -0.1 C 0 km/h
972 01-02-2009 02:24:21 -0.1 C 2.17 g/m*3 -0.1 C 0 km/h
973 01-02-2009 02:36:21 -0.2 C 2.15 g/m*3 -0.2 C 0 km/h
974 01-02-2009 02:48:21 -0.2 C 2.1 g/m*3 -0.2 C 0 km/h
975 01-02-2009 03:00:21 -0.1 C 2.02 g/m*3 -0.1 C 0 km/h
Sensor: Nr:Datum:Temp:Abs-Feuchte:Windchill:Wind:
Aussen-T/F 976 01-02-2009 03:12:21 -0.1 C 1.97 g/m*3 -0.1 C 0 km/h
977 01-02-2009 03:24:21 -0.1 C 2.02 g/m*3 -0.1 C 0 km/h
978 01-02-2009 03:36:21 -0.2 C 2.01 g/m*3 -0.2 C 0 km/h
979 01-02-2009 03:48:21 -0.2 C 2.05 g/m*3 -0.2 C 0 km/h
980 01-02-2009 04:00:21 -0.2 C 1.96 g/m*3 -0.2 C 0 km/h
981 01-02-2009 04:12:21 -0.1 C 1.97 g/m*3 -0.1 C 0 km/h
982 01-02-2009 04:24:21 -0.2 C 1.96 g/m*3 -0.2 C 0 km/h
983 01-02-2009 04:36:21 -0.3 C 2.04 g/m*3 -0.3 C 0 km/h
984 01-02-2009 04:48:21 -0.4 C 2.12 g/m*3 -0.4 C 0 km/h
985 01-02-2009 05:00:21 -0.4 C 2.22 g/m*3 -0.4 C 0 km/h
986 01-02-2009 05:12:21 -0.5 C 2.29 g/m*3 -0.5 C 0 km/h
987 01-02-2009 05:24:21 -0.4 C 2.36 g/m*3 -0.4 C 0 km/h
988 01-02-2009 05:36:21 -0.5 C 2.25 g/m*3 -0.5 C 0 km/h
989 01-02-2009 05:48:22 -0.5 C 2.15 g/m*3 -0.5 C 0 km/h
990 01-02-2009 06:00:22 -0.6 C 2.09 g/m*3 -0.6 C 0 km/h
991 01-02-2009 06:12:22 -0.6 C 2.05 g/m*3 -0.6 C 0 km/h
992 01-02-2009 06:24:22 -0.7 C 1.98 g/m*3 -0.7 C 0 km/h
993 01-02-2009 06:36:22 -0.7 C 1.98 g/m*3 -0.7 C 0 km/h
994 01-02-2009 06:48:22 -0.8 C 1.97 g/m*3 -0.8 C 0 km/h
995 01-02-2009 07:00:22 -0.9 C 1.96 g/m*3 -0.9 C 0 km/h
996 01-02-2009 07:12:22 -0.9 C 1.96 g/m*3 -0.9 C 0 km/h
997 01-02-2009 07:24:22 -1 C 1.94 g/m*3 -1 C 0 km/h
998 01-02-2009 07:36:22 -1 C 1.94 g/m*3 -1 C 0 km/h
999 01-02-2009 07:48:22 -1 C 1.99 g/m*3 -1 C 0 km/h
1000 01-02-2009 08:00:22 -1.1 C 2.02 g/m*3 -1.1 C 0 km/h
Sensor: Nr:Datum:Temp:Abs-Feuchte:Windchill:Wind:
Aussen-T/F 1001 01-02-2009 08:12:22 -1.1 C 2.02 g/m*3 -1.1 C 0 km/h
1002 01-02-2009 08:24:22 -1.1 C 2.07 g/m*3 -1.1 C 0 km/h
1003 01-02-2009 08:36:19 -1.1 C 2.11 g/m*3 -1.1 C 0 km/h
1004 01-02-2009 08:48:19 -1.1 C 2.11 g/m*3 -1.1 C 0 km/h
1005 01-02-2009 09:00:19 -1 C 2.12 g/m*3 -1 C 0 km/h
1006 01-02-2009 09:12:19 -0.9 C 2.14 g/m*3 -0.9 C 0 km/h
1007 01-02-2009 09:24:18 -0.8 C 2.15 g/m*3 -0.8 C 0 km/h
1008 01-02-2009 09:36:19 -0.8 C 2.15 g/m*3 -0.8 C 0 km/h
1009 01-02-2009 09:48:18 -0.8 C 2.15 g/m*3 -0.8 C 0 km/h
1010 01-02-2009 10:00:18 -0.6 C 2.14 g/m*3 -0.6 C 0 km/h
1011 01-02-2009 10:12:18 -0.4 C 2.17 g/m*3 -0.4 C 0 km/h
1012 01-02-2009 10:24:18 -0.2 C 2.2 g/m*3 -0.2 C 0 km/h
1013 01-02-2009 10:36:18 -0.1 C 2.12 g/m*3 -0.1 C 0 km/h
1014 01-02-2009 10:48:17 0 C 2.18 g/m*3 0 C 0 km/h
1015 01-02-2009 11:00:18 0 C 2.13 g/m*3 0 C 0 km/h
1016 01-02-2009 11:12:18 0.2 C 2.16 g/m*3 0.2 C 0 km/h
1017 01-02-2009 11:24:18 0.1 C 2.15 g/m*3 0.1 C 0 km/h
1018 01-02-2009 11:36:17 0.4 C 2.24 g/m*3 0.4 C 0 km/h
1019 01-02-2009 11:48:18 0.6 C 2.12 g/m*3 0.6 C 0 km/h
1020 01-02-2009 12:00:17 0.8 C 2.15 g/m*3 0.8 C 0 km/h
1021 01-02-2009 12:12:17 1 C 2.08 g/m*3 1 C 0 km/h
1022 01-02-2009 12:24:17 1.1 C 2.14 g/m*3 1.1 C 0 km/h
1023 01-02-2009 12:36:17 0.5 C 2.21 g/m*3 0.5 C 0 km/h
1024 01-02-2009 12:48:17 0.5 C 2.31 g/m*3 0.5 C 0 km/h
1025 01-02-2009 13:00:16 0.8 C 2.41 g/m*3 0.8 C 0 km/h
Sensor: Nr:Datum:Temp:Abs-Feuchte:Windchill:Wind:
Aussen-T/F 1026 01-02-2009 13:12:16 0.9 C 2.32 g/m*3 0.9 C 0 km/h
1027 01-02-2009 13:24:17 1.2 C 2.16 g/m*3 1.2 C 0 km/h
1028 01-02-2009 13:36:17 1.3 C 2.12 g/m*3 1.3 C 0 km/h
1029 01-02-2009 13:48:16 1.5 C 2.09 g/m*3 1.5 C 0 km/h
1030 01-02-2009 14:00:16 1.8 C 2.19 g/m*3 1.8 C 0 km/h
1031 01-02-2009 14:12:16 2.1 C 2.07 g/m*3 2.1 C 0 km/h
1032 01-02-2009 14:24:16 2.5 C 2.01 g/m*3 2.5 C 0 km/h
1033 01-02-2009 14:36:15 2.1 C 1.96 g/m*3 2.1 C 0 km/h
1034 01-02-2009 14:48:16 1.8 C 1.97 g/m*3 1.8 C 0 km/h
1035 01-02-2009 15:00:15 1.9 C 2.1 g/m*3 1.9 C 0 km/h
1036 01-02-2009 15:12:15 1.7 C 2.01 g/m*3 1.7 C 0 km/h
1037 01-02-2009 15:24:15 1.6 C 2.11 g/m*3 1.6 C 0 km/h
1038 01-02-2009 15:36:16 1.4 C 2.08 g/m*3 1.4 C 0 km/h
1039 01-02-2009 15:48:15 1.3 C 2.07 g/m*3 1.3 C 0 km/h
1040 01-02-2009 16:00:15 1 C 2.08 g/m*3 1 C 0 km/h
1041 01-02-2009 16:12:15 1 C 2.13 g/m*3 1 C 0 km/h
1042 01-02-2009 16:24:14 0.9 C 2.22 g/m*3 0.9 C 0 km/h
1043 01-02-2009 16:36:15 0.8 C 2.25 g/m*3 0.8 C 0 km/h
1044 01-02-2009 16:48:14 0.7 C 2.29 g/m*3 0.7 C 0 km/h
1045 01-02-2009 17:00:14 0.6 C 2.32 g/m*3 0.6 C 0 km/h
1046 01-02-2009 17:12:14 0.6 C 2.47 g/m*3 0.6 C 0 km/h
1047 01-02-2009 17:24:14 0.4 C 2.49 g/m*3 0.4 C 0 km/h
1048 01-02-2009 17:36:14 0.3 C 2.52 g/m*3 0.3 C 0 km/h
1049 01-02-2009 17:48:13 0.2 C 2.51 g/m*3 0.2 C 0 km/h
1050 01-02-2009 18:00:14 0.2 C 2.51 g/m*3 0.2 C 0 km/h
Sensor: Nr:Datum:Temp:Abs-Feuchte:Windchill:Wind:
Aussen-T/F 1051 01-02-2009 18:12:14 0.2 C 2.46 g/m*3 0.2 C 0 km/h
1052 01-02-2009 18:24:13 0.1 C 2.44 g/m*3 0.1 C 0 km/h
1053 01-02-2009 18:36:13 0 C 2.47 g/m*3 0 C 0 km/h
1054 01-02-2009 18:48:13 -0.1 C 2.5 g/m*3 -0.1 C 0 km/h
1055 01-02-2009 19:00:13 -0.2 C 2.53 g/m*3 -0.2 C 0 km/h
1056 01-02-2009 19:12:13 -0.4 C 2.5 g/m*3 -0.4 C 0 km/h
1057 01-02-2009 19:24:13 -0.5 C 2.53 g/m*3 -0.5 C 0 km/h
1058 01-02-2009 19:36:13 -0.6 C 2.46 g/m*3 -0.6 C 0 km/h
1059 01-02-2009 19:48:13 -0.7 C 2.45 g/m*3 -0.7 C 0 km/h
1060 01-02-2009 20:00:12 -0.8 C 2.43 g/m*3 -0.8 C 0 km/h
1061 01-02-2009 20:12:12 -0.9 C 2.41 g/m*3 -0.9 C 0 km/h
1062 01-02-2009 20:24:13 -1 C 2.4 g/m*3 -1 C 0 km/h
1063 01-02-2009 20:36:12 -1 C 2.4 g/m*3 -1 C 0 km/h
1064 01-02-2009 20:48:12 -1.1 C 2.38 g/m*3 -1.1 C 0 km/h
1065 01-02-2009 21:00:12 -1.2 C 2.36 g/m*3 -1.2 C 0 km/h
1066 01-02-2009 21:12:13 -1.1 C 2.38 g/m*3 -1.1 C 0 km/h
1067 01-02-2009 21:24:11 -1 C 2.4 g/m*3 -1 C 0 km/h
1068 01-02-2009 21:36:12 -1 C 2.35 g/m*3 -1 C 0 km/h
1069 01-02-2009 21:48:11 -1 C 2.35 g/m*3 -1 C 0 km/h
1070 01-02-2009 22:00:11 -0.9 C 2.37 g/m*3 -0.9 C 0 km/h
1071 01-02-2009 22:12:11 -1 C 2.35 g/m*3 -1 C 0 km/h
1072 01-02-2009 22:24:12 -1 C 2.35 g/m*3 -1 C 0 km/h
1073 01-02-2009 22:36:11 -0.9 C 2.37 g/m*3 -0.9 C 0 km/h
1074 01-02-2009 22:49:13 -1 C 2.35 g/m*3 -1 C 0 km/h
1075 01-02-2009 23:01:13 -1 C 2.35 g/m*3 -1 C 0 km/h
Sensor: Nr:Datum:Temp:Abs-Feuchte:Windchill:Wind:
Aussen-T/F 1076 01-02-2009 23:13:13 -1.1 C 2.38 g/m*3 -1.1 C 0 km/h
1077 01-02-2009 23:25:13 -1.1 C 2.38 g/m*3 -1.1 C 0 km/h
1078 01-02-2009 23:37:13 -1.2 C 2.36 g/m*3 -1.2 C 0 km/h
1079 01-02-2009 23:49:13 -1.1 C 2.42 g/m*3 -1.1 C 0 km/h
1080 02-02-2009 00:01:13 -1 C 2.44 g/m*3 -1 C 0 km/h
1081 02-02-2009 00:13:13 -1 C 2.44 g/m*3 -1 C 0 km/h
1082 02-02-2009 00:25:13 -1.2 C 2.41 g/m*3 -1.2 C 0 km/h
1083 02-02-2009 00:37:13 -1.4 C 2.42 g/m*3 -1.4 C 0 km/h
1084 02-02-2009 00:49:13 -1.7 C 2.41 g/m*3 -1.7 C 0 km/h
1085 02-02-2009 01:01:13 -1.8 C 2.39 g/m*3 -1.8 C 0 km/h
1086 02-02-2009 01:13:13 -1.8 C 2.44 g/m*3 -1.8 C 0 km/h
1087 02-02-2009 01:25:13 -2.1 C 2.43 g/m*3 -2.1 C 0 km/h
1088 02-02-2009 01:37:13 -2.1 C 2.47 g/m*3 -2.1 C 0 km/h
1089 02-02-2009 01:49:13 -2.3 C 2.44 g/m*3 -2.3 C 0 km/h
1090 02-02-2009 02:01:14 -2.3 C 2.48 g/m*3 -2.3 C 0 km/h
1091 02-02-2009 02:13:14 -2.1 C 2.55 g/m*3 -2.1 C 0 km/h
1092 02-02-2009 02:25:14 -1.9 C 2.55 g/m*3 -1.9 C 0 km/h
1093 02-02-2009 02:37:14 -1.7 C 2.58 g/m*3 -1.7 C 0 km/h
1094 02-02-2009 02:49:14 -1.5 C 2.58 g/m*3 -1.5 C 0 km/h
1095 02-02-2009 03:01:14 -1.3 C 2.57 g/m*3 -1.3 C 0 km/h
1096 02-02-2009 03:13:14 -1.3 C 2.52 g/m*3 -1.3 C 0 km/h
1097 02-02-2009 03:25:14 -1.3 C 2.52 g/m*3 -1.3 C 0 km/h
1098 02-02-2009 03:37:14 -1.2 C 2.54 g/m*3 -1.2 C 0 km/h
1099 02-02-2009 03:49:14 -1.1 C 2.56 g/m*3 -1.1 C 0 km/h
1100 02-02-2009 04:01:14 -1 C 2.58 g/m*3 -1 C 0 km/h
Sensor: Nr:Datum:Temp:Abs-Feuchte:Windchill:Wind:
Aussen-T/F 1101 02-02-2009 04:13:14 -0.8 C 2.57 g/m*3 -0.8 C 0 km/h
1102 02-02-2009 04:25:14 -0.7 C 2.58 g/m*3 -0.7 C 0 km/h
1103 02-02-2009 04:37:14 -0.7 C 2.54 g/m*3 -0.7 C 0 km/h
1104 02-02-2009 04:49:14 -0.8 C 2.52 g/m*3 -0.8 C 0 km/h
1105 02-02-2009 05:01:14 -0.8 C 2.57 g/m*3 -0.8 C 0 km/h
1106 02-02-2009 05:13:14 -0.8 C 2.57 g/m*3 -0.8 C 0 km/h
1107 02-02-2009 05:25:14 -0.8 C 2.57 g/m*3 -0.8 C 0 km/h
1108 02-02-2009 05:37:14 -0.7 C 2.58 g/m*3 -0.7 C 0 km/h
1109 02-02-2009 05:49:15 -0.8 C 2.61 g/m*3 -0.8 C 0 km/h
1110 02-02-2009 06:01:15 -0.7 C 2.58 g/m*3 -0.7 C 0 km/h
1111 02-02-2009 06:13:15 -0.8 C 2.61 g/m*3 -0.8 C 0 km/h
1112 02-02-2009 06:25:15 -0.8 C 2.66 g/m*3 -0.8 C 0 km/h
1113 02-02-2009 06:37:15 -0.8 C 2.66 g/m*3 -0.8 C 0 km/h
1114 02-02-2009 06:49:12 -0.8 C 2.66 g/m*3 -0.8 C 0 km/h
1115 02-02-2009 07:01:12 -0.9 C 2.64 g/m*3 -0.9 C 0 km/h
1116 02-02-2009 07:13:12 -0.9 C 2.69 g/m*3 -0.9 C 0 km/h
1117 02-02-2009 07:25:12 -0.8 C 2.75 g/m*3 -0.8 C 0 km/h
1118 02-02-2009 07:37:12 -0.6 C 2.79 g/m*3 -0.6 C 0 km/h
1119 02-02-2009 07:49:11 -0.5 C 2.86 g/m*3 -0.5 C 0 km/h
1120 02-02-2009 08:01:11 -0.5 C 2.86 g/m*3 -0.5 C 0 km/h
1121 02-02-2009 08:13:12 -0.4 C 2.83 g/m*3 -0.4 C 0 km/h
1122 02-02-2009 08:25:11 -0.3 C 2.8 g/m*3 -0.3 C 0 km/h
1123 02-02-2009 08:37:11 -0.6 C 2.79 g/m*3 -0.6 C 0 km/h
1124 02-02-2009 08:49:10 -0.8 C 2.8 g/m*3 -0.8 C 0 km/h
1125 02-02-2009 09:01:11 -0.7 C 2.77 g/m*3 -0.7 C 0 km/h
Sensor: Nr:Datum:Temp:Abs-Feuchte:Windchill:Wind:
Aussen-T/F 1126 02-02-2009 09:13:11 -0.5 C 2.81 g/m*3 -0.5 C 0 km/h
1127 02-02-2009 09:25:11 -0.2 C 2.72 g/m*3 -0.2 C 0 km/h
1128 02-02-2009 09:37:10 -0.2 C 2.77 g/m*3 -0.2 C 0 km/h
1129 02-02-2009 09:49:11 -0.1 C 2.79 g/m*3 -0.1 C 0 km/h
1130 02-02-2009 10:01:10 0.1 C 2.78 g/m*3 0.1 C 0 km/h
1131 02-02-2009 10:13:10 0.3 C 2.77 g/m*3 0.3 C 0 km/h
1132 02-02-2009 10:25:10 0.4 C 2.74 g/m*3 0.4 C 0 km/h
1133 02-02-2009 10:37:09 0.9 C 2.73 g/m*3 0.9 C 0 km/h
1134 02-02-2009 10:49:10 1.2 C 2.74 g/m*3 1.2 C 0 km/h
1135 02-02-2009 11:01:10 1.5 C 2.69 g/m*3 1.5 C 0 km/h
1136 02-02-2009 11:13:10 1.8 C 2.69 g/m*3 1.8 C 0 km/h
1137 02-02-2009 11:25:09 2.1 C 2.63 g/m*3 2.1 C 0 km/h
1138 02-02-2009 11:37:10 2.5 C 2.64 g/m*3 2.5 C 0 km/h
1139 02-02-2009 11:49:09 2.8 C 2.7 g/m*3 2.8 C 0 km/h
1140 02-02-2009 12:01:09 3.3 C 2.73 g/m*3 3.3 C 0 km/h
1141 02-02-2009 12:13:09 4 C 2.67 g/m*3 4 C 0 km/h
1142 02-02-2009 12:25:09 4.2 C 2.58 g/m*3 4.2 C 0 km/h
1143 02-02-2009 12:37:09 4.4 C 2.48 g/m*3 4.4 C 0 km/h
1144 02-02-2009 12:49:08 4.6 C 2.51 g/m*3 4.6 C 0 km/h
1145 02-02-2009 13:01:09 4.6 C 2.45 g/m*3 4.6 C 0 km/h
1146 02-02-2009 13:13:09 4.7 C 2.53 g/m*3 4.7 C 0 km/h
1147 02-02-2009 13:25:08 4.8 C 2.55 g/m*3 4.8 C 0 km/h
1148 02-02-2009 13:37:08 4.9 C 2.5 g/m*3 4.9 C 0 km/h
1149 02-02-2009 13:49:08 5 C 2.45 g/m*3 5 C 0 km/h
1150 02-02-2009 14:01:08 5.3 C 2.5 g/m*3 5.3 C 0 km/h
Sensor: Nr:Datum:Temp:Abs-Feuchte:Windchill:Wind:
Aussen-T/F 1151 02-02-2009 14:13:08 5.3 C 2.5 g/m*3 5.3 C 0 km/h
1152 02-02-2009 14:25:08 5.4 C 2.51 g/m*3 5.4 C 0 km/h
1153 02-02-2009 14:37:07 5.1 C 2.53 g/m*3 5.1 C 0 km/h
1154 02-02-2009 14:49:08 5.1 C 2.67 g/m*3 5.1 C 0 km/h
1155 02-02-2009 15:01:07 5.2 C 2.62 g/m*3 5.2 C 0 km/h
1156 02-02-2009 15:13:07 5.1 C 2.67 g/m*3 5.1 C 0 km/h
1157 02-02-2009 15:25:07 5.1 C 2.67 g/m*3 5.1 C 0 km/h
1158 02-02-2009 15:37:07 5.1 C 2.67 g/m*3 5.1 C 0 km/h
1159 02-02-2009 15:49:07 5 C 2.72 g/m*3 5 C 0 km/h
1160 02-02-2009 16:01:06 4.9 C 2.7 g/m*3 4.9 C 0 km/h
1161 02-02-2009 16:13:06 4.6 C 2.78 g/m*3 4.6 C 0 km/h
1162 02-02-2009 16:25:07 4.3 C 2.79 g/m*3 4.3 C 0 km/h
1163 02-02-2009 16:37:07 3.9 C 2.91 g/m*3 3.9 C 0 km/h
1164 02-02-2009 16:49:06 3.7 C 2.93 g/m*3 3.7 C 0 km/h
1165 02-02-2009 17:01:06 3.5 C 2.95 g/m*3 3.5 C 0 km/h
1166 02-02-2009 17:13:06 3.3 C 2.97 g/m*3 3.3 C 0 km/h
1167 02-02-2009 17:25:06 3.1 C 2.99 g/m*3 3.1 C 0 km/h
1168 02-02-2009 17:37:06 3.1 C 2.99 g/m*3 3.1 C 0 km/h
1169 02-02-2009 17:49:06 3 C 3.03 g/m*3 3 C 0 km/h
1170 02-02-2009 18:01:05 2.6 C 3.07 g/m*3 2.6 C 0 km/h
1171 02-02-2009 18:13:05 2.7 C 3.09 g/m*3 2.7 C 0 km/h
1172 02-02-2009 18:25:06 2.6 C 3.07 g/m*3 2.6 C 0 km/h
1173 02-02-2009 18:37:06 2.2 C 3.1 g/m*3 2.2 C 0 km/h
1174 02-02-2009 18:49:06 2.1 C 3.13 g/m*3 2.1 C 0 km/h
1175 02-02-2009 19:01:06 1.8 C 3.18 g/m*3 1.8 C 0 km/h
Sensor: Nr:Datum:Temp:Abs-Feuchte:Windchill:Wind:
Aussen-T/F 1176 02-02-2009 19:13:06 1.5 C 3.17 g/m*3 1.5 C 0 km/h
1177 02-02-2009 19:25:05 1.3 C 3.23 g/m*3 1.3 C 0 km/h
1178 02-02-2009 19:37:05 1.1 C 3.24 g/m*3 1.1 C 0 km/h
1179 02-02-2009 19:49:04 1.3 C 3.28 g/m*3 1.3 C 0 km/h
1180 02-02-2009 20:01:05 1.2 C 3.21 g/m*3 1.2 C 0 km/h
1181 02-02-2009 20:13:05 1 C 3.27 g/m*3 1 C 0 km/h
1182 02-02-2009 20:25:04 1.3 C 3.34 g/m*3 1.3 C 0 km/h
1183 02-02-2009 20:37:04 1.2 C 3.26 g/m*3 1.2 C 0 km/h
1184 02-02-2009 20:49:05 1.4 C 3.31 g/m*3 1.4 C 0 km/h
1185 02-02-2009 21:01:03 1.6 C 3.35 g/m*3 1.6 C 0 km/h
1186 02-02-2009 21:13:03 1.3 C 3.28 g/m*3 1.3 C 0 km/h
1187 02-02-2009 21:26:05 1.5 C 3.33 g/m*3 1.5 C 0 km/h
1188 02-02-2009 21:38:05 1.4 C 3.31 g/m*3 1.4 C 0 km/h
1189 02-02-2009 21:50:06 1.2 C 3.26 g/m*3 1.2 C 0 km/h
1190 02-02-2009 22:02:06 1.1 C 3.34 g/m*3 1.1 C 0 km/h
1191 02-02-2009 22:14:06 0.8 C 3.33 g/m*3 0.8 C 0 km/h
1192 02-02-2009 22:26:06 0.6 C 3.43 g/m*3 0.6 C 0 km/h
1193 02-02-2009 22:38:06 0.4 C 3.44 g/m*3 0.4 C 0 km/h
1194 02-02-2009 22:50:06 0.3 C 3.46 g/m*3 0.3 C 0 km/h
1195 02-02-2009 23:02:06 0.1 C 3.42 g/m*3 0.1 C 0 km/h
1196 02-02-2009 23:14:06 0 C 3.44 g/m*3 0 C 0 km/h
1197 02-02-2009 23:26:06 -0.1 C 3.46 g/m*3 -0.1 C 0 km/h
1198 02-02-2009 23:38:06 -0.3 C 3.42 g/m*3 -0.3 C 0 km/h
1199 02-02-2009 23:50:06 -0.3 C 3.46 g/m*3 -0.3 C 0 km/h
1200 03-02-2009 00:02:06 -0.4 C 3.49 g/m*3 -0.4 C 0 km/h
Sensor: Nr:Datum:Temp:Abs-Feuchte:Windchill:Wind:
Aussen-T/F 1201 03-02-2009 00:14:06 -0.5 C 3.46 g/m*3 -0.5 C 0 km/h
1202 03-02-2009 00:26:06 -0.7 C 3.42 g/m*3 -0.7 C 0 km/h
1203 03-02-2009 00:38:06 -0.9 C 3.41 g/m*3 -0.9 C 0 km/h
1204 03-02-2009 00:50:06 -1.1 C 3.37 g/m*3 -1.1 C 0 km/h
1205 03-02-2009 01:02:06 -1.2 C 3.43 g/m*3 -1.2 C 0 km/h
1206 03-02-2009 01:14:06 -1.3 C 3.41 g/m*3 -1.3 C 0 km/h
1207 03-02-2009 01:26:06 -1.3 C 3.45 g/m*3 -1.3 C 0 km/h
1208 03-02-2009 01:38:06 -1.4 C 3.43 g/m*3 -1.4 C 0 km/h
1209 03-02-2009 01:50:07 -1.4 C 3.47 g/m*3 -1.4 C 0 km/h
1210 03-02-2009 02:02:07 -1.4 C 3.47 g/m*3 -1.4 C 0 km/h
1211 03-02-2009 02:14:07 -1.4 C 3.52 g/m*3 -1.4 C 0 km/h
1212 03-02-2009 02:26:07 -1.4 C 3.56 g/m*3 -1.4 C 0 km/h
1213 03-02-2009 02:38:07 -1.6 C 3.51 g/m*3 -1.6 C 0 km/h
1214 03-02-2009 02:50:07 -1.7 C 3.49 g/m*3 -1.7 C 0 km/h
1215 03-02-2009 03:02:07 -1.7 C 3.49 g/m*3 -1.7 C 0 km/h
1216 03-02-2009 03:14:07 -1.9 C 3.44 g/m*3 -1.9 C 0 km/h
1217 03-02-2009 03:26:07 -2 C 3.41 g/m*3 -2 C 0 km/h
1218 03-02-2009 03:38:07 -1.9 C 3.44 g/m*3 -1.9 C 0 km/h
1219 03-02-2009 03:50:07 -2 C 3.46 g/m*3 -2 C 0 km/h
1220 03-02-2009 04:02:07 -2.1 C 3.43 g/m*3 -2.1 C 0 km/h
1221 03-02-2009 04:14:07 -2.3 C 3.38 g/m*3 -2.3 C 0 km/h
1222 03-02-2009 04:26:07 -2.3 C 3.43 g/m*3 -2.3 C 0 km/h
1223 03-02-2009 04:38:07 -2.3 C 3.43 g/m*3 -2.3 C 0 km/h
1224 03-02-2009 04:50:07 -2.5 C 3.38 g/m*3 -2.5 C 0 km/h
1225 03-02-2009 05:02:07 -2.3 C 3.43 g/m*3 -2.3 C 0 km/h
Sensor: Nr:Datum:Temp:Abs-Feuchte:Windchill:Wind:
Aussen-T/F 1226 03-02-2009 05:14:07 -2.3 C 3.47 g/m*3 -2.3 C 0 km/h
1227 03-02-2009 05:26:07 -2.4 C 3.44 g/m*3 -2.4 C 0 km/h
1228 03-02-2009 05:38:08 -2.4 C 3.44 g/m*3 -2.4 C 0 km/h
1229 03-02-2009 05:50:08 -2.6 C 3.39 g/m*3 -2.6 C 0 km/h
1230 03-02-2009 06:02:08 -2.6 C 3.39 g/m*3 -2.6 C 0 km/h
1231 03-02-2009 06:14:08 -2.6 C 3.39 g/m*3 -2.6 C 0 km/h
1232 03-02-2009 06:26:08 -2.8 C 3.35 g/m*3 -2.8 C 0 km/h
1233 03-02-2009 06:38:08 -2.8 C 3.35 g/m*3 -2.8 C 0 km/h
1234 03-02-2009 06:50:08 -2.9 C 3.32 g/m*3 -2.9 C 0 km/h
1235 03-02-2009 07:02:04 -3 C 3.3 g/m*3 -3 C 0 km/h
1236 03-02-2009 07:14:05 -3 C 3.3 g/m*3 -3 C 0 km/h
1237 03-02-2009 07:26:05 -3 C 3.3 g/m*3 -3 C 0 km/h
1238 03-02-2009 07:38:04 -3 C 3.3 g/m*3 -3 C 0 km/h
1239 03-02-2009 07:50:04 -3.1 C 3.28 g/m*3 -3.1 C 0 km/h
1240 03-02-2009 08:02:04 -3.1 C 3.28 g/m*3 -3.1 C 0 km/h
1241 03-02-2009 08:14:04 -3.1 C 3.28 g/m*3 -3.1 C 0 km/h
1242 03-02-2009 08:26:04 -3.1 C 3.28 g/m*3 -3.1 C 0 km/h
1243 03-02-2009 08:38:03 -2.8 C 3.35 g/m*3 -2.8 C 0 km/h
1244 03-02-2009 08:50:04 -2.7 C 3.37 g/m*3 -2.7 C 0 km/h
1245 03-02-2009 09:02:04 -2.7 C 3.37 g/m*3 -2.7 C 0 km/h
1246 03-02-2009 09:14:03 -2.7 C 3.37 g/m*3 -2.7 C 0 km/h
1247 03-02-2009 09:26:03 -2.5 C 3.42 g/m*3 -2.5 C 0 km/h
1248 03-02-2009 09:38:03 -2.3 C 3.47 g/m*3 -2.3 C 0 km/h
1249 03-02-2009 09:50:03 -2.1 C 3.52 g/m*3 -2.1 C 0 km/h
1250 03-02-2009 10:02:03 -1.9 C 3.57 g/m*3 -1.9 C 0 km/h
Sensor: Nr:Datum:Temp:Abs-Feuchte:Windchill:Wind:
Aussen-T/F 1251 03-02-2009 10:14:02 -1.8 C 3.59 g/m*3 -1.8 C 0 km/h
1252 03-02-2009 10:26:02 -1.6 C 3.64 g/m*3 -1.6 C 0 km/h
1253 03-02-2009 10:38:03 -1.3 C 3.72 g/m*3 -1.3 C 0 km/h
1254 03-02-2009 10:50:02 -0.9 C 3.82 g/m*3 -0.9 C 0 km/h
1255 03-02-2009 11:02:02 -0.2 C 4.06 g/m*3 -0.2 C 0 km/h
1256 03-02-2009 11:14:03 0.3 C 4.16 g/m*3 0.3 C 0 km/h
1257 03-02-2009 11:26:03 0.6 C 4.24 g/m*3 0.6 C 0 km/h
1258 03-02-2009 11:38:02 1 C 4.2 g/m*3 1 C 0 km/h
1259 03-02-2009 11:50:02 1.2 C 4.21 g/m*3 1.2 C 0 km/h
1260 03-02-2009 12:02:01 1.4 C 4.21 g/m*3 1.4 C 0 km/h
1261 03-02-2009 12:14:02 2 C 4.28 g/m*3 2 C 0 km/h
1262 03-02-2009 12:26:02 2.5 C 4.31 g/m*3 2.5 C 0 km/h
1263 03-02-2009 12:38:01 3 C 4.22 g/m*3 3 C 0 km/h
1264 03-02-2009 12:50:01 3.2 C 4.1 g/m*3 3.2 C 0 km/h
1265 03-02-2009 13:02:01 3.7 C 4.05 g/m*3 3.7 C 0 km/h
1266 03-02-2009 13:14:01 4.2 C 3.99 g/m*3 4.2 C 0 km/h
1267 03-02-2009 13:26:01 4.7 C 4.06 g/m*3 4.7 C 0 km/h
1268 03-02-2009 13:38:01 5.5 C 3.93 g/m*3 5.5 C 0 km/h
1269 03-02-2009 13:50:01 5.9 C 3.89 g/m*3 5.9 C 0 km/h
1270 03-02-2009 14:02:01 6 C 3.77 g/m*3 6 C 0 km/h
1271 03-02-2009 14:14:00 6.5 C 3.75 g/m*3 6.5 C 0 km/h
1272 03-02-2009 14:26:00 6.3 C 3.63 g/m*3 6.3 C 0 km/h
1273 03-02-2009 14:38:00 6.2 C 3.68 g/m*3 6.2 C 0 km/h
1274 03-02-2009 14:50:00 6.1 C 3.65 g/m*3 6.1 C 0 km/h
1275 03-02-2009 15:02:00 6.2 C 3.75 g/m*3 6.2 C 0 km/h
Sensor: Nr:Datum:Temp:Abs-Feuchte:Windchill:Wind:
Aussen-T/F 1276 03-02-2009 15:14:59 5.9 C 3.75 g/m*3 5.9 C 0 km/h
1277 03-02-2009 15:25:59 5.7 C 3.77 g/m*3 5.7 C 0 km/h
1278 03-02-2009 15:38:00 5.8 C 3.8 g/m*3 5.8 C 0 km/h
1279 03-02-2009 15:50:59 5.5 C 3.72 g/m*3 5.5 C 0 km/h
1280 03-02-2009 16:02:59 5.7 C 3.84 g/m*3 5.7 C 0 km/h
1281 03-02-2009 16:14:00 5.8 C 3.8 g/m*3 5.8 C 0 km/h
1282 03-02-2009 16:26:00 5.3 C 3.74 g/m*3 5.3 C 0 km/h
1283 03-02-2009 16:38:59 4.6 C 3.77 g/m*3 4.6 C 0 km/h
1284 03-02-2009 16:50:59 4.1 C 3.78 g/m*3 4.1 C 0 km/h
1285 03-02-2009 17:02:59 3.6 C 3.84 g/m*3 3.6 C 0 km/h
1286 03-02-2009 17:14:59 3.3 C 3.82 g/m*3 3.3 C 0 km/h
1287 03-02-2009 17:26:59 3.1 C 3.89 g/m*3 3.1 C 0 km/h
1288 03-02-2009 17:38:58 2.9 C 3.9 g/m*3 2.9 C 0 km/h
1289 03-02-2009 17:50:59 2.5 C 3.85 g/m*3 2.5 C 0 km/h
1290 03-02-2009 18:02:58 2.3 C 3.91 g/m*3 2.3 C 0 km/h
1291 03-02-2009 18:14:58 2 C 3.89 g/m*3 2 C 0 km/h
1292 03-02-2009 18:26:58 2 C 3.95 g/m*3 2 C 0 km/h
1293 03-02-2009 18:38:58 1.8 C 4 g/m*3 1.8 C 0 km/h
1294 03-02-2009 18:50:58 1.7 C 4.03 g/m*3 1.7 C 0 km/h
1295 03-02-2009 19:02:58 1.7 C 4.03 g/m*3 1.7 C 0 km/h
1296 03-02-2009 19:14:57 1.7 C 4.08 g/m*3 1.7 C 0 km/h
1297 03-02-2009 19:26:57 1.6 C 4 g/m*3 1.6 C 0 km/h
1298 03-02-2009 19:38:58 1.7 C 4.08 g/m*3 1.7 C 0 km/h
1299 03-02-2009 19:50:57 1.5 C 4.03 g/m*3 1.5 C 0 km/h
1300 03-02-2009 20:02:57 1.3 C 3.97 g/m*3 1.3 C 0 km/h
Sensor: Nr:Datum:Temp:Abs-Feuchte:Windchill:Wind:
Aussen-T/F 1301 03-02-2009 20:14:57 1.2 C 4 g/m*3 1.2 C 0 km/h
1302 03-02-2009 20:26:57 1.2 C 4.05 g/m*3 1.2 C 0 km/h
1303 03-02-2009 20:38:57 1.3 C 4.13 g/m*3 1.3 C 0 km/h
1304 03-02-2009 20:50:56 1.3 C 4.19 g/m*3 1.3 C 0 km/h
1305 03-02-2009 21:02:56 1.2 C 4.1 g/m*3 1.2 C 0 km/h
1306 03-02-2009 21:14:57 1 C 4.05 g/m*3 1 C 0 km/h
1307 03-02-2009 21:26:57 1.1 C 4.13 g/m*3 1.1 C 0 km/h
1308 03-02-2009 21:38:56 1.4 C 4.32 g/m*3 1.4 C 0 km/h
1309 03-02-2009 21:50:56 1.5 C 4.35 g/m*3 1.5 C 0 km/h
1310 03-02-2009 22:03:57 1.7 C 4.52 g/m*3 1.7 C 0 km/h
1311 03-02-2009 22:15:57 1.9 C 4.58 g/m*3 1.9 C 0 km/h
1312 03-02-2009 22:27:57 2 C 4.56 g/m*3 2 C 0 km/h
1313 03-02-2009 22:39:57 2.1 C 4.59 g/m*3 2.1 C 0 km/h
1314 03-02-2009 22:51:57 2.1 C 4.53 g/m*3 2.1 C 0 km/h
1315 03-02-2009 23:03:57 2 C 4.5 g/m*3 2 C 0 km/h
1316 03-02-2009 23:15:57 2 C 4.45 g/m*3 2 C 0 km/h
1317 03-02-2009 23:27:57 2.1 C 4.48 g/m*3 2.1 C 0 km/h
1318 03-02-2009 23:39:57 2.1 C 4.48 g/m*3 2.1 C 0 km/h
1319 03-02-2009 23:51:58 2.1 C 4.42 g/m*3 2.1 C 0 km/h
1320 04-02-2009 00:03:58 2.2 C 4.51 g/m*3 2.2 C 0 km/h
1321 04-02-2009 00:15:58 2.2 C 4.45 g/m*3 2.2 C 0 km/h
1322 04-02-2009 00:27:58 2.2 C 4.45 g/m*3 2.2 C 0 km/h
1323 04-02-2009 00:39:58 2.2 C 4.51 g/m*3 2.2 C 0 km/h
1324 04-02-2009 00:51:58 2.2 C 4.51 g/m*3 2.2 C 0 km/h
1325 04-02-2009 01:03:58 2.3 C 4.54 g/m*3 2.3 C 0 km/h
Sensor: Nr:Datum:Temp:Abs-Feuchte:Windchill:Wind:
Aussen-T/F 1326 04-02-2009 01:15:58 2.2 C 4.51 g/m*3 2.2 C 0 km/h
1327 04-02-2009 01:27:58 2.2 C 4.51 g/m*3 2.2 C 0 km/h
1328 04-02-2009 01:39:58 2.2 C 4.51 g/m*3 2.2 C 0 km/h
1329 04-02-2009 01:51:58 2.2 C 4.51 g/m*3 2.2 C 0 km/h
1330 04-02-2009 02:03:58 2.2 C 4.51 g/m*3 2.2 C 0 km/h
1331 04-02-2009 02:15:58 2.2 C 4.45 g/m*3 2.2 C 0 km/h
1332 04-02-2009 02:27:58 2.1 C 4.42 g/m*3 2.1 C 0 km/h
1333 04-02-2009 02:39:58 2.1 C 4.42 g/m*3 2.1 C 0 km/h
1334 04-02-2009 02:51:58 2.1 C 4.42 g/m*3 2.1 C 0 km/h
1335 04-02-2009 03:03:58 2 C 4.45 g/m*3 2 C 0 km/h
1336 04-02-2009 03:15:58 2 C 4.45 g/m*3 2 C 0 km/h
1337 04-02-2009 03:27:58 2 C 4.45 g/m*3 2 C 0 km/h
1338 04-02-2009 03:39:59 2 C 4.45 g/m*3 2 C 0 km/h
1339 04-02-2009 03:51:59 2 C 4.45 g/m*3 2 C 0 km/h
1340 04-02-2009 04:03:59 2 C 4.45 g/m*3 2 C 0 km/h
1341 04-02-2009 04:15:59 1.9 C 4.42 g/m*3 1.9 C 0 km/h
1342 04-02-2009 04:27:59 1.8 C 4.39 g/m*3 1.8 C 0 km/h
1343 04-02-2009 04:39:59 1.8 C 4.39 g/m*3 1.8 C 0 km/h
1344 04-02-2009 04:51:59 1.8 C 4.39 g/m*3 1.8 C 0 km/h
1345 04-02-2009 05:03:59 1.8 C 4.39 g/m*3 1.8 C 0 km/h
1346 04-02-2009 05:15:59 1.8 C 4.39 g/m*3 1.8 C 0 km/h
1347 04-02-2009 05:27:59 1.8 C 4.39 g/m*3 1.8 C 0 km/h
1348 04-02-2009 05:39:59 1.8 C 4.39 g/m*3 1.8 C 0 km/h
1349 04-02-2009 05:51:59 1.6 C 4.33 g/m*3 1.6 C 0 km/h
1350 04-02-2009 06:03:59 1.5 C 4.3 g/m*3 1.5 C 0 km/h
Sensor: Nr:Datum:Temp:Abs-Feuchte:Windchill:Wind:
Aussen-T/F 1351 04-02-2009 06:15:59 1.5 C 4.35 g/m*3 1.5 C 0 km/h
1352 04-02-2009 06:27:59 1.6 C 4.38 g/m*3 1.6 C 0 km/h
1353 04-02-2009 06:39:58 1.6 C 4.43 g/m*3 1.6 C 0 km/h
1354 04-02-2009 06:51:57 1.6 C 4.43 g/m*3 1.6 C 0 km/h
1355 04-02-2009 07:03:57 1.6 C 4.43 g/m*3 1.6 C 0 km/h
1356 04-02-2009 07:15:57 1.6 C 4.43 g/m*3 1.6 C 0 km/h
1357 04-02-2009 07:27:57 1.7 C 4.46 g/m*3 1.7 C 0 km/h
1358 04-02-2009 07:39:57 1.7 C 4.46 g/m*3 1.7 C 0 km/h
1359 04-02-2009 07:51:57 1.7 C 4.46 g/m*3 1.7 C 0 km/h
1360 04-02-2009 08:03:57 1.7 C 4.46 g/m*3 1.7 C 0 km/h
1361 04-02-2009 08:15:56 1.6 C 4.43 g/m*3 1.6 C 0 km/h
1362 04-02-2009 08:27:56 1.7 C 4.46 g/m*3 1.7 C 0 km/h
1363 04-02-2009 08:39:56 1.7 C 4.52 g/m*3 1.7 C 0 km/h
1364 04-02-2009 08:51:56 1.7 C 4.46 g/m*3 1.7 C 0 km/h
1365 04-02-2009 09:03:56 1.7 C 4.46 g/m*3 1.7 C 0 km/h
1366 04-02-2009 09:15:55 1.7 C 4.46 g/m*3 1.7 C 0 km/h
1367 04-02-2009 09:27:55 1.7 C 4.52 g/m*3 1.7 C 0 km/h
1368 04-02-2009 09:39:56 1.8 C 4.55 g/m*3 1.8 C 0 km/h
1369 04-02-2009 09:51:55 1.9 C 4.58 g/m*3 1.9 C 0 km/h
1370 04-02-2009 10:03:55 2.1 C 4.64 g/m*3 2.1 C 0 km/h
1371 04-02-2009 10:15:56 2.2 C 4.62 g/m*3 2.2 C 0 km/h
1372 04-02-2009 10:27:56 2.3 C 4.65 g/m*3 2.3 C 0 km/h
1373 04-02-2009 10:39:55 2.4 C 4.68 g/m*3 2.4 C 0 km/h
1374 04-02-2009 10:51:55 2.8 C 4.81 g/m*3 2.8 C 0 km/h
1375 04-02-2009 11:03:55 3 C 4.76 g/m*3 3 C 0 km/h
Sensor: Nr:Datum:Temp:Abs-Feuchte:Windchill:Wind:
Aussen-T/F 1376 04-02-2009 11:15:55 3.1 C 4.73 g/m*3 3.1 C 0 km/h
1377 04-02-2009 11:27:55 3.1 C 4.67 g/m*3 3.1 C 0 km/h
1378 04-02-2009 11:39:54 3.3 C 4.67 g/m*3 3.3 C 0 km/h
1379 04-02-2009 11:51:54 3.2 C 4.58 g/m*3 3.2 C 0 km/h
1380 04-02-2009 12:03:54 3.1 C 4.55 g/m*3 3.1 C 0 km/h
1381 04-02-2009 12:15:54 3.4 C 4.7 g/m*3 3.4 C 0 km/h
1382 04-02-2009 12:27:54 3.9 C 4.86 g/m*3 3.9 C 0 km/h
1383 04-02-2009 12:39:54 4.1 C 4.93 g/m*3 4.1 C 0 km/h
1384 04-02-2009 12:51:54 4.4 C 5.03 g/m*3 4.4 C 0 km/h
1385 04-02-2009 13:03:54 4.6 C 5.1 g/m*3 4.6 C 0 km/h
1386 04-02-2009 13:15:53 4.8 C 5.1 g/m*3 4.8 C 0 km/h
1387 04-02-2009 13:27:53 5 C 5.03 g/m*3 5 C 0 km/h
1388 04-02-2009 13:39:53 5.3 C 5.06 g/m*3 5.3 C 0 km/h
1389 04-02-2009 13:51:53 5.7 C 5.05 g/m*3 5.7 C 0 km/h
1390 04-02-2009 14:03:53 6 C 4.94 g/m*3 6 C 0 km/h
1391 04-02-2009 14:15:52 6.1 C 4.82 g/m*3 6.1 C 0 km/h
1392 04-02-2009 14:27:52 6.2 C 4.85 g/m*3 6.2 C 0 km/h
1393 04-02-2009 14:39:53 6.2 C 4.85 g/m*3 6.2 C 0 km/h
1394 04-02-2009 14:51:52 5.9 C 4.76 g/m*3 5.9 C 0 km/h
1395 04-02-2009 15:03:52 6 C 4.79 g/m*3 6 C 0 km/h
1396 04-02-2009 15:15:53 6.7 C 4.94 g/m*3 6.7 C 0 km/h
1397 04-02-2009 15:27:53 6.3 C 4.74 g/m*3 6.3 C 0 km/h
1398 04-02-2009 15:39:52 6.1 C 4.75 g/m*3 6.1 C 0 km/h
1399 04-02-2009 15:51:52 6 C 4.79 g/m*3 6 C 0 km/h
1400 04-02-2009 16:03:52 6.1 C 4.89 g/m*3 6.1 C 0 km/h
Sensor: Nr:Datum:Temp:Abs-Feuchte:Windchill:Wind:
Aussen-T/F 1401 04-02-2009 16:15:52 6.1 C 4.89 g/m*3 6.1 C 0 km/h
1402 04-02-2009 16:27:53 5.9 C 4.83 g/m*3 5.9 C 0 km/h
1403 04-02-2009 16:39:51 5.7 C 4.84 g/m*3 5.7 C 0 km/h
1404 04-02-2009 16:51:51 4.7 C 4.73 g/m*3 4.7 C 0 km/h
1405 04-02-2009 17:03:52 4.6 C 4.83 g/m*3 4.6 C 0 km/h
1406 04-02-2009 17:15:51 4.5 C 4.86 g/m*3 4.5 C 0 km/h
1407 04-02-2009 17:27:51 4.5 C 4.86 g/m*3 4.5 C 0 km/h
1408 04-02-2009 17:39:51 4.5 C 4.86 g/m*3 4.5 C 0 km/h
1409 04-02-2009 17:51:51 4.6 C 4.9 g/m*3 4.6 C 0 km/h
1410 04-02-2009 18:03:51 4.4 C 4.83 g/m*3 4.4 C 0 km/h
1411 04-02-2009 18:15:50 4.2 C 4.77 g/m*3 4.2 C 0 km/h
1412 04-02-2009 18:27:50 4 C 4.77 g/m*3 4 C 0 km/h
1413 04-02-2009 18:39:51 3.7 C 4.74 g/m*3 3.7 C 0 km/h
1414 04-02-2009 18:51:50 3.4 C 4.7 g/m*3 3.4 C 0 km/h
1415 04-02-2009 19:03:50 3.3 C 4.67 g/m*3 3.3 C 0 km/h
1416 04-02-2009 19:15:49 3.3 C 4.73 g/m*3 3.3 C 0 km/h
1417 04-02-2009 19:27:49 3.2 C 4.7 g/m*3 3.2 C 0 km/h
1418 04-02-2009 19:39:50 3.3 C 4.73 g/m*3 3.3 C 0 km/h
1419 04-02-2009 19:51:49 3.2 C 4.7 g/m*3 3.2 C 0 km/h
1420 04-02-2009 20:03:49 3.1 C 4.61 g/m*3 3.1 C 0 km/h
1421 04-02-2009 20:15:50 3.1 C 4.67 g/m*3 3.1 C 0 km/h
1422 04-02-2009 20:27:50 3 C 4.64 g/m*3 3 C 0 km/h
1423 04-02-2009 20:39:49 3.2 C 4.7 g/m*3 3.2 C 0 km/h
1424 04-02-2009 20:51:49 2.9 C 4.67 g/m*3 2.9 C 0 km/h
1425 04-02-2009 21:03:49 2.9 C 4.61 g/m*3 2.9 C 0 km/h
Sensor: Nr:Datum:Temp:Abs-Feuchte:Windchill:Wind:
Aussen-T/F 1426 04-02-2009 21:15:48 2.9 C 4.67 g/m*3 2.9 C 0 km/h
1427 04-02-2009 21:27:48 2.8 C 4.58 g/m*3 2.8 C 0 km/h
1428 04-02-2009 21:39:49 2.7 C 4.54 g/m*3 2.7 C 0 km/h
1429 04-02-2009 21:51:48 2.4 C 4.45 g/m*3 2.4 C 0 km/h
1430 04-02-2009 22:04:49 2 C 4.33 g/m*3 2 C 0 km/h
1431 04-02-2009 22:16:50 1.9 C 4.42 g/m*3 1.9 C 0 km/h
1432 04-02-2009 22:28:50 2.1 C 4.48 g/m*3 2.1 C 0 km/h
1433 04-02-2009 22:40:50 2 C 4.39 g/m*3 2 C 0 km/h
1434 04-02-2009 22:52:50 1.6 C 4.33 g/m*3 1.6 C 0 km/h
1435 04-02-2009 23:04:50 1.6 C 4.38 g/m*3 1.6 C 0 km/h
1436 04-02-2009 23:16:50 1.4 C 4.32 g/m*3 1.4 C 0 km/h
1437 04-02-2009 23:28:50 1.5 C 4.4 g/m*3 1.5 C 0 km/h
1438 04-02-2009 23:40:50 1.3 C 4.34 g/m*3 1.3 C 0 km/h
1439 04-02-2009 23:52:50 1.2 C 4.31 g/m*3 1.2 C 0 km/h
1440 05-02-2009 00:04:50 1 C 4.26 g/m*3 1 C 0 km/h
1441 05-02-2009 00:16:50 0.9 C 4.28 g/m*3 0.9 C 0 km/h
1442 05-02-2009 00:28:50 0.6 C 4.19 g/m*3 0.6 C 0 km/h
1443 05-02-2009 00:40:50 0.4 C 4.13 g/m*3 0.4 C 0 km/h
1444 05-02-2009 00:52:50 0.3 C 4.16 g/m*3 0.3 C 0 km/h
1445 05-02-2009 01:04:50 0.1 C 4.1 g/m*3 0.1 C 0 km/h
1446 05-02-2009 01:16:50 -0.1 C 4.04 g/m*3 -0.1 C 0 km/h
1447 05-02-2009 01:28:50 -0.2 C 4.01 g/m*3 -0.2 C 0 km/h
1448 05-02-2009 01:40:50 -0.5 C 3.93 g/m*3 -0.5 C 0 km/h
1449 05-02-2009 01:52:50 -0.6 C 3.9 g/m*3 -0.6 C 0 km/h
1450 05-02-2009 02:04:51 -0.6 C 3.95 g/m*3 -0.6 C 0 km/h
Sensor: Nr:Datum:Temp:Abs-Feuchte:Windchill:Wind:
Aussen-T/F 1451 05-02-2009 02:16:51 -0.8 C 3.94 g/m*3 -0.8 C 0 km/h
1452 05-02-2009 02:28:51 -1 C 3.89 g/m*3 -1 C 0 km/h
1453 05-02-2009 02:40:51 -1 C 3.89 g/m*3 -1 C 0 km/h
1454 05-02-2009 02:52:51 -1.1 C 3.91 g/m*3 -1.1 C 0 km/h
1455 05-02-2009 03:04:51 -1.1 C 3.91 g/m*3 -1.1 C 0 km/h
1456 05-02-2009 03:16:51 -1.2 C 3.92 g/m*3 -1.2 C 0 km/h
1457 05-02-2009 03:28:51 -1.2 C 3.92 g/m*3 -1.2 C 0 km/h
1458 05-02-2009 03:40:51 -1.1 C 4 g/m*3 -1.1 C 0 km/h
1459 05-02-2009 03:52:51 -0.9 C 4.05 g/m*3 -0.9 C 0 km/h
1460 05-02-2009 04:04:51 -0.9 C 4.05 g/m*3 -0.9 C 0 km/h
1461 05-02-2009 04:16:51 -0.9 C 4.05 g/m*3 -0.9 C 0 km/h
1462 05-02-2009 04:28:51 -0.6 C 4.18 g/m*3 -0.6 C 0 km/h
1463 05-02-2009 04:40:51 -0.9 C 4.05 g/m*3 -0.9 C 0 km/h
1464 05-02-2009 04:52:51 -0.7 C 4.15 g/m*3 -0.7 C 0 km/h
1465 05-02-2009 05:04:51 -0.8 C 4.13 g/m*3 -0.8 C 0 km/h
1466 05-02-2009 05:16:51 -0.7 C 4.15 g/m*3 -0.7 C 0 km/h
1467 05-02-2009 05:28:51 -0.7 C 4.15 g/m*3 -0.7 C 0 km/h
1468 05-02-2009 05:40:51 -0.6 C 4.18 g/m*3 -0.6 C 0 km/h
1469 05-02-2009 05:52:52 -0.8 C 4.13 g/m*3 -0.8 C 0 km/h
1470 05-02-2009 06:04:52 -0.9 C 4.1 g/m*3 -0.9 C 0 km/h
1471 05-02-2009 06:16:52 -1 C 4.07 g/m*3 -1 C 0 km/h
1472 05-02-2009 06:28:52 -1.1 C 4.04 g/m*3 -1.1 C 0 km/h
1473 05-02-2009 06:40:52 -1.2 C 4.01 g/m*3 -1.2 C 0 km/h
1474 05-02-2009 06:52:52 -1.3 C 3.98 g/m*3 -1.3 C 0 km/h
1475 05-02-2009 07:04:49 -1.4 C 3.96 g/m*3 -1.4 C 0 km/h
Sensor: Nr:Datum:Temp:Abs-Feuchte:Windchill:Wind:
Aussen-T/F 1476 05-02-2009 07:16:49 -1.2 C 4.01 g/m*3 -1.2 C 0 km/h
1477 05-02-2009 07:28:49 -1.1 C 4.09 g/m*3 -1.1 C 0 km/h
1478 05-02-2009 07:40:49 -1.1 C 4.09 g/m*3 -1.1 C 0 km/h
1479 05-02-2009 07:52:49 -1 C 4.11 g/m*3 -1 C 0 km/h
1480 05-02-2009 08:04:48 -0.9 C 4.14 g/m*3 -0.9 C 0 km/h
1481 05-02-2009 08:16:48 -0.6 C 4.28 g/m*3 -0.6 C 0 km/h
1482 05-02-2009 08:28:49 -0.3 C 4.37 g/m*3 -0.3 C 0 km/h
1483 05-02-2009 08:40:48 0 C 4.46 g/m*3 0 C 0 km/h
1484 05-02-2009 08:52:48 0.2 C 4.57 g/m*3 0.2 C 0 km/h
1485 05-02-2009 09:04:47 0.6 C 4.7 g/m*3 0.6 C 0 km/h
1486 05-02-2009 09:16:48 0.9 C 4.79 g/m*3 0.9 C 0 km/h
1487 05-02-2009 09:28:48 0.7 C 4.68 g/m*3 0.7 C 0 km/h
1488 05-02-2009 09:40:48 1 C 4.72 g/m*3 1 C 0 km/h
1489 05-02-2009 09:52:47 1 C 4.72 g/m*3 1 C 0 km/h
1490 05-02-2009 10:04:48 1.2 C 4.79 g/m*3 1.2 C 0 km/h
1491 05-02-2009 10:16:47 1.5 C 4.83 g/m*3 1.5 C 0 km/h
1492 05-02-2009 10:28:47 1.7 C 4.85 g/m*3 1.7 C 0 km/h
1493 05-02-2009 10:40:47 1.9 C 4.91 g/m*3 1.9 C 0 km/h
1494 05-02-2009 10:52:47 2.4 C 5.08 g/m*3 2.4 C 0 km/h
1495 05-02-2009 11:04:47 3.1 C 5.21 g/m*3 3.1 C 0 km/h
1496 05-02-2009 11:16:46 3.6 C 5.39 g/m*3 3.6 C 0 km/h
1497 05-02-2009 11:28:46 3.8 C 5.4 g/m*3 3.8 C 0 km/h
1498 05-02-2009 11:40:46 4.3 C 5.25 g/m*3 4.3 C 0 km/h
1499 05-02-2009 11:52:46 4.7 C 5.2 g/m*3 4.7 C 0 km/h
1500 05-02-2009 12:04:46 5.1 C 4.99 g/m*3 5.1 C 0 km/h
Sensor: Nr:Datum:Temp:Abs-Feuchte:Windchill:Wind:
Aussen-T/F 1501 05-02-2009 12:16:46 5.7 C 5.05 g/m*3 5.7 C 0 km/h
1502 05-02-2009 12:28:46 6.2 C 4.93 g/m*3 6.2 C 0 km/h
1503 05-02-2009 12:40:46 7 C 4.88 g/m*3 7 C 0 km/h
1504 05-02-2009 12:52:46 8.1 C 4.74 g/m*3 8.1 C 0 km/h
1505 05-02-2009 13:04:45 8.8 C 4.79 g/m*3 8.8 C 0 km/h
1506 05-02-2009 13:16:46 8.8 C 4.7 g/m*3 8.8 C 0 km/h
1507 05-02-2009 13:28:46 8.7 C 4.76 g/m*3 8.7 C 0 km/h
1508 05-02-2009 13:40:45 9.3 C 4.76 g/m*3 9.3 C 0 km/h
1509 05-02-2009 13:52:45 9.5 C 4.73 g/m*3 9.5 C 0 km/h
1510 05-02-2009 14:04:45 9.8 C 4.73 g/m*3 9.8 C 0 km/h
1511 05-02-2009 14:16:45 10.2 C 4.66 g/m*3 10.2 C 0 km/h
1512 05-02-2009 14:28:45 10.6 C 4.59 g/m*3 10.6 C 0 km/h
1513 05-02-2009 14:40:45 10.3 C 4.6 g/m*3 10.3 C 0 km/h
1514 05-02-2009 14:52:44 10.1 C 4.54 g/m*3 10.1 C 0 km/h
1515 05-02-2009 15:04:45 10.2 C 4.66 g/m*3 10.2 C 0 km/h
1516 05-02-2009 15:16:44 10 C 4.7 g/m*3 10 C 0 km/h
1517 05-02-2009 15:28:44 9.8 C 4.73 g/m*3 9.8 C 0 km/h
1518 05-02-2009 15:40:44 9.8 C 4.73 g/m*3 9.8 C 0 km/h
1519 05-02-2009 15:52:44 10 C 4.79 g/m*3 10 C 0 km/h
1520 05-02-2009 16:04:44 9.9 C 4.86 g/m*3 9.9 C 0 km/h
1521 05-02-2009 16:16:44 9.7 C 4.79 g/m*3 9.7 C 0 km/h
1522 05-02-2009 16:28:44 9.5 C 4.82 g/m*3 9.5 C 0 km/h
1523 05-02-2009 16:40:43 9.6 C 4.76 g/m*3 9.6 C 0 km/h
1524 05-02-2009 16:52:44 9.2 C 4.73 g/m*3 9.2 C 0 km/h
1525 05-02-2009 17:04:43 8.6 C 4.81 g/m*3 8.6 C 0 km/h
Sensor: Nr:Datum:Temp:Abs-Feuchte:Windchill:Wind:
Aussen-T/F 1526 05-02-2009 17:16:43 7.8 C 4.73 g/m*3 7.8 C 0 km/h
1527 05-02-2009 17:28:43 7.2 C 4.79 g/m*3 7.2 C 0 km/h
1528 05-02-2009 17:40:43 6.9 C 4.85 g/m*3 6.9 C 0 km/h
1529 05-02-2009 17:52:43 6.5 C 4.8 g/m*3 6.5 C 0 km/h
1530 05-02-2009 18:04:43 6.1 C 4.82 g/m*3 6.1 C 0 km/h
1531 05-02-2009 18:16:42 5.8 C 4.87 g/m*3 5.8 C 0 km/h
1532 05-02-2009 18:28:42 5.5 C 4.85 g/m*3 5.5 C 0 km/h
1533 05-02-2009 18:40:43 5 C 4.76 g/m*3 5 C 0 km/h
1534 05-02-2009 18:52:42 4.8 C 4.9 g/m*3 4.8 C 0 km/h
1535 05-02-2009 19:04:42 4.6 C 4.83 g/m*3 4.6 C 0 km/h
1536 05-02-2009 19:16:42 4.4 C 4.9 g/m*3 4.4 C 0 km/h
1537 05-02-2009 19:28:42 4.1 C 4.8 g/m*3 4.1 C 0 km/h
1538 05-02-2009 19:40:42 4 C 4.83 g/m*3 4 C 0 km/h
1539 05-02-2009 19:52:41 3.8 C 4.89 g/m*3 3.8 C 0 km/h
1540 05-02-2009 20:04:42 3.7 C 4.92 g/m*3 3.7 C 0 km/h
1541 05-02-2009 20:16:42 3.7 C 4.99 g/m*3 3.7 C 0 km/h
1542 05-02-2009 20:28:42 3.8 C 5.08 g/m*3 3.8 C 0 km/h
1543 05-02-2009 20:40:41 4.1 C 5.18 g/m*3 4.1 C 0 km/h
1544 05-02-2009 20:52:42 3.9 C 5.05 g/m*3 3.9 C 0 km/h
1545 05-02-2009 21:04:41 3.7 C 4.99 g/m*3 3.7 C 0 km/h
1546 05-02-2009 21:16:41 3.7 C 5.11 g/m*3 3.7 C 0 km/h
1547 05-02-2009 21:28:41 3.5 C 5.04 g/m*3 3.5 C 0 km/h
1548 05-02-2009 21:40:41 3.4 C 5.07 g/m*3 3.4 C 0 km/h
1549 05-02-2009 21:52:41 3.4 C 5.07 g/m*3 3.4 C 0 km/h
1550 05-02-2009 22:04:40 3.4 C 5.13 g/m*3 3.4 C 0 km/h
Sensor: Nr:Datum:Temp:Abs-Feuchte:Windchill:Wind:
Aussen-T/F 1551 05-02-2009 22:16:41 3.4 C 5.13 g/m*3 3.4 C 0 km/h
1552 05-02-2009 22:28:41 3.4 C 5.13 g/m*3 3.4 C 0 km/h
1553 05-02-2009 22:40:40 3.5 C 5.23 g/m*3 3.5 C 0 km/h
1554 05-02-2009 22:52:40 3.6 C 5.26 g/m*3 3.6 C 0 km/h
1555 05-02-2009 23:04:40 3.9 C 5.37 g/m*3 3.9 C 0 km/h
1556 05-02-2009 23:16:40 3.8 C 5.21 g/m*3 3.8 C 0 km/h
1557 05-02-2009 23:28:40 3.7 C 5.17 g/m*3 3.7 C 0 km/h
1558 05-02-2009 23:40:40 3.8 C 5.14 g/m*3 3.8 C 0 km/h
1559 05-02-2009 23:52:39 3.7 C 5.11 g/m*3 3.7 C 0 km/h
1560 06-02-2009 00:04:40 3.3 C 4.91 g/m*3 3.3 C 0 km/h
1561 06-02-2009 00:16:39 3 C 4.82 g/m*3 3 C 0 km/h
1562 06-02-2009 00:28:39 2.4 C 4.68 g/m*3 2.4 C 0 km/h
1563 06-02-2009 00:40:39 2.3 C 4.65 g/m*3 2.3 C 0 km/h
1564 06-02-2009 00:52:39 2.1 C 4.64 g/m*3 2.1 C 0 km/h
1565 06-02-2009 01:04:38 2 C 4.61 g/m*3 2 C 0 km/h
1566 06-02-2009 01:16:39 1.9 C 4.64 g/m*3 1.9 C 0 km/h
1567 06-02-2009 01:28:39 1.9 C 4.69 g/m*3 1.9 C 0 km/h
1568 06-02-2009 01:40:38 1.7 C 4.63 g/m*3 1.7 C 0 km/h
1569 06-02-2009 01:52:38 1.6 C 4.6 g/m*3 1.6 C 0 km/h
1570 06-02-2009 02:04:39 1.5 C 4.57 g/m*3 1.5 C 0 km/h
1571 06-02-2009 02:16:38 1.5 C 4.57 g/m*3 1.5 C 0 km/h
1572 06-02-2009 02:28:38 1.4 C 4.53 g/m*3 1.4 C 0 km/h
1573 06-02-2009 02:40:38 1.4 C 4.59 g/m*3 1.4 C 0 km/h
1574 06-02-2009 02:53:40 1.3 C 4.56 g/m*3 1.3 C 0 km/h
1575 06-02-2009 03:05:40 1.2 C 4.53 g/m*3 1.2 C 0 km/h
Sensor: Nr:Datum:Temp:Abs-Feuchte:Windchill:Wind:
Aussen-T/F 1576 06-02-2009 03:17:40 1.3 C 4.56 g/m*3 1.3 C 0 km/h
1577 06-02-2009 03:29:39 1.3 C 4.56 g/m*3 1.3 C 0 km/h
1578 06-02-2009 03:41:39 1.4 C 4.64 g/m*3 1.4 C 0 km/h
1579 06-02-2009 03:53:39 1.7 C 4.74 g/m*3 1.7 C 0 km/h
1580 06-02-2009 04:05:39 1.6 C 4.7 g/m*3 1.6 C 0 km/h
1581 06-02-2009 04:17:39 1.6 C 4.65 g/m*3 1.6 C 0 km/h
1582 06-02-2009 04:29:39 1.6 C 4.65 g/m*3 1.6 C 0 km/h
1583 06-02-2009 04:41:39 1.7 C 4.68 g/m*3 1.7 C 0 km/h
1584 06-02-2009 04:53:38 1.8 C 4.71 g/m*3 1.8 C 0 km/h
1585 06-02-2009 05:05:38 1.7 C 4.68 g/m*3 1.7 C 0 km/h
1586 06-02-2009 05:17:39 1.6 C 4.65 g/m*3 1.6 C 0 km/h
1587 06-02-2009 05:29:38 1.6 C 4.65 g/m*3 1.6 C 0 km/h
1588 06-02-2009 05:41:38 1.5 C 4.62 g/m*3 1.5 C 0 km/h
1589 06-02-2009 05:53:38 1.5 C 4.62 g/m*3 1.5 C 0 km/h
1590 06-02-2009 06:05:38 1.1 C 4.49 g/m*3 1.1 C 0 km/h
1591 06-02-2009 06:17:38 0.9 C 4.48 g/m*3 0.9 C 0 km/h
1592 06-02-2009 06:29:37 0.9 C 4.48 g/m*3 0.9 C 0 km/h
1593 06-02-2009 06:41:37 0.8 C 4.51 g/m*3 0.8 C 0 km/h
1594 06-02-2009 06:53:38 0.8 C 4.51 g/m*3 0.8 C 0 km/h
1595 06-02-2009 07:05:37 1 C 4.57 g/m*3 1 C 0 km/h
1596 06-02-2009 07:17:37 0.7 C 4.53 g/m*3 0.7 C 0 km/h
1597 06-02-2009 07:29:37 1 C 4.62 g/m*3 1 C 0 km/h
1598 06-02-2009 07:41:37 1 C 4.67 g/m*3 1 C 0 km/h
1599 06-02-2009 07:53:37 1 C 4.67 g/m*3 1 C 0 km/h
1600 06-02-2009 08:05:36 1 C 4.67 g/m*3 1 C 0 km/h
Sensor: Nr:Datum:Temp:Abs-Feuchte:Windchill:Wind:
Aussen-T/F 1601 06-02-2009 08:17:37 0.9 C 4.69 g/m*3 0.9 C 0 km/h
1602 06-02-2009 08:29:37 0.7 C 4.58 g/m*3 0.7 C 0 km/h
1603 06-02-2009 08:41:37 0.9 C 4.64 g/m*3 0.9 C 0 km/h
1604 06-02-2009 08:53:36 1.1 C 4.7 g/m*3 1.1 C 0 km/h
1605 06-02-2009 09:05:37 1 C 4.67 g/m*3 1 C 0 km/h
1606 06-02-2009 09:17:36 1.1 C 4.7 g/m*3 1.1 C 0 km/h
1607 06-02-2009 09:29:36 1 C 4.67 g/m*3 1 C 0 km/h
1608 06-02-2009 09:41:36 1 C 4.72 g/m*3 1 C 0 km/h
1609 06-02-2009 09:53:36 1.2 C 4.79 g/m*3 1.2 C 0 km/h
1610 06-02-2009 10:05:36 1.6 C 4.92 g/m*3 1.6 C 0 km/h
1611 06-02-2009 10:17:35 2 C 5.06 g/m*3 2 C 0 km/h
1612 06-02-2009 10:29:35 2.2 C 5.13 g/m*3 2.2 C 0 km/h
1613 06-02-2009 10:41:35 2.6 C 5.27 g/m*3 2.6 C 0 km/h
1614 06-02-2009 10:53:35 3.1 C 5.45 g/m*3 3.1 C 0 km/h
1615 06-02-2009 11:05:35 3.7 C 5.67 g/m*3 3.7 C 0 km/h
1616 06-02-2009 11:17:35 4.3 C 5.84 g/m*3 4.3 C 0 km/h
1617 06-02-2009 11:29:34 4.7 C 5.93 g/m*3 4.7 C 0 km/h
1618 06-02-2009 11:41:34 5.2 C 6.06 g/m*3 5.2 C 0 km/h
1619 06-02-2009 11:53:35 5 C 5.71 g/m*3 5 C 0 km/h
1620 06-02-2009 12:05:34 5.2 C 5.58 g/m*3 5.2 C 0 km/h
1621 06-02-2009 12:17:34 5.8 C 5.8 g/m*3 5.8 C 0 km/h
1622 06-02-2009 12:29:34 6.4 C 5.89 g/m*3 6.4 C 0 km/h
1623 06-02-2009 12:41:34 6.6 C 5.59 g/m*3 6.6 C 0 km/h
1624 06-02-2009 12:53:34 7.1 C 5.62 g/m*3 7.1 C 0 km/h
1625 06-02-2009 13:05:33 7.7 C 5.68 g/m*3 7.7 C 0 km/h
Sensor: Nr:Datum:Temp:Abs-Feuchte:Windchill:Wind:
Aussen-T/F 1626 06-02-2009 13:17:38 7.9 C 5.34 g/m*3 7.9 C 0 km/h
1627 06-02-2009 13:29:34 7.9 C 5.17 g/m*3 7.9 C 0 km/h
1628 06-02-2009 13:41:34 7.9 C 5.17 g/m*3 7.9 C 0 km/h
1629 06-02-2009 13:53:33 8.3 C 5.14 g/m*3 8.3 C 0 km/h
1630 06-02-2009 14:05:33 9.1 C 5.32 g/m*3 9.1 C 0 km/h
1631 06-02-2009 14:17:33 9.2 C 5.09 g/m*3 9.2 C 0 km/h
1632 06-02-2009 14:29:33 9.2 C 5 g/m*3 9.2 C 0 km/h
1633 06-02-2009 14:41:33 9 C 5.03 g/m*3 9 C 0 km/h
1634 06-02-2009 14:53:33 9.1 C 4.97 g/m*3 9.1 C 0 km/h
1635 06-02-2009 15:05:33 9 C 4.94 g/m*3 9 C 0 km/h
1636 06-02-2009 15:17:32 9 C 4.94 g/m*3 9 C 0 km/h
1637 06-02-2009 15:29:32 8.9 C 4.99 g/m*3 8.9 C 0 km/h
1638 06-02-2009 15:41:32 8.7 C 4.93 g/m*3 8.7 C 0 km/h
1639 06-02-2009 15:53:32 8.4 C 4.92 g/m*3 8.4 C 0 km/h
1640 06-02-2009 16:05:33 8.1 C 4.91 g/m*3 8.1 C 0 km/h
1641 06-02-2009 16:17:32 7.9 C 5.01 g/m*3 7.9 C 0 km/h
1642 06-02-2009 16:29:32 7.8 C 4.98 g/m*3 7.8 C 0 km/h
1643 06-02-2009 16:41:32 7.7 C 5.03 g/m*3 7.7 C 0 km/h
1644 06-02-2009 16:53:31 7.6 C 4.99 g/m*3 7.6 C 0 km/h
1645 06-02-2009 17:05:32 7.5 C 5.04 g/m*3 7.5 C 0 km/h
1646 06-02-2009 17:17:31 7.3 C 4.98 g/m*3 7.3 C 0 km/h
1647 06-02-2009 17:29:31 7.1 C 4.99 g/m*3 7.1 C 0 km/h
1648 06-02-2009 17:41:31 7 C 4.96 g/m*3 7 C 0 km/h
1649 06-02-2009 17:53:31 6.9 C 5.08 g/m*3 6.9 C 0 km/h
1650 06-02-2009 18:05:31 6.9 C 5.08 g/m*3 6.9 C 0 km/h
Sensor: Nr:Datum:Temp:Abs-Feuchte:Windchill:Wind:
Aussen-T/F 1651 06-02-2009 18:17:31 6.7 C 5.09 g/m*3 6.7 C 0 km/h
1652 06-02-2009 18:29:31 6.6 C 5.06 g/m*3 6.6 C 0 km/h
1653 06-02-2009 18:41:31 6.4 C 5.07 g/m*3 6.4 C 0 km/h
1654 06-02-2009 18:53:31 6.3 C 5.03 g/m*3 6.3 C 0 km/h
1655 06-02-2009 19:05:30 6.3 C 5.11 g/m*3 6.3 C 0 km/h
1656 06-02-2009 19:17:31 6.2 C 5.15 g/m*3 6.2 C 0 km/h
1657 06-02-2009 19:29:30 6.1 C 5.11 g/m*3 6.1 C 0 km/h
1658 06-02-2009 19:41:30 6.2 C 5.22 g/m*3 6.2 C 0 km/h
1659 06-02-2009 19:53:30 6.2 C 5.22 g/m*3 6.2 C 0 km/h
1660 06-02-2009 20:05:29 6.1 C 5.19 g/m*3 6.1 C 0 km/h
1661 06-02-2009 20:17:30 6 C 5.15 g/m*3 6 C 0 km/h
1662 06-02-2009 20:29:30 5.9 C 5.19 g/m*3 5.9 C 0 km/h
1663 06-02-2009 20:41:30 5.8 C 5.23 g/m*3 5.8 C 0 km/h
1664 06-02-2009 20:53:29 5.9 C 5.26 g/m*3 5.9 C 0 km/h
1665 06-02-2009 21:05:29 5.9 C 5.26 g/m*3 5.9 C 0 km/h
1666 06-02-2009 21:17:29 5.9 C 5.34 g/m*3 5.9 C 0 km/h
1667 06-02-2009 21:29:29 5.9 C 5.26 g/m*3 5.9 C 0 km/h
1668 06-02-2009 21:41:29 5.8 C 5.23 g/m*3 5.8 C 0 km/h
1669 06-02-2009 21:53:29 5.9 C 5.34 g/m*3 5.9 C 0 km/h
1670 06-02-2009 22:05:29 5.6 C 5.23 g/m*3 5.6 C 0 km/h
1671 06-02-2009 22:17:28 5.6 C 5.23 g/m*3 5.6 C 0 km/h
1672 06-02-2009 22:29:29 5.6 C 5.3 g/m*3 5.6 C 0 km/h
1673 06-02-2009 22:41:29 5.4 C 5.23 g/m*3 5.4 C 0 km/h
1674 06-02-2009 22:54:28 5.3 C 5.27 g/m*3 5.3 C 0 km/h
1675 06-02-2009 23:06:28 5 C 5.16 g/m*3 5 C 0 km/h
Sensor: Nr:Datum:Temp:Abs-Feuchte:Windchill:Wind:
Aussen-T/F 1676 06-02-2009 23:18:28 4.9 C 5.2 g/m*3 4.9 C 0 km/h
1677 06-02-2009 23:30:28 4.8 C 5.23 g/m*3 4.8 C 0 km/h
1678 06-02-2009 23:42:28 4.8 C 5.23 g/m*3 4.8 C 0 km/h
1679 06-02-2009 23:54:28 4.8 C 5.3 g/m*3 4.8 C 0 km/h
1680 07-02-2009 00:06:28 4.9 C 5.33 g/m*3 4.9 C 0 km/h
1681 07-02-2009 00:18:28 5 C 5.3 g/m*3 5 C 0 km/h
1682 07-02-2009 00:30:28 5 C 5.23 g/m*3 5 C 0 km/h
1683 07-02-2009 00:42:28 5.1 C 5.27 g/m*3 5.1 C 0 km/h
1684 07-02-2009 00:54:28 5 C 5.23 g/m*3 5 C 0 km/h
1685 07-02-2009 01:06:28 5 C 5.23 g/m*3 5 C 0 km/h
1686 07-02-2009 01:18:28 4.9 C 5.27 g/m*3 4.9 C 0 km/h
1687 07-02-2009 01:30:28 4.8 C 5.16 g/m*3 4.8 C 0 km/h
1688 07-02-2009 01:42:29 4.7 C 5.13 g/m*3 4.7 C 0 km/h
1689 07-02-2009 01:54:29 4.7 C 5.2 g/m*3 4.7 C 0 km/h
1690 07-02-2009 02:06:29 4.8 C 5.23 g/m*3 4.8 C 0 km/h
1691 07-02-2009 02:18:29 4.8 C 5.23 g/m*3 4.8 C 0 km/h
1692 07-02-2009 02:30:29 4.8 C 5.23 g/m*3 4.8 C 0 km/h
1693 07-02-2009 02:42:29 4.7 C 5.2 g/m*3 4.7 C 0 km/h
1694 07-02-2009 02:54:29 4.6 C 5.16 g/m*3 4.6 C 0 km/h
1695 07-02-2009 03:06:29 4.6 C 5.16 g/m*3 4.6 C 0 km/h
1696 07-02-2009 03:18:29 4.5 C 5.19 g/m*3 4.5 C 0 km/h
1697 07-02-2009 03:30:29 4.4 C 5.16 g/m*3 4.4 C 0 km/h
1698 07-02-2009 03:42:29 4.4 C 5.16 g/m*3 4.4 C 0 km/h
1699 07-02-2009 03:54:29 4.3 C 5.12 g/m*3 4.3 C 0 km/h
1700 07-02-2009 04:06:29 4.3 C 5.12 g/m*3 4.3 C 0 km/h
Sensor: Nr:Datum:Temp:Abs-Feuchte:Windchill:Wind:
Aussen-T/F 1701 07-02-2009 04:18:29 4.3 C 5.12 g/m*3 4.3 C 0 km/h
1702 07-02-2009 04:30:29 4.2 C 5.09 g/m*3 4.2 C 0 km/h
1703 07-02-2009 04:42:29 4.1 C 5.06 g/m*3 4.1 C 0 km/h
1704 07-02-2009 04:54:29 4.1 C 5.06 g/m*3 4.1 C 0 km/h
1705 07-02-2009 05:06:29 4.1 C 5.06 g/m*3 4.1 C 0 km/h
1706 07-02-2009 05:18:29 4 C 5.02 g/m*3 4 C 0 km/h
1707 07-02-2009 05:30:29 3.9 C 5.05 g/m*3 3.9 C 0 km/h
1708 07-02-2009 05:42:30 3.9 C 5.05 g/m*3 3.9 C 0 km/h
1709 07-02-2009 05:54:30 3.8 C 5.02 g/m*3 3.8 C 0 km/h
1710 07-02-2009 06:06:30 3.8 C 5.02 g/m*3 3.8 C 0 km/h
1711 07-02-2009 06:18:30 3.7 C 4.99 g/m*3 3.7 C 0 km/h
1712 07-02-2009 06:30:30 3.6 C 4.95 g/m*3 3.6 C 0 km/h
1713 07-02-2009 06:42:30 3.7 C 5.05 g/m*3 3.7 C 0 km/h
1714 07-02-2009 06:54:30 3.6 C 5.01 g/m*3 3.6 C 0 km/h
1715 07-02-2009 07:06:30 3.6 C 5.01 g/m*3 3.6 C 0 km/h
1716 07-02-2009 07:18:28 3.7 C 5.05 g/m*3 3.7 C 0 km/h
1717 07-02-2009 07:30:29 3.7 C 5.05 g/m*3 3.7 C 0 km/h
1718 07-02-2009 07:42:30 3.7 C 5.05 g/m*3 3.7 C 0 km/h
1719 07-02-2009 07:54:28 3.6 C 5.01 g/m*3 3.6 C 0 km/h
1720 07-02-2009 08:06:28 3.6 C 5.01 g/m*3 3.6 C 0 km/h
1721 07-02-2009 08:18:28 3.5 C 5.04 g/m*3 3.5 C 0 km/h
1722 07-02-2009 08:30:28 3.5 C 5.04 g/m*3 3.5 C 0 km/h
1723 07-02-2009 08:42:28 3.5 C 5.1 g/m*3 3.5 C 0 km/h
1724 07-02-2009 08:54:28 3.6 C 5.2 g/m*3 3.6 C 0 km/h
1725 07-02-2009 09:06:28 3.6 C 5.2 g/m*3 3.6 C 0 km/h
Sensor: Nr:Datum:Temp:Abs-Feuchte:Windchill:Wind:
Aussen-T/F 1726 07-02-2009 09:18:27 3.7 C 5.36 g/m*3 3.7 C 0 km/h
1727 07-02-2009 09:30:27 3.8 C 5.46 g/m*3 3.8 C 0 km/h
1728 07-02-2009 09:42:28 3.8 C 5.52 g/m*3 3.8 C 0 km/h
1729 07-02-2009 09:54:27 3.6 C 5.45 g/m*3 3.6 C 0 km/h
1730 07-02-2009 10:06:27 3.8 C 5.58 g/m*3 3.8 C 0 km/h
1731 07-02-2009 10:18:26 4 C 5.66 g/m*3 4 C 0 km/h
1732 07-02-2009 10:30:27 4.2 C 5.73 g/m*3 4.2 C 0 km/h
1733 07-02-2009 10:42:27 4.2 C 5.73 g/m*3 4.2 C 0 km/h
1734 07-02-2009 10:54:26 4.3 C 5.77 g/m*3 4.3 C 0 km/h
1735 07-02-2009 11:06:26 4.2 C 5.73 g/m*3 4.2 C 0 km/h
1736 07-02-2009 11:18:27 4.5 C 5.85 g/m*3 4.5 C 0 km/h
1737 07-02-2009 11:30:26 4.6 C 5.89 g/m*3 4.6 C 0 km/h
1738 07-02-2009 11:42:26 4.6 C 5.89 g/m*3 4.6 C 0 km/h
1739 07-02-2009 11:54:26 4.7 C 5.93 g/m*3 4.7 C 0 km/h
1740 07-02-2009 12:06:26 4.8 C 5.97 g/m*3 4.8 C 0 km/h
1741 07-02-2009 12:18:26 4.8 C 5.97 g/m*3 4.8 C 0 km/h
1742 07-02-2009 12:30:25 4.8 C 5.97 g/m*3 4.8 C 0 km/h
1743 07-02-2009 12:42:25 4.9 C 6.01 g/m*3 4.9 C 0 km/h
1744 07-02-2009 12:54:26 5 C 5.98 g/m*3 5 C 0 km/h
1745 07-02-2009 13:06:25 5 C 5.98 g/m*3 5 C 0 km/h
1746 07-02-2009 13:18:25 5 C 6.05 g/m*3 5 C 0 km/h
1747 07-02-2009 13:30:25 5 C 6.05 g/m*3 5 C 0 km/h
1748 07-02-2009 13:42:25 5 C 6.05 g/m*3 5 C 0 km/h
1749 07-02-2009 13:54:01 5.3 C 6.24 g/m*3 5.3 C 0 km/h
1750 07-02-2009 14:06:01 5.4 C 6.28 g/m*3 5.4 C 0 km/h
Sensor: Nr:Datum:Temp:Abs-Feuchte:Windchill:Wind:
Aussen-T/F 1751 07-02-2009 14:18:01 5.8 C 6.45 g/m*3 5.8 C 0 km/h
1752 07-02-2009 14:30:01 5.7 C 6.4 g/m*3 5.7 C 0 km/h
1753 07-02-2009 14:42:00 5.6 C 6.29 g/m*3 5.6 C 0 km/h
1754 07-02-2009 14:54:01 5.8 C 6.38 g/m*3 5.8 C 0 km/h
1755 07-02-2009 15:06:01 5.7 C 6.26 g/m*3 5.7 C 0 km/h
1756 07-02-2009 15:18:00 5.4 C 6.07 g/m*3 5.4 C 0 km/h
1757 07-02-2009 15:30:00 5.1 C 5.88 g/m*3 5.1 C 0 km/h
1758 07-02-2009 15:42:00 4.6 C 5.76 g/m*3 4.6 C 0 km/h
1759 07-02-2009 15:54:00 4.4 C 5.68 g/m*3 4.4 C 0 km/h
1760 07-02-2009 16:06:00 4.3 C 5.64 g/m*3 4.3 C 0 km/h
1761 07-02-2009 16:18:59 4.2 C 5.61 g/m*3 4.2 C 0 km/h
1762 07-02-2009 16:30:00 4.2 C 5.61 g/m*3 4.2 C 0 km/h
1763 07-02-2009 16:42:00 4.1 C 5.5 g/m*3 4.1 C 0 km/h
1764 07-02-2009 16:54:59 4 C 5.4 g/m*3 4 C 0 km/h
1765 07-02-2009 17:06:59 3.9 C 5.43 g/m*3 3.9 C 0 km/h
1766 07-02-2009 17:18:00 3.7 C 5.36 g/m*3 3.7 C 0 km/h
1767 07-02-2009 17:30:00 3.6 C 5.32 g/m*3 3.6 C 0 km/h
1768 07-02-2009 17:42:59 3.6 C 5.39 g/m*3 3.6 C 0 km/h
1769 07-02-2009 17:54:59 3.4 C 5.25 g/m*3 3.4 C 0 km/h
1770 07-02-2009 18:06:59 3.4 C 5.25 g/m*3 3.4 C 0 km/h
1771 07-02-2009 18:18:59 3.3 C 5.22 g/m*3 3.3 C 0 km/h
1772 07-02-2009 18:30:58 3.2 C 5.18 g/m*3 3.2 C 0 km/h
1773 07-02-2009 18:42:58 3.3 C 5.22 g/m*3 3.3 C 0 km/h
1774 07-02-2009 18:54:59 3.1 C 5.09 g/m*3 3.1 C 0 km/h
1775 07-02-2009 19:06:58 3 C 5.11 g/m*3 3 C 0 km/h
Sensor: Nr:Datum:Temp:Abs-Feuchte:Windchill:Wind:
Aussen-T/F 1776 07-02-2009 19:18:58 3.1 C 5.15 g/m*3 3.1 C 0 km/h
1777 07-02-2009 19:30:58 3 C 5.05 g/m*3 3 C 0 km/h
1778 07-02-2009 19:42:58 3 C 5.05 g/m*3 3 C 0 km/h
1779 07-02-2009 19:54:58 3.1 C 5.03 g/m*3 3.1 C 0 km/h
1780 07-02-2009 20:06:58 3.1 C 4.97 g/m*3 3.1 C 0 km/h
1781 07-02-2009 20:18:57 3.1 C 4.97 g/m*3 3.1 C 0 km/h
1782 07-02-2009 20:30:58 3 C 4.88 g/m*3 3 C 0 km/h
1783 07-02-2009 20:42:58 3 C 4.82 g/m*3 3 C 0 km/h
1784 07-02-2009 20:54:57 3 C 4.76 g/m*3 3 C 0 km/h
1785 07-02-2009 21:06:57 3 C 4.76 g/m*3 3 C 0 km/h
1786 07-02-2009 21:18:56 3 C 4.7 g/m*3 3 C 0 km/h
1787 07-02-2009 21:30:57 3.1 C 4.67 g/m*3 3.1 C 0 km/h
1788 07-02-2009 21:42:57 3.1 C 4.61 g/m*3 3.1 C 0 km/h
1789 07-02-2009 21:54:56 3.1 C 4.61 g/m*3 3.1 C 0 km/h
1790 07-02-2009 22:07:57 3.1 C 4.55 g/m*3 3.1 C 0 km/h
1791 07-02-2009 22:19:57 3.1 C 4.49 g/m*3 3.1 C 0 km/h
1792 07-02-2009 22:31:57 3 C 4.46 g/m*3 3 C 0 km/h
1793 07-02-2009 22:43:58 3 C 4.4 g/m*3 3 C 0 km/h
1794 07-02-2009 22:55:58 2.9 C 4.37 g/m*3 2.9 C 0 km/h
1795 07-02-2009 23:07:58 2.8 C 4.34 g/m*3 2.8 C 0 km/h
1796 07-02-2009 23:19:58 2.7 C 4.31 g/m*3 2.7 C 0 km/h
1797 07-02-2009 23:31:58 2.5 C 4.25 g/m*3 2.5 C 0 km/h
1798 07-02-2009 23:43:58 2.7 C 4.31 g/m*3 2.7 C 0 km/h
1799 07-02-2009 23:55:58 2.5 C 4.14 g/m*3 2.5 C 0 km/h
1800 08-02-2009 00:07:58 2.3 C 4.14 g/m*3 2.3 C 0 km/h
Sensor: Nr:Datum:Temp:Abs-Feuchte:Windchill:Wind:
Aussen-T/F 1801 08-02-2009 00:19:58 2.3 C 4.2 g/m*3 2.3 C 0 km/h
1802 08-02-2009 00:31:58 2 C 4.11 g/m*3 2 C 0 km/h
1803 08-02-2009 00:43:58 1.8 C 4.11 g/m*3 1.8 C 0 km/h
1804 08-02-2009 00:55:58 1.7 C 4.03 g/m*3 1.7 C 0 km/h
1805 08-02-2009 01:07:58 1.7 C 4.03 g/m*3 1.7 C 0 km/h
1806 08-02-2009 01:19:58 1.6 C 4 g/m*3 1.6 C 0 km/h
1807 08-02-2009 01:31:58 1.8 C 4 g/m*3 1.8 C 0 km/h
1808 08-02-2009 01:43:58 1.9 C 3.97 g/m*3 1.9 C 0 km/h
1809 08-02-2009 01:55:58 1.9 C 3.97 g/m*3 1.9 C 0 km/h
1810 08-02-2009 02:07:58 2 C 3.95 g/m*3 2 C 0 km/h
1811 08-02-2009 02:19:58 2 C 3.95 g/m*3 2 C 0 km/h
1812 08-02-2009 02:31:58 1.9 C 3.97 g/m*3 1.9 C 0 km/h
1813 08-02-2009 02:43:58 1.8 C 3.95 g/m*3 1.8 C 0 km/h
1814 08-02-2009 02:55:59 1.8 C 4 g/m*3 1.8 C 0 km/h
1815 08-02-2009 03:07:59 1.8 C 3.89 g/m*3 1.8 C 0 km/h
1816 08-02-2009 03:19:59 1.7 C 3.87 g/m*3 1.7 C 0 km/h
1817 08-02-2009 03:31:59 1.6 C 3.84 g/m*3 1.6 C 0 km/h
1818 08-02-2009 03:43:59 1.7 C 3.87 g/m*3 1.7 C 0 km/h
1819 08-02-2009 03:55:59 1.7 C 3.87 g/m*3 1.7 C 0 km/h
1820 08-02-2009 04:07:59 1.7 C 3.81 g/m*3 1.7 C 0 km/h
1821 08-02-2009 04:19:59 1.7 C 3.81 g/m*3 1.7 C 0 km/h
1822 08-02-2009 04:31:59 1.7 C 3.81 g/m*3 1.7 C 0 km/h
1823 08-02-2009 04:43:59 1.7 C 3.81 g/m*3 1.7 C 0 km/h
1824 08-02-2009 04:55:59 1.7 C 3.81 g/m*3 1.7 C 0 km/h
1825 08-02-2009 05:07:59 1.7 C 3.81 g/m*3 1.7 C 0 km/h
Sensor: Nr:Datum:Temp:Abs-Feuchte:Windchill:Wind:
Aussen-T/F 1826 08-02-2009 05:19:59 1.7 C 3.81 g/m*3 1.7 C 0 km/h
1827 08-02-2009 05:31:59 1.7 C 3.76 g/m*3 1.7 C 0 km/h
1828 08-02-2009 05:43:59 1.6 C 3.73 g/m*3 1.6 C 0 km/h
1829 08-02-2009 05:55:59 1.5 C 3.71 g/m*3 1.5 C 0 km/h
1830 08-02-2009 06:07:59 1.4 C 3.68 g/m*3 1.4 C 0 km/h
1831 08-02-2009 06:19:59 1.4 C 3.73 g/m*3 1.4 C 0 km/h
1832 08-02-2009 06:31:59 1.3 C 3.71 g/m*3 1.3 C 0 km/h
1833 08-02-2009 06:43:59 1.3 C 3.71 g/m*3 1.3 C 0 km/h
1834 08-02-2009 06:56:00 1.3 C 3.6 g/m*3 1.3 C 0 km/h
1835 08-02-2009 07:08:00 1.5 C 3.44 g/m*3 1.5 C 0 km/h
1836 08-02-2009 07:19:57 1.3 C 3.39 g/m*3 1.3 C 0 km/h
1837 08-02-2009 07:31:57 1.3 C 3.39 g/m*3 1.3 C 0 km/h
1838 08-02-2009 07:43:58 1.4 C 3.36 g/m*3 1.4 C 0 km/h
1839 08-02-2009 07:55:56 1.4 C 3.36 g/m*3 1.4 C 0 km/h
1840 08-02-2009 08:07:57 1.5 C 3.38 g/m*3 1.5 C 0 km/h
1841 08-02-2009 08:19:56 1.6 C 3.35 g/m*3 1.6 C 0 km/h
1842 08-02-2009 08:31:56 1.7 C 3.32 g/m*3 1.7 C 0 km/h
1843 08-02-2009 08:43:56 1.7 C 3.43 g/m*3 1.7 C 0 km/h
1844 08-02-2009 08:55:56 1.8 C 3.4 g/m*3 1.8 C 0 km/h
1845 08-02-2009 09:07:56 1.9 C 3.37 g/m*3 1.9 C 0 km/h
1846 08-02-2009 09:19:55 2 C 3.33 g/m*3 2 C 0 km/h
1847 08-02-2009 09:31:55 2.1 C 3.3 g/m*3 2.1 C 0 km/h
1848 08-02-2009 09:43:55 2.1 C 3.3 g/m*3 2.1 C 0 km/h
1849 08-02-2009 09:55:55 2.2 C 3.32 g/m*3 2.2 C 0 km/h
1850 08-02-2009 10:07:55 2.3 C 3.4 g/m*3 2.3 C 0 km/h
Sensor: Nr:Datum:Temp:Abs-Feuchte:Windchill:Wind:
Aussen-T/F 1851 08-02-2009 10:19:55 2.5 C 3.33 g/m*3 2.5 C 0 km/h
1852 08-02-2009 10:31:55 2.7 C 3.32 g/m*3 2.7 C 0 km/h
1853 08-02-2009 10:43:55 2.9 C 3.31 g/m*3 2.9 C 0 km/h
1854 08-02-2009 10:55:55 3.3 C 3.28 g/m*3 3.3 C 0 km/h
1855 08-02-2009 11:07:54 3.4 C 3.24 g/m*3 3.4 C 0 km/h
1856 08-02-2009 11:19:55 3.4 C 3.3 g/m*3 3.4 C 0 km/h
1857 08-02-2009 11:31:54 3.6 C 3.34 g/m*3 3.6 C 0 km/h
1858 08-02-2009 11:43:54 3.8 C 3.32 g/m*3 3.8 C 0 km/h
1859 08-02-2009 11:55:54 4 C 3.24 g/m*3 4 C 0 km/h
1860 08-02-2009 12:07:55 4.1 C 3.2 g/m*3 4.1 C 0 km/h
1861 08-02-2009 12:19:54 4.3 C 3.18 g/m*3 4.3 C 0 km/h
1862 08-02-2009 12:31:53 4.3 C 2.98 g/m*3 4.3 C 0 km/h
1863 08-02-2009 12:43:53 4.4 C 3 g/m*3 4.4 C 0 km/h
1864 08-02-2009 12:55:54 4.4 C 3.07 g/m*3 4.4 C 0 km/h
1865 08-02-2009 13:07:53 4.5 C 3.02 g/m*3 4.5 C 0 km/h
1866 08-02-2009 13:19:53 4.5 C 3.09 g/m*3 4.5 C 0 km/h
1867 08-02-2009 13:31:54 4.6 C 3.18 g/m*3 4.6 C 0 km/h
1868 08-02-2009 13:43:54 4.5 C 3.09 g/m*3 4.5 C 0 km/h
1869 08-02-2009 13:55:53 4.5 C 3.02 g/m*3 4.5 C 0 km/h
1870 08-02-2009 14:07:53 4.8 C 3.08 g/m*3 4.8 C 0 km/h
1871 08-02-2009 14:19:53 5.3 C 3.05 g/m*3 5.3 C 0 km/h
1872 08-02-2009 14:31:53 5.6 C 2.97 g/m*3 5.6 C 0 km/h
1873 08-02-2009 14:43:54 5.7 C 2.78 g/m*3 5.7 C 0 km/h
1874 08-02-2009 14:55:52 5.1 C 2.74 g/m*3 5.1 C 0 km/h
1875 08-02-2009 15:07:52 4.7 C 2.86 g/m*3 4.7 C 0 km/h
Sensor: Nr:Datum:Temp:Abs-Feuchte:Windchill:Wind:
Aussen-T/F 1876 08-02-2009 15:19:52 4.7 C 2.86 g/m*3 4.7 C 0 km/h
1877 08-02-2009 15:31:52 4.7 C 2.86 g/m*3 4.7 C 0 km/h
1878 08-02-2009 15:43:52 4.5 C 2.76 g/m*3 4.5 C 0 km/h
1879 08-02-2009 15:55:51 4.4 C 2.94 g/m*3 4.4 C 0 km/h
1880 08-02-2009 16:07:52 4.1 C 3.01 g/m*3 4.1 C 0 km/h
1881 08-02-2009 16:19:52 4 C 3.05 g/m*3 4 C 0 km/h
1882 08-02-2009 16:31:51 3.8 C 3.07 g/m*3 3.8 C 0 km/h
1883 08-02-2009 16:43:51 3.8 C 3.14 g/m*3 3.8 C 0 km/h
1884 08-02-2009 16:55:52 3.7 C 3.12 g/m*3 3.7 C 0 km/h
1885 08-02-2009 17:07:51 3.6 C 2.85 g/m*3 3.6 C 0 km/h
1886 08-02-2009 17:19:51 3.5 C 2.71 g/m*3 3.5 C 0 km/h
1887 08-02-2009 17:31:51 3.4 C 2.63 g/m*3 3.4 C 0 km/h
1888 08-02-2009 17:43:51 3.4 C 2.63 g/m*3 3.4 C 0 km/h
1889 08-02-2009 17:55:51 3.2 C 2.59 g/m*3 3.2 C 0 km/h
1890 08-02-2009 18:07:51 3.2 C 2.65 g/m*3 3.2 C 0 km/h
1891 08-02-2009 18:19:50 3.1 C 2.57 g/m*3 3.1 C 0 km/h
1892 08-02-2009 18:31:51 3 C 2.56 g/m*3 3 C 0 km/h
1893 08-02-2009 18:43:51 2.9 C 2.6 g/m*3 2.9 C 0 km/h
1894 08-02-2009 18:55:50 2.8 C 2.58 g/m*3 2.8 C 0 km/h
1895 08-02-2009 19:07:50 2.6 C 2.6 g/m*3 2.6 C 0 km/h
1896 08-02-2009 19:19:49 2.3 C 2.61 g/m*3 2.3 C 0 km/h
1897 08-02-2009 19:31:50 2.1 C 2.63 g/m*3 2.1 C 0 km/h
1898 08-02-2009 19:43:50 2.1 C 2.63 g/m*3 2.1 C 0 km/h
1899 08-02-2009 19:55:49 2.1 C 2.74 g/m*3 2.1 C 0 km/h
1900 08-02-2009 20:07:50 2.1 C 2.74 g/m*3 2.1 C 0 km/h
Sensor: Nr:Datum:Temp:Abs-Feuchte:Windchill:Wind:
Aussen-T/F 1901 08-02-2009 20:19:49 2.3 C 2.72 g/m*3 2.3 C 0 km/h
1902 08-02-2009 20:31:49 2.2 C 2.7 g/m*3 2.2 C 0 km/h
1903 08-02-2009 20:43:49 2.2 C 2.76 g/m*3 2.2 C 0 km/h
1904 08-02-2009 20:55:49 2.1 C 2.8 g/m*3 2.1 C 0 km/h
1905 08-02-2009 21:07:49 2.2 C 2.82 g/m*3 2.2 C 0 km/h
1906 08-02-2009 21:19:49 2.2 C 2.82 g/m*3 2.2 C 0 km/h
1907 08-02-2009 21:31:49 2.3 C 2.84 g/m*3 2.3 C 0 km/h
1908 08-02-2009 21:43:49 2.2 C 2.82 g/m*3 2.2 C 0 km/h
1909 08-02-2009 21:55:48 2.1 C 2.85 g/m*3 2.1 C 0 km/h
1910 08-02-2009 22:07:49 2.2 C 2.93 g/m*3 2.2 C 0 km/h
1911 08-02-2009 22:20:49 2.2 C 2.99 g/m*3 2.2 C 0 km/h
1912 08-02-2009 22:32:49 2.3 C 3.01 g/m*3 2.3 C 0 km/h
1913 08-02-2009 22:44:49 2.3 C 3.06 g/m*3 2.3 C 0 km/h
1914 08-02-2009 22:56:49 2.2 C 3.1 g/m*3 2.2 C 0 km/h
1915 08-02-2009 23:08:49 2.2 C 3.1 g/m*3 2.2 C 0 km/h
1916 08-02-2009 23:20:49 2.1 C 3.13 g/m*3 2.1 C 0 km/h
1917 08-02-2009 23:32:50 2.2 C 3.15 g/m*3 2.2 C 0 km/h
1918 08-02-2009 23:44:50 2.3 C 3.18 g/m*3 2.3 C 0 km/h
1919 08-02-2009 23:56:50 2.3 C 3.18 g/m*3 2.3 C 0 km/h
1920 09-02-2009 00:08:50 2.4 C 3.2 g/m*3 2.4 C 0 km/h
1921 09-02-2009 00:20:50 2.4 C 3.2 g/m*3 2.4 C 0 km/h
1922 09-02-2009 00:32:50 2.3 C 3.23 g/m*3 2.3 C 0 km/h
1923 09-02-2009 00:44:50 2.3 C 3.23 g/m*3 2.3 C 0 km/h
1924 09-02-2009 00:56:50 2.3 C 3.23 g/m*3 2.3 C 0 km/h
1925 09-02-2009 01:08:50 2.3 C 3.23 g/m*3 2.3 C 0 km/h
Sensor: Nr:Datum:Temp:Abs-Feuchte:Windchill:Wind:
Aussen-T/F 1926 09-02-2009 01:20:50 2.3 C 3.23 g/m*3 2.3 C 0 km/h
1927 09-02-2009 01:32:50 2.2 C 3.21 g/m*3 2.2 C 0 km/h
1928 09-02-2009 01:44:50 2.2 C 3.27 g/m*3 2.2 C 0 km/h
1929 09-02-2009 01:56:50 2.1 C 3.24 g/m*3 2.1 C 0 km/h
1930 09-02-2009 02:08:50 2.1 C 3.24 g/m*3 2.1 C 0 km/h
1931 09-02-2009 02:20:50 2.2 C 3.27 g/m*3 2.2 C 0 km/h
1932 09-02-2009 02:32:50 2.2 C 3.27 g/m*3 2.2 C 0 km/h
1933 09-02-2009 02:44:50 2.1 C 3.24 g/m*3 2.1 C 0 km/h
1934 09-02-2009 02:56:50 2.1 C 3.24 g/m*3 2.1 C 0 km/h
1935 09-02-2009 03:08:50 1.8 C 3.29 g/m*3 1.8 C 0 km/h
1936 09-02-2009 03:20:50 1.6 C 3.24 g/m*3 1.6 C 0 km/h
1937 09-02-2009 03:32:50 1.7 C 3.32 g/m*3 1.7 C 0 km/h
1938 09-02-2009 03:44:51 1.5 C 3.28 g/m*3 1.5 C 0 km/h
1939 09-02-2009 03:56:51 1.4 C 3.31 g/m*3 1.4 C 0 km/h
1940 09-02-2009 04:08:51 1.3 C 3.34 g/m*3 1.3 C 0 km/h
1941 09-02-2009 04:20:51 1.1 C 3.34 g/m*3 1.1 C 0 km/h
1942 09-02-2009 04:32:51 0.9 C 3.35 g/m*3 0.9 C 0 km/h
1943 09-02-2009 04:44:51 0.4 C 3.29 g/m*3 0.4 C 0 km/h
1944 09-02-2009 04:56:51 0 C 3.25 g/m*3 0 C 0 km/h
1945 09-02-2009 05:08:51 0.1 C 3.42 g/m*3 0.1 C 0 km/h
1946 09-02-2009 05:20:51 0.5 C 3.46 g/m*3 0.5 C 0 km/h
1947 09-02-2009 05:32:51 1.2 C 3.31 g/m*3 1.2 C 0 km/h
1948 09-02-2009 05:44:51 1.4 C 3.2 g/m*3 1.4 C 0 km/h
1949 09-02-2009 05:56:51 1.4 C 3.2 g/m*3 1.4 C 0 km/h
1950 09-02-2009 06:08:51 1.5 C 3.17 g/m*3 1.5 C 0 km/h
Sensor: Nr:Datum:Temp:Abs-Feuchte:Windchill:Wind:
Aussen-T/F 1951 09-02-2009 06:20:51 1.7 C 3.21 g/m*3 1.7 C 0 km/h
1952 09-02-2009 06:32:51 1.8 C 3.12 g/m*3 1.8 C 0 km/h
1953 09-02-2009 06:44:48 1.9 C 3.2 g/m*3 1.9 C 0 km/h
1954 09-02-2009 06:56:48 1.9 C 3.2 g/m*3 1.9 C 0 km/h
1955 09-02-2009 07:08:49 1.8 C 3.23 g/m*3 1.8 C 0 km/h
1956 09-02-2009 07:20:48 1.9 C 3.26 g/m*3 1.9 C 0 km/h
1957 09-02-2009 07:32:48 2 C 3.22 g/m*3 2 C 0 km/h
1958 09-02-2009 07:44:48 1.9 C 3.26 g/m*3 1.9 C 0 km/h
1959 09-02-2009 07:56:48 1.8 C 3.23 g/m*3 1.8 C 0 km/h
1960 09-02-2009 08:08:48 2 C 3.22 g/m*3 2 C 0 km/h
1961 09-02-2009 08:20:48 2.1 C 3.19 g/m*3 2.1 C 0 km/h
1962 09-02-2009 08:32:48 2.2 C 3.21 g/m*3 2.2 C 0 km/h
1963 09-02-2009 08:44:48 2.3 C 3.23 g/m*3 2.3 C 0 km/h
1964 09-02-2009 08:56:48 2.1 C 3.3 g/m*3 2.1 C 0 km/h
1965 09-02-2009 09:08:47 1.8 C 3.45 g/m*3 1.8 C 0 km/h
1966 09-02-2009 09:20:48 1.9 C 3.59 g/m*3 1.9 C 0 km/h
1967 09-02-2009 09:32:47 2 C 3.56 g/m*3 2 C 0 km/h
1968 09-02-2009 09:44:47 2.1 C 3.47 g/m*3 2.1 C 0 km/h
1969 09-02-2009 09:56:47 2.2 C 3.49 g/m*3 2.2 C 0 km/h
1970 09-02-2009 10:08:46 2.4 C 3.48 g/m*3 2.4 C 0 km/h
1971 09-02-2009 10:20:47 2.5 C 3.51 g/m*3 2.5 C 0 km/h
1972 09-02-2009 10:32:47 2.6 C 3.53 g/m*3 2.6 C 0 km/h
1973 09-02-2009 10:44:46 2.7 C 3.5 g/m*3 2.7 C 0 km/h
1974 09-02-2009 10:56:46 2.9 C 3.48 g/m*3 2.9 C 0 km/h
1975 09-02-2009 11:08:47 3 C 3.45 g/m*3 3 C 0 km/h
Sensor: Nr:Datum:Temp:Abs-Feuchte:Windchill:Wind:
Aussen-T/F 1976 09-02-2009 11:20:46 3.1 C 3.47 g/m*3 3.1 C 0 km/h
1977 09-02-2009 11:32:46 3.2 C 3.5 g/m*3 3.2 C 0 km/h
1978 09-02-2009 11:44:46 3.2 C 3.56 g/m*3 3.2 C 0 km/h
1979 09-02-2009 11:56:46 3.2 C 3.56 g/m*3 3.2 C 0 km/h
1980 09-02-2009 12:08:46 3.4 C 3.6 g/m*3 3.4 C 0 km/h
1981 09-02-2009 12:20:46 3.4 C 3.66 g/m*3 3.4 C 0 km/h
1982 09-02-2009 12:32:45 3.5 C 3.75 g/m*3 3.5 C 0 km/h
1983 09-02-2009 12:44:46 3.5 C 3.75 g/m*3 3.5 C 0 km/h
1984 09-02-2009 12:56:46 3.8 C 3.83 g/m*3 3.8 C 0 km/h
1985 09-02-2009 13:08:45 3.8 C 3.83 g/m*3 3.8 C 0 km/h
1986 09-02-2009 13:20:45 4.1 C 3.71 g/m*3 4.1 C 0 km/h
1987 09-02-2009 13:32:45 4.3 C 3.76 g/m*3 4.3 C 0 km/h
1988 09-02-2009 13:44:45 4.2 C 3.67 g/m*3 4.2 C 0 km/h
1989 09-02-2009 13:56:45 4 C 3.75 g/m*3 4 C 0 km/h
1990 09-02-2009 14:08:44 4 C 3.75 g/m*3 4 C 0 km/h
1991 09-02-2009 14:20:45 4.5 C 3.81 g/m*3 4.5 C 0 km/h
1992 09-02-2009 14:32:45 4.4 C 3.72 g/m*3 4.4 C 0 km/h
1993 09-02-2009 14:44:45 4.4 C 3.79 g/m*3 4.4 C 0 km/h
1994 09-02-2009 14:56:45 4.2 C 3.8 g/m*3 4.2 C 0 km/h
1995 09-02-2009 15:08:45 4 C 3.75 g/m*3 4 C 0 km/h
1996 09-02-2009 15:20:44 4 C 3.81 g/m*3 4 C 0 km/h
1997 09-02-2009 15:32:44 4 C 3.81 g/m*3 4 C 0 km/h
1998 09-02-2009 15:44:43 3.9 C 3.92 g/m*3 3.9 C 0 km/h
1999 09-02-2009 15:56:43 3.9 C 3.92 g/m*3 3.9 C 0 km/h
2000 09-02-2009 16:08:43 3.8 C 3.89 g/m*3 3.8 C 0 km/h
Sensor: Nr:Datum:Temp:Abs-Feuchte:Windchill:Wind:
Aussen-T/F 2001 09-02-2009 16:20:44 3.8 C 3.89 g/m*3 3.8 C 0 km/h
2002 09-02-2009 16:32:43 3.7 C 3.93 g/m*3 3.7 C 0 km/h
2003 09-02-2009 16:44:43 3.6 C 3.9 g/m*3 3.6 C 0 km/h
2004 09-02-2009 16:56:43 3.6 C 3.9 g/m*3 3.6 C 0 km/h
2005 09-02-2009 17:08:43 3.5 C 3.87 g/m*3 3.5 C 0 km/h
2006 09-02-2009 17:20:43 3.4 C 3.91 g/m*3 3.4 C 0 km/h
2007 09-02-2009 17:32:43 3.3 C 3.94 g/m*3 3.3 C 0 km/h
2008 09-02-2009 17:44:43 3.3 C 3.94 g/m*3 3.3 C 0 km/h
2009 09-02-2009 17:56:43 3.1 C 3.95 g/m*3 3.1 C 0 km/h
2010 09-02-2009 18:08:43 3 C 3.98 g/m*3 3 C 0 km/h
2011 09-02-2009 18:20:42 2.8 C 4.11 g/m*3 2.8 C 0 km/h
2012 09-02-2009 18:32:42 2.6 C 4.22 g/m*3 2.6 C 0 km/h
2013 09-02-2009 18:44:42 2.4 C 4.34 g/m*3 2.4 C 0 km/h
2014 09-02-2009 18:56:42 2.2 C 4.39 g/m*3 2.2 C 0 km/h
2015 09-02-2009 19:08:42 2.1 C 4.48 g/m*3 2.1 C 0 km/h
2016 09-02-2009 19:20:41 2 C 4.56 g/m*3 2 C 0 km/h
2017 09-02-2009 19:32:42 2 C 4.61 g/m*3 2 C 0 km/h
2018 09-02-2009 19:44:42 2 C 4.67 g/m*3 2 C 0 km/h
2019 09-02-2009 19:56:42 1.8 C 4.66 g/m*3 1.8 C 0 km/h
2020 09-02-2009 20:08:41 1.8 C 4.71 g/m*3 1.8 C 0 km/h
2021 09-02-2009 20:20:41 1.7 C 4.68 g/m*3 1.7 C 0 km/h
2022 09-02-2009 20:32:41 1.7 C 4.74 g/m*3 1.7 C 0 km/h
2023 09-02-2009 20:44:41 1.7 C 4.74 g/m*3 1.7 C 0 km/h
2024 09-02-2009 20:56:41 1.6 C 4.7 g/m*3 1.6 C 0 km/h
2025 09-02-2009 21:08:40 1.3 C 4.61 g/m*3 1.3 C 0 km/h
Sensor: Nr:Datum:Temp:Abs-Feuchte:Windchill:Wind:
Aussen-T/F 2026 09-02-2009 21:20:41 1.4 C 4.69 g/m*3 1.4 C 0 km/h
2027 09-02-2009 21:33:40 1.4 C 4.75 g/m*3 1.4 C 0 km/h
2028 09-02-2009 21:45:40 1.3 C 4.72 g/m*3 1.3 C 0 km/h
2029 09-02-2009 21:57:40 1.1 C 4.65 g/m*3 1.1 C 0 km/h
2030 09-02-2009 22:09:40 1 C 4.62 g/m*3 1 C 0 km/h
2031 09-02-2009 22:21:40 1.3 C 4.77 g/m*3 1.3 C 0 km/h
2032 09-02-2009 22:33:40 1.4 C 4.8 g/m*3 1.4 C 0 km/h
2033 09-02-2009 22:45:40 1.5 C 4.89 g/m*3 1.5 C 0 km/h
2034 09-02-2009 22:57:40 1.7 C 4.95 g/m*3 1.7 C 0 km/h
2035 09-02-2009 23:09:40 1.7 C 4.95 g/m*3 1.7 C 0 km/h
2036 09-02-2009 23:21:40 1.7 C 4.95 g/m*3 1.7 C 0 km/h
2037 09-02-2009 23:33:40 1.7 C 4.95 g/m*3 1.7 C 0 km/h
2038 09-02-2009 23:45:40 1.7 C 4.95 g/m*3 1.7 C 0 km/h
2039 09-02-2009 23:57:40 1.8 C 5.04 g/m*3 1.8 C 0 km/h
2040 10-02-2009 00:09:40 1.8 C 5.04 g/m*3 1.8 C 0 km/h
2041 10-02-2009 00:21:41 1.9 C 5.08 g/m*3 1.9 C 0 km/h
2042 10-02-2009 00:33:41 1.9 C 5.13 g/m*3 1.9 C 0 km/h
2043 10-02-2009 00:45:41 2 C 5.11 g/m*3 2 C 0 km/h
2044 10-02-2009 00:57:41 2 C 5.17 g/m*3 2 C 0 km/h
2045 10-02-2009 01:09:41 2.1 C 5.2 g/m*3 2.1 C 0 km/h
2046 10-02-2009 01:21:41 2.2 C 5.24 g/m*3 2.2 C 0 km/h
2047 10-02-2009 01:33:41 2.3 C 5.27 g/m*3 2.3 C 0 km/h
2048 10-02-2009 01:45:41 2.4 C 5.37 g/m*3 2.4 C 0 km/h
2049 10-02-2009 01:57:41 2.5 C 5.4 g/m*3 2.5 C 0 km/h
2050 10-02-2009 02:09:41 2.6 C 5.44 g/m*3 2.6 C 0 km/h
Sensor: Nr:Datum:Temp:Abs-Feuchte:Windchill:Wind:
Aussen-T/F 2051 10-02-2009 02:21:41 2.8 C 5.51 g/m*3 2.8 C 0 km/h
2052 10-02-2009 02:33:41 3 C 5.59 g/m*3 3 C 0 km/h
2053 10-02-2009 02:45:41 3.3 C 5.7 g/m*3 3.3 C 0 km/h
2054 10-02-2009 02:57:41 3.4 C 5.8 g/m*3 3.4 C 0 km/h
2055 10-02-2009 03:09:41 3.6 C 5.88 g/m*3 3.6 C 0 km/h
2056 10-02-2009 03:21:41 3.8 C 5.96 g/m*3 3.8 C 0 km/h
2057 10-02-2009 03:33:41 3.9 C 6 g/m*3 3.9 C 0 km/h
2058 10-02-2009 03:45:41 4.1 C 6.08 g/m*3 4.1 C 0 km/h
2059 10-02-2009 03:57:41 4.3 C 6.16 g/m*3 4.3 C 0 km/h
2060 10-02-2009 04:09:41 4.5 C 6.24 g/m*3 4.5 C 0 km/h
2061 10-02-2009 04:21:42 4.8 C 6.37 g/m*3 4.8 C 0 km/h
2062 10-02-2009 04:33:42 5.1 C 6.5 g/m*3 5.1 C 0 km/h
2063 10-02-2009 04:45:42 5.1 C 6.5 g/m*3 5.1 C 0 km/h
2064 10-02-2009 04:57:42 5.2 C 6.54 g/m*3 5.2 C 0 km/h
2065 10-02-2009 05:09:42 5.3 C 6.58 g/m*3 5.3 C 0 km/h
2066 10-02-2009 05:21:42 5.7 C 6.76 g/m*3 5.7 C 0 km/h
2067 10-02-2009 05:33:40 5.7 C 6.76 g/m*3 5.7 C 0 km/h
2068 10-02-2009 05:45:40 5.9 C 6.85 g/m*3 5.9 C 0 km/h
2069 10-02-2009 05:57:40 6.2 C 6.99 g/m*3 6.2 C 0 km/h
2070 10-02-2009 06:09:41 6.4 C 7.08 g/m*3 6.4 C 0 km/h
2071 10-02-2009 06:21:40 6.4 C 7.08 g/m*3 6.4 C 0 km/h
2072 10-02-2009 06:33:40 6.4 C 7 g/m*3 6.4 C 0 km/h
2073 10-02-2009 06:45:39 6.4 C 7 g/m*3 6.4 C 0 km/h
2074 10-02-2009 06:57:39 6.5 C 7.05 g/m*3 6.5 C 0 km/h
2075 10-02-2009 07:09:40 6.5 C 6.97 g/m*3 6.5 C 0 km/h
Sensor: Nr:Datum:Temp:Abs-Feuchte:Windchill:Wind:
Aussen-T/F 2076 10-02-2009 07:21:40 6.4 C 6.93 g/m*3 6.4 C 0 km/h
2077 10-02-2009 07:33:39 6.3 C 6.88 g/m*3 6.3 C 0 km/h
2078 10-02-2009 07:45:39 6.5 C 6.9 g/m*3 6.5 C 0 km/h
2079 10-02-2009 07:57:39 6.5 C 6.9 g/m*3 6.5 C 0 km/h
2080 10-02-2009 08:09:39 6.5 C 6.75 g/m*3 6.5 C 0 km/h
2081 10-02-2009 08:21:39 6.4 C 6.71 g/m*3 6.4 C 0 km/h
2082 10-02-2009 08:33:38 6.4 C 6.71 g/m*3 6.4 C 0 km/h
2083 10-02-2009 08:45:39 6.4 C 6.71 g/m*3 6.4 C 0 km/h
2084 10-02-2009 08:57:39 6.6 C 6.72 g/m*3 6.6 C 0 km/h
2085 10-02-2009 09:09:39 6.6 C 6.64 g/m*3 6.6 C 0 km/h
2086 10-02-2009 09:21:38 6.6 C 6.49 g/m*3 6.6 C 0 km/h
2087 10-02-2009 09:33:38 6.6 C 6.49 g/m*3 6.6 C 0 km/h
2088 10-02-2009 09:45:38 6.8 C 6.58 g/m*3 6.8 C 0 km/h
2089 10-02-2009 09:57:38 6.8 C 6.58 g/m*3 6.8 C 0 km/h
2090 10-02-2009 10:09:38 6.9 C 6.62 g/m*3 6.9 C 0 km/h
2091 10-02-2009 10:21:37 7.1 C 6.55 g/m*3 7.1 C 0 km/h
2092 10-02-2009 10:33:38 7.5 C 6.4 g/m*3 7.5 C 0 km/h
2093 10-02-2009 10:45:37 7.6 C 5.96 g/m*3 7.6 C 0 km/h
2094 10-02-2009 10:57:37 7.2 C 5.34 g/m*3 7.2 C 0 km/h
2095 10-02-2009 11:09:37 6.7 C 5.24 g/m*3 6.7 C 0 km/h
2096 10-02-2009 11:21:38 6.1 C 4.89 g/m*3 6.1 C 0 km/h
2097 10-02-2009 11:33:37 5.7 C 4.91 g/m*3 5.7 C 0 km/h
2098 10-02-2009 11:45:37 6 C 4.57 g/m*3 6 C 0 km/h
2099 10-02-2009 11:57:37 6.1 C 4.6 g/m*3 6.1 C 0 km/h
2100 10-02-2009 12:09:37 6.4 C 4.55 g/m*3 6.4 C 0 km/h
Sensor: Nr:Datum:Temp:Abs-Feuchte:Windchill:Wind:
Aussen-T/F 2101 10-02-2009 12:21:37 6.3 C 4.37 g/m*3 6.3 C 0 km/h
2102 10-02-2009 12:33:36 5.8 C 4.3 g/m*3 5.8 C 0 km/h
2103 10-02-2009 12:45:37 5.2 C 4.2 g/m*3 5.2 C 0 km/h
2104 10-02-2009 12:57:37 5 C 4.21 g/m*3 5 C 0 km/h
2105 10-02-2009 13:09:36 4.7 C 4.26 g/m*3 4.7 C 0 km/h
2106 10-02-2009 13:21:36 4.4 C 4.44 g/m*3 4.4 C 0 km/h
2107 10-02-2009 13:33:36 4.4 C 4.37 g/m*3 4.4 C 0 km/h
2108 10-02-2009 13:45:36 4.4 C 4.37 g/m*3 4.4 C 0 km/h
2109 10-02-2009 13:57:36 4.3 C 4.28 g/m*3 4.3 C 0 km/h
2110 10-02-2009 14:09:36 4.4 C 4.31 g/m*3 4.4 C 0 km/h
2111 10-02-2009 14:21:35 4.4 C 4.31 g/m*3 4.4 C 0 km/h
2112 10-02-2009 14:33:36 4.4 C 4.24 g/m*3 4.4 C 0 km/h
2113 10-02-2009 14:45:35 4.4 C 4.18 g/m*3 4.4 C 0 km/h
2114 10-02-2009 14:57:35 4.3 C 4.15 g/m*3 4.3 C 0 km/h
2115 10-02-2009 15:09:35 4.3 C 4.15 g/m*3 4.3 C 0 km/h
2116 10-02-2009 15:21:35 4.2 C 4.12 g/m*3 4.2 C 0 km/h
2117 10-02-2009 15:33:35 4.1 C 3.9 g/m*3 4.1 C 0 km/h
2118 10-02-2009 15:45:34 3.7 C 3.86 g/m*3 3.7 C 0 km/h
2119 10-02-2009 15:57:34 3.7 C 3.93 g/m*3 3.7 C 0 km/h
2120 10-02-2009 16:09:34 3.3 C 4 g/m*3 3.3 C 0 km/h
2121 10-02-2009 16:21:35 2.7 C 4.25 g/m*3 2.7 C 0 km/h
2122 10-02-2009 16:33:34 2.1 C 4.42 g/m*3 2.1 C 0 km/h
2123 10-02-2009 16:45:34 1.9 C 4.58 g/m*3 1.9 C 0 km/h
2124 10-02-2009 16:57:34 1.9 C 4.64 g/m*3 1.9 C 0 km/h
2125 10-02-2009 17:09:34 1.9 C 4.64 g/m*3 1.9 C 0 km/h
Sensor: Nr:Datum:Temp:Abs-Feuchte:Windchill:Wind:
Aussen-T/F 2126 10-02-2009 17:21:34 2 C 4.61 g/m*3 2 C 0 km/h
2127 10-02-2009 17:33:33 2 C 4.56 g/m*3 2 C 0 km/h
2128 10-02-2009 17:45:34 2.1 C 4.64 g/m*3 2.1 C 0 km/h
2129 10-02-2009 17:57:34 2.1 C 4.7 g/m*3 2.1 C 0 km/h
2130 10-02-2009 18:09:33 2.2 C 4.68 g/m*3 2.2 C 0 km/h
2131 10-02-2009 18:21:33 2.3 C 4.65 g/m*3 2.3 C 0 km/h
2132 10-02-2009 18:33:33 2.5 C 4.54 g/m*3 2.5 C 0 km/h
2133 10-02-2009 18:45:33 2.5 C 4.54 g/m*3 2.5 C 0 km/h
2134 10-02-2009 18:57:33 2.6 C 4.51 g/m*3 2.6 C 0 km/h
2135 10-02-2009 19:09:33 2.5 C 4.48 g/m*3 2.5 C 0 km/h
2136 10-02-2009 19:21:32 2.6 C 4.46 g/m*3 2.6 C 0 km/h
2137 10-02-2009 19:33:33 2.6 C 4.46 g/m*3 2.6 C 0 km/h
2138 10-02-2009 19:45:32 2.5 C 4.43 g/m*3 2.5 C 0 km/h
2139 10-02-2009 19:57:32 2.4 C 4.51 g/m*3 2.4 C 0 km/h
2140 10-02-2009 20:09:32 2.6 C 4.46 g/m*3 2.6 C 0 km/h
2141 10-02-2009 20:21:32 2.9 C 4.31 g/m*3 2.9 C 0 km/h
2142 10-02-2009 20:33:32 2.9 C 4.13 g/m*3 2.9 C 0 km/h
2143 10-02-2009 20:45:32 3 C 3.98 g/m*3 3 C 0 km/h
2144 10-02-2009 20:57:32 3 C 3.92 g/m*3 3 C 0 km/h
2145 10-02-2009 21:09:31 3.1 C 3.95 g/m*3 3.1 C 0 km/h
2146 10-02-2009 21:22:32 3 C 3.92 g/m*3 3 C 0 km/h
2147 10-02-2009 21:34:32 3.1 C 3.89 g/m*3 3.1 C 0 km/h
2148 10-02-2009 21:46:32 2.7 C 4.02 g/m*3 2.7 C 0 km/h
2149 10-02-2009 21:58:32 2.1 C 4.25 g/m*3 2.1 C 0 km/h
2150 10-02-2009 22:10:32 2 C 4.45 g/m*3 2 C 0 km/h
Sensor: Nr:Datum:Temp:Abs-Feuchte:Windchill:Wind:
Aussen-T/F 2151 10-02-2009 22:22:32 2.1 C 4.42 g/m*3 2.1 C 0 km/h
2152 10-02-2009 22:34:32 2.1 C 4.36 g/m*3 2.1 C 0 km/h
2153 10-02-2009 22:46:32 2.3 C 4.31 g/m*3 2.3 C 0 km/h
2154 10-02-2009 22:58:32 2.4 C 4.23 g/m*3 2.4 C 0 km/h
2155 10-02-2009 23:10:32 2.5 C 4.08 g/m*3 2.5 C 0 km/h
2156 10-02-2009 23:22:32 2.6 C 4.11 g/m*3 2.6 C 0 km/h
2157 10-02-2009 23:34:32 2.8 C 4.05 g/m*3 2.8 C 0 km/h
2158 10-02-2009 23:46:32 2.8 C 3.99 g/m*3 2.8 C 0 km/h
2159 10-02-2009 23:58:32 2.8 C 3.93 g/m*3 2.8 C 0 km/h
2160 11-02-2009 00:10:32 2.9 C 3.9 g/m*3 2.9 C 0 km/h
2161 11-02-2009 00:22:32 2.8 C 3.81 g/m*3 2.8 C 0 km/h
2162 11-02-2009 00:34:32 2.8 C 3.81 g/m*3 2.8 C 0 km/h
2163 11-02-2009 00:46:32 2.8 C 3.81 g/m*3 2.8 C 0 km/h
2164 11-02-2009 00:58:32 2.7 C 3.73 g/m*3 2.7 C 0 km/h
2165 11-02-2009 01:10:33 2.7 C 3.67 g/m*3 2.7 C 0 km/h
2166 11-02-2009 01:22:33 2.6 C 3.7 g/m*3 2.6 C 0 km/h
2167 11-02-2009 01:34:33 2.5 C 3.62 g/m*3 2.5 C 0 km/h
2168 11-02-2009 01:46:33 2.4 C 3.54 g/m*3 2.4 C 0 km/h
2169 11-02-2009 01:58:33 2.5 C 3.62 g/m*3 2.5 C 0 km/h
2170 11-02-2009 02:10:33 2.5 C 3.68 g/m*3 2.5 C 0 km/h
2171 11-02-2009 02:22:33 2.5 C 3.79 g/m*3 2.5 C 0 km/h
2172 11-02-2009 02:34:33 2.6 C 3.82 g/m*3 2.6 C 0 km/h
2173 11-02-2009 02:46:33 2.5 C 3.74 g/m*3 2.5 C 0 km/h
2174 11-02-2009 02:58:33 2.3 C 3.69 g/m*3 2.3 C 0 km/h
2175 11-02-2009 03:10:33 2.3 C 3.74 g/m*3 2.3 C 0 km/h
Sensor: Nr:Datum:Temp:Abs-Feuchte:Windchill:Wind:
Aussen-T/F 2176 11-02-2009 03:22:33 2.2 C 3.72 g/m*3 2.2 C 0 km/h
2177 11-02-2009 03:34:33 2.3 C 3.86 g/m*3 2.3 C 0 km/h
2178 11-02-2009 03:46:33 2.4 C 3.83 g/m*3 2.4 C 0 km/h
2179 11-02-2009 03:58:33 2.5 C 3.85 g/m*3 2.5 C 0 km/h
2180 11-02-2009 04:10:33 2.4 C 3.88 g/m*3 2.4 C 0 km/h
2181 11-02-2009 04:22:33 2.3 C 3.91 g/m*3 2.3 C 0 km/h
2182 11-02-2009 04:34:33 2.2 C 4 g/m*3 2.2 C 0 km/h
2183 11-02-2009 04:46:33 2.2 C 4.06 g/m*3 2.2 C 0 km/h
2184 11-02-2009 04:58:34 2.2 C 4.06 g/m*3 2.2 C 0 km/h
2185 11-02-2009 05:10:34 2.2 C 4 g/m*3 2.2 C 0 km/h
2186 11-02-2009 05:22:34 2.2 C 3.94 g/m*3 2.2 C 0 km/h
2187 11-02-2009 05:34:34 2.1 C 3.92 g/m*3 2.1 C 0 km/h
2188 11-02-2009 05:46:34 2.2 C 3.89 g/m*3 2.2 C 0 km/h
2189 11-02-2009 05:58:34 2.1 C 3.86 g/m*3 2.1 C 0 km/h
2190 11-02-2009 06:10:34 2.1 C 3.86 g/m*3 2.1 C 0 km/h
2191 11-02-2009 06:22:34 2.2 C 3.77 g/m*3 2.2 C 0 km/h
2192 11-02-2009 06:34:34 2.2 C 3.72 g/m*3 2.2 C 0 km/h
2193 11-02-2009 06:46:34 2.1 C 3.75 g/m*3 2.1 C 0 km/h
2194 11-02-2009 06:58:34 2.1 C 3.75 g/m*3 2.1 C 0 km/h
2195 11-02-2009 07:10:32 2 C 3.72 g/m*3 2 C 0 km/h
2196 11-02-2009 07:22:32 2.1 C 3.69 g/m*3 2.1 C 0 km/h
2197 11-02-2009 07:34:32 2.1 C 3.64 g/m*3 2.1 C 0 km/h
2198 11-02-2009 07:46:32 2 C 3.61 g/m*3 2 C 0 km/h
2199 11-02-2009 07:58:32 2 C 3.61 g/m*3 2 C 0 km/h
2200 11-02-2009 08:10:31 2 C 3.56 g/m*3 2 C 0 km/h
Sensor: Nr:Datum:Temp:Abs-Feuchte:Windchill:Wind:
Aussen-T/F 2201 11-02-2009 08:22:32 2.1 C 3.64 g/m*3 2.1 C 0 km/h
2202 11-02-2009 08:34:31 2 C 3.56 g/m*3 2 C 0 km/h
2203 11-02-2009 08:46:31 1.7 C 3.59 g/m*3 1.7 C 0 km/h
2204 11-02-2009 08:58:31 1.7 C 3.59 g/m*3 1.7 C 0 km/h
2205 11-02-2009 09:10:31 1.9 C 3.7 g/m*3 1.9 C 0 km/h
2206 11-02-2009 09:22:31 1.8 C 3.62 g/m*3 1.8 C 0 km/h
2207 11-02-2009 09:34:31 1.8 C 3.62 g/m*3 1.8 C 0 km/h
2208 11-02-2009 09:46:31 1.7 C 3.65 g/m*3 1.7 C 0 km/h
2209 11-02-2009 09:58:31 2.4 C 3.71 g/m*3 2.4 C 0 km/h
2210 11-02-2009 10:10:31 2.9 C 3.66 g/m*3 2.9 C 0 km/h
2211 11-02-2009 10:22:30 3 C 3.51 g/m*3 3 C 0 km/h
2212 11-02-2009 10:34:30 3.2 C 3.43 g/m*3 3.2 C 0 km/h
2213 11-02-2009 10:46:30 3.2 C 3.37 g/m*3 3.2 C 0 km/h
2214 11-02-2009 10:58:30 3.7 C 3.43 g/m*3 3.7 C 0 km/h
2215 11-02-2009 11:10:30 3.8 C 3.32 g/m*3 3.8 C 0 km/h
2216 11-02-2009 11:22:29 3.8 C 3.26 g/m*3 3.8 C 0 km/h
2217 11-02-2009 11:34:30 4 C 3.05 g/m*3 4 C 0 km/h
2218 11-02-2009 11:46:29 4.5 C 3.02 g/m*3 4.5 C 0 km/h
2219 11-02-2009 11:58:29 4.6 C 2.85 g/m*3 4.6 C 0 km/h
2220 11-02-2009 12:10:29 4.6 C 2.85 g/m*3 4.6 C 0 km/h
2221 11-02-2009 12:22:29 4.5 C 2.76 g/m*3 4.5 C 0 km/h
2222 11-02-2009 12:34:29 3.6 C 3.16 g/m*3 3.6 C 0 km/h
2223 11-02-2009 12:46:29 3.7 C 3.49 g/m*3 3.7 C 0 km/h
2224 11-02-2009 12:58:29 3.4 C 3.42 g/m*3 3.4 C 0 km/h
2225 11-02-2009 13:10:28 3.3 C 3.64 g/m*3 3.3 C 0 km/h
Sensor: Nr:Datum:Temp:Abs-Feuchte:Windchill:Wind:
Aussen-T/F 2226 11-02-2009 13:22:29 3.6 C 3.96 g/m*3 3.6 C 0 km/h
2227 11-02-2009 13:34:28 3.7 C 3.93 g/m*3 3.7 C 0 km/h
2228 11-02-2009 13:46:28 3.7 C 3.68 g/m*3 3.7 C 0 km/h
2229 11-02-2009 13:58:28 4.4 C 3.66 g/m*3 4.4 C 0 km/h
2230 11-02-2009 14:10:28 5.2 C 3.03 g/m*3 5.2 C 0 km/h
2231 11-02-2009 14:22:28 6.5 C 2.7 g/m*3 6.5 C 0 km/h
2232 11-02-2009 14:34:28 6.2 C 2.57 g/m*3 6.2 C 0 km/h
2233 11-02-2009 14:46:28 5.9 C 2.31 g/m*3 5.9 C 0 km/h
2234 11-02-2009 14:58:28 5.6 C 2.12 g/m*3 5.6 C 0 km/h
2235 11-02-2009 15:10:28 5.6 C 2.26 g/m*3 5.6 C 0 km/h
2236 11-02-2009 15:22:27 5.3 C 2.15 g/m*3 5.3 C 0 km/h
2237 11-02-2009 15:34:27 5 C 2.45 g/m*3 5 C 0 km/h
2238 11-02-2009 15:46:27 4.7 C 2.73 g/m*3 4.7 C 0 km/h
2239 11-02-2009 15:58:27 4.6 C 2.71 g/m*3 4.6 C 0 km/h
2240 11-02-2009 16:10:27 4.6 C 2.71 g/m*3 4.6 C 0 km/h
2241 11-02-2009 16:22:26 4.3 C 2.72 g/m*3 4.3 C 0 km/h
2242 11-02-2009 16:34:27 4.2 C 2.77 g/m*3 4.2 C 0 km/h
2243 11-02-2009 16:46:26 4 C 2.86 g/m*3 4 C 0 km/h
2244 11-02-2009 16:58:26 3.8 C 3.01 g/m*3 3.8 C 0 km/h
2245 11-02-2009 17:10:26 3.7 C 3.12 g/m*3 3.7 C 0 km/h
2246 11-02-2009 17:22:27 3.6 C 3.1 g/m*3 3.6 C 0 km/h
2247 11-02-2009 17:34:26 3.5 C 3.2 g/m*3 3.5 C 0 km/h
2248 11-02-2009 17:46:26 3.4 C 3.18 g/m*3 3.4 C 0 km/h
2249 11-02-2009 17:58:26 3.4 C 3.24 g/m*3 3.4 C 0 km/h
2250 11-02-2009 18:10:26 3.4 C 3.36 g/m*3 3.4 C 0 km/h
Sensor: Nr:Datum:Temp:Abs-Feuchte:Windchill:Wind:
Aussen-T/F 2251 11-02-2009 18:22:26 3.2 C 3.37 g/m*3 3.2 C 0 km/h
2252 11-02-2009 18:34:25 3.1 C 3.47 g/m*3 3.1 C 0 km/h
2253 11-02-2009 18:46:26 3.1 C 3.47 g/m*3 3.1 C 0 km/h
2254 11-02-2009 18:58:26 3 C 3.45 g/m*3 3 C 0 km/h
2255 11-02-2009 19:10:25 2.9 C 3.54 g/m*3 2.9 C 0 km/h
2256 11-02-2009 19:22:25 2.9 C 3.54 g/m*3 2.9 C 0 km/h
2257 11-02-2009 19:34:25 3 C 3.45 g/m*3 3 C 0 km/h
2258 11-02-2009 19:46:25 3 C 3.45 g/m*3 3 C 0 km/h
2259 11-02-2009 19:58:25 3 C 3.45 g/m*3 3 C 0 km/h
2260 11-02-2009 20:10:25 2.9 C 3.48 g/m*3 2.9 C 0 km/h
2261 11-02-2009 20:22:24 2.9 C 3.54 g/m*3 2.9 C 0 km/h
2262 11-02-2009 20:34:25 2.8 C 3.52 g/m*3 2.8 C 0 km/h
2263 11-02-2009 20:46:24 2.8 C 3.58 g/m*3 2.8 C 0 km/h
2264 11-02-2009 20:58:24 2.6 C 3.65 g/m*3 2.6 C 0 km/h
2265 11-02-2009 21:10:24 2.4 C 3.88 g/m*3 2.4 C 0 km/h
2266 11-02-2009 21:23:26 2.2 C 3.94 g/m*3 2.2 C 0 km/h
2267 11-02-2009 21:35:26 2.1 C 3.97 g/m*3 2.1 C 0 km/h
2268 11-02-2009 21:47:26 1.8 C 4.11 g/m*3 1.8 C 0 km/h
2269 11-02-2009 21:59:26 1.6 C 4.27 g/m*3 1.6 C 0 km/h
2270 11-02-2009 22:11:26 1.5 C 4.35 g/m*3 1.5 C 0 km/h
2271 11-02-2009 22:23:26 1.1 C 4.39 g/m*3 1.1 C 0 km/h
2272 11-02-2009 22:35:26 1.1 C 4.49 g/m*3 1.1 C 0 km/h
2273 11-02-2009 22:47:26 1 C 4.52 g/m*3 1 C 0 km/h
2274 11-02-2009 22:59:26 1.1 C 4.6 g/m*3 1.1 C 0 km/h
2275 11-02-2009 23:11:26 1.3 C 4.72 g/m*3 1.3 C 0 km/h
Sensor: Nr:Datum:Temp:Abs-Feuchte:Windchill:Wind:
Aussen-T/F 2276 11-02-2009 23:23:26 1.3 C 4.72 g/m*3 1.3 C 0 km/h
2277 11-02-2009 23:35:26 1.3 C 4.66 g/m*3 1.3 C 0 km/h
2278 11-02-2009 23:47:26 1.4 C 4.69 g/m*3 1.4 C 0 km/h
2279 11-02-2009 23:59:26 1.4 C 4.59 g/m*3 1.4 C 0 km/h
2280 12-02-2009 00:11:26 1.3 C 4.56 g/m*3 1.3 C 0 km/h
2281 12-02-2009 00:23:26 1 C 4.46 g/m*3 1 C 0 km/h
2282 12-02-2009 00:35:27 1.1 C 4.49 g/m*3 1.1 C 0 km/h
2283 12-02-2009 00:47:27 1.2 C 4.47 g/m*3 1.2 C 0 km/h
2284 12-02-2009 00:59:27 1.1 C 4.39 g/m*3 1.1 C 0 km/h
2285 12-02-2009 01:11:27 1 C 4.36 g/m*3 1 C 0 km/h
2286 12-02-2009 01:23:27 1 C 4.41 g/m*3 1 C 0 km/h
2287 12-02-2009 01:35:27 1 C 4.36 g/m*3 1 C 0 km/h
2288 12-02-2009 01:47:27 1.1 C 4.29 g/m*3 1.1 C 0 km/h
2289 12-02-2009 01:59:27 1.2 C 4.21 g/m*3 1.2 C 0 km/h
2290 12-02-2009 02:11:27 1.1 C 4.13 g/m*3 1.1 C 0 km/h
2291 12-02-2009 02:23:27 1.1 C 4.13 g/m*3 1.1 C 0 km/h
2292 12-02-2009 02:35:27 1.1 C 4.13 g/m*3 1.1 C 0 km/h
2293 12-02-2009 02:47:27 1.1 C 4.13 g/m*3 1.1 C 0 km/h
2294 12-02-2009 02:59:27 0.8 C 4.15 g/m*3 0.8 C 0 km/h
2295 12-02-2009 03:11:27 0.8 C 4.2 g/m*3 0.8 C 0 km/h
2296 12-02-2009 03:23:27 0.8 C 4.3 g/m*3 0.8 C 0 km/h
2297 12-02-2009 03:35:27 0.8 C 4.3 g/m*3 0.8 C 0 km/h
2298 12-02-2009 03:47:27 1 C 4.2 g/m*3 1 C 0 km/h
2299 12-02-2009 03:59:27 1 C 4 g/m*3 1 C 0 km/h
2300 12-02-2009 04:11:27 0.6 C 3.84 g/m*3 0.6 C 0 km/h
Sensor: Nr:Datum:Temp:Abs-Feuchte:Windchill:Wind:
Aussen-T/F 2301 12-02-2009 04:23:27 0.5 C 3.81 g/m*3 0.5 C 0 km/h
2302 12-02-2009 04:35:28 0.2 C 3.73 g/m*3 0.2 C 0 km/h
2303 12-02-2009 04:47:28 -0.1 C 3.61 g/m*3 -0.1 C 0 km/h
2304 12-02-2009 04:59:28 -0.4 C 3.58 g/m*3 -0.4 C 0 km/h
2305 12-02-2009 05:11:28 -0.5 C 3.51 g/m*3 -0.5 C 0 km/h
2306 12-02-2009 05:23:28 -0.6 C 3.49 g/m*3 -0.6 C 0 km/h
2307 12-02-2009 05:35:28 -0.8 C 3.44 g/m*3 -0.8 C 0 km/h
2308 12-02-2009 05:47:28 -0.7 C 3.46 g/m*3 -0.7 C 0 km/h
2309 12-02-2009 05:59:28 -0.7 C 3.46 g/m*3 -0.7 C 0 km/h
2310 12-02-2009 06:11:28 -0.5 C 3.42 g/m*3 -0.5 C 0 km/h
2311 12-02-2009 06:23:28 -0.5 C 3.42 g/m*3 -0.5 C 0 km/h
2312 12-02-2009 06:35:28 -0.4 C 3.44 g/m*3 -0.4 C 0 km/h
2313 12-02-2009 06:47:26 -0.3 C 3.46 g/m*3 -0.3 C 0 km/h
2314 12-02-2009 06:59:26 -0.4 C 3.44 g/m*3 -0.4 C 0 km/h
2315 12-02-2009 07:11:25 -0.3 C 3.56 g/m*3 -0.3 C 0 km/h
2316 12-02-2009 07:23:25 -0.2 C 3.63 g/m*3 -0.2 C 0 km/h
2317 12-02-2009 07:35:24 -0.2 C 3.63 g/m*3 -0.2 C 0 km/h
2318 12-02-2009 07:47:25 -0.2 C 3.54 g/m*3 -0.2 C 0 km/h
2319 12-02-2009 07:59:25 -0.1 C 3.61 g/m*3 -0.1 C 0 km/h
2320 12-02-2009 08:11:24 0 C 3.63 g/m*3 0 C 0 km/h
2321 12-02-2009 08:23:24 0.1 C 3.66 g/m*3 0.1 C 0 km/h
2322 12-02-2009 08:35:25 0.1 C 3.61 g/m*3 0.1 C 0 km/h
2323 12-02-2009 08:47:24 0.1 C 3.61 g/m*3 0.1 C 0 km/h
2324 12-02-2009 08:59:24 0.2 C 3.64 g/m*3 0.2 C 0 km/h
2325 12-02-2009 09:11:24 0.4 C 3.64 g/m*3 0.4 C 0 km/h
Sensor: Nr:Datum:Temp:Abs-Feuchte:Windchill:Wind:
Aussen-T/F 2326 12-02-2009 09:23:24 0.4 C 3.69 g/m*3 0.4 C 0 km/h
2327 12-02-2009 09:35:24 0.6 C 3.74 g/m*3 0.6 C 0 km/h
2328 12-02-2009 09:47:23 0.8 C 3.84 g/m*3 0.8 C 0 km/h
2329 12-02-2009 09:59:23 1 C 3.79 g/m*3 1 C 0 km/h
2330 12-02-2009 10:11:23 0.9 C 3.81 g/m*3 0.9 C 0 km/h
2331 12-02-2009 10:23:23 1 C 3.84 g/m*3 1 C 0 km/h
2332 12-02-2009 10:35:23 1.3 C 3.76 g/m*3 1.3 C 0 km/h
2333 12-02-2009 10:47:22 1.4 C 3.73 g/m*3 1.4 C 0 km/h
2334 12-02-2009 10:59:22 1.6 C 3.68 g/m*3 1.6 C 0 km/h
2335 12-02-2009 11:11:23 1.8 C 3.62 g/m*3 1.8 C 0 km/h
2336 12-02-2009 11:23:23 2.1 C 3.64 g/m*3 2.1 C 0 km/h
2337 12-02-2009 11:35:22 1.7 C 3.59 g/m*3 1.7 C 0 km/h
2338 12-02-2009 11:47:23 1.6 C 3.68 g/m*3 1.6 C 0 km/h
2339 12-02-2009 11:59:23 2 C 3.5 g/m*3 2 C 0 km/h
2340 12-02-2009 12:11:22 2.4 C 3.25 g/m*3 2.4 C 0 km/h
2341 12-02-2009 12:23:22 2.5 C 3.39 g/m*3 2.5 C 0 km/h
2342 12-02-2009 12:35:21 2.6 C 3.53 g/m*3 2.6 C 0 km/h
2343 12-02-2009 12:47:22 2.9 C 3.37 g/m*3 2.9 C 0 km/h
2344 12-02-2009 12:59:22 3 C 3.57 g/m*3 3 C 0 km/h
2345 12-02-2009 13:11:21 3.6 C 3.59 g/m*3 3.6 C 0 km/h
2346 12-02-2009 13:23:21 3.6 C 3.47 g/m*3 3.6 C 0 km/h
2347 12-02-2009 13:35:22 2.7 C 3.38 g/m*3 2.7 C 0 km/h
2348 12-02-2009 13:47:21 1.4 C 3.63 g/m*3 1.4 C 0 km/h
2349 12-02-2009 13:59:21 1 C 3.89 g/m*3 1 C 0 km/h
2350 12-02-2009 14:11:21 0.9 C 4.07 g/m*3 0.9 C 0 km/h
Sensor: Nr:Datum:Temp:Abs-Feuchte:Windchill:Wind:
Aussen-T/F 2351 12-02-2009 14:23:21 1.9 C 4.36 g/m*3 1.9 C 0 km/h
2352 12-02-2009 14:35:21 2.1 C 4.14 g/m*3 2.1 C 0 km/h
2353 12-02-2009 14:47:20 2.5 C 4.14 g/m*3 2.5 C 0 km/h
2354 12-02-2009 14:59:20 2.4 C 4.05 g/m*3 2.4 C 0 km/h
2355 12-02-2009 15:11:21 2.2 C 3.94 g/m*3 2.2 C 0 km/h
2356 12-02-2009 15:23:21 1.8 C 3.95 g/m*3 1.8 C 0 km/h
2357 12-02-2009 15:35:20 2.6 C 4.17 g/m*3 2.6 C 0 km/h
2358 12-02-2009 15:47:20 2.7 C 3.96 g/m*3 2.7 C 0 km/h
2359 12-02-2009 15:59:20 2.6 C 3.88 g/m*3 2.6 C 0 km/h
2360 12-02-2009 16:11:20 3.2 C 3.8 g/m*3 3.2 C 0 km/h
2361 12-02-2009 16:23:20 3.1 C 3.65 g/m*3 3.1 C 0 km/h
2362 12-02-2009 16:35:19 2.8 C 3.64 g/m*3 2.8 C 0 km/h
2363 12-02-2009 16:47:20 2.3 C 3.63 g/m*3 2.3 C 0 km/h
2364 12-02-2009 16:59:20 1.2 C 3.74 g/m*3 1.2 C 0 km/h
2365 12-02-2009 17:11:19 0.9 C 3.92 g/m*3 0.9 C 0 km/h
2366 12-02-2009 17:23:19 0.8 C 3.99 g/m*3 0.8 C 0 km/h
2367 12-02-2009 17:35:19 0.6 C 4.04 g/m*3 0.6 C 0 km/h
2368 12-02-2009 17:47:19 0.3 C 4.06 g/m*3 0.3 C 0 km/h
2369 12-02-2009 17:59:19 0.2 C 4.13 g/m*3 0.2 C 0 km/h
2370 12-02-2009 18:11:19 0.1 C 4.15 g/m*3 0.1 C 0 km/h
2371 12-02-2009 18:23:18 0.1 C 4.15 g/m*3 0.1 C 0 km/h
2372 12-02-2009 18:35:19 0.1 C 4.15 g/m*3 0.1 C 0 km/h
2373 12-02-2009 18:47:18 0 C 4.12 g/m*3 0 C 0 km/h
2374 12-02-2009 18:59:18 0 C 4.17 g/m*3 0 C 0 km/h
2375 12-02-2009 19:11:18 0.1 C 4.2 g/m*3 0.1 C 0 km/h
Sensor: Nr:Datum:Temp:Abs-Feuchte:Windchill:Wind:
Aussen-T/F 2376 12-02-2009 19:23:18 0.1 C 4.2 g/m*3 0.1 C 0 km/h
2377 12-02-2009 19:35:18 0.2 C 4.27 g/m*3 0.2 C 0 km/h
2378 12-02-2009 19:47:17 0.1 C 4.24 g/m*3 0.1 C 0 km/h
2379 12-02-2009 19:59:17 -0.2 C 4.16 g/m*3 -0.2 C 0 km/h
2380 12-02-2009 20:11:18 -0.3 C 4.13 g/m*3 -0.3 C 0 km/h
2381 12-02-2009 20:23:18 -0.4 C 4.1 g/m*3 -0.4 C 0 km/h
2382 12-02-2009 20:35:17 -0.6 C 4.04 g/m*3 -0.6 C 0 km/h
2383 12-02-2009 20:47:18 -0.5 C 4.03 g/m*3 -0.5 C 0 km/h
2384 12-02-2009 20:59:18 -0.4 C 4.05 g/m*3 -0.4 C 0 km/h
2385 12-02-2009 21:11:17 -0.5 C 4.03 g/m*3 -0.5 C 0 km/h
2386 12-02-2009 21:23:17 -0.6 C 4 g/m*3 -0.6 C 0 km/h
2387 12-02-2009 21:35:16 -0.7 C 3.97 g/m*3 -0.7 C 0 km/h
2388 12-02-2009 21:47:17 -0.7 C 3.97 g/m*3 -0.7 C 0 km/h
2389 12-02-2009 21:59:17 -0.6 C 4.04 g/m*3 -0.6 C 0 km/h
2390 12-02-2009 22:11:16 -0.6 C 4.04 g/m*3 -0.6 C 0 km/h
2391 12-02-2009 22:23:16 -0.5 C 4.07 g/m*3 -0.5 C 0 km/h
2392 12-02-2009 22:36:17 -0.7 C 4.02 g/m*3 -0.7 C 0 km/h
2393 12-02-2009 22:48:17 -1 C 3.93 g/m*3 -1 C 0 km/h
2394 12-02-2009 23:00:17 -1.3 C 3.81 g/m*3 -1.3 C 0 km/h
2395 12-02-2009 23:12:17 -1.5 C 3.8 g/m*3 -1.5 C 0 km/h
2396 12-02-2009 23:24:17 -1.6 C 3.77 g/m*3 -1.6 C 0 km/h
2397 12-02-2009 23:36:17 -1.5 C 3.8 g/m*3 -1.5 C 0 km/h
2398 12-02-2009 23:48:17 -1.5 C 3.84 g/m*3 -1.5 C 0 km/h
2399 13-02-2009 00:00:17 -1.5 C 3.84 g/m*3 -1.5 C 0 km/h
2400 13-02-2009 00:12:17 -1.6 C 3.81 g/m*3 -1.6 C 0 km/h
Sensor: Nr:Datum:Temp:Abs-Feuchte:Windchill:Wind:
Aussen-T/F 2401 13-02-2009 00:24:17 -1.2 C 3.97 g/m*3 -1.2 C 0 km/h
2402 13-02-2009 00:36:17 -1.1 C 4 g/m*3 -1.1 C 0 km/h
2403 13-02-2009 00:48:18 -1 C 4.02 g/m*3 -1 C 0 km/h
2404 13-02-2009 01:00:18 -0.9 C 4.05 g/m*3 -0.9 C 0 km/h
2405 13-02-2009 01:12:18 -0.7 C 4.11 g/m*3 -0.7 C 0 km/h
2406 13-02-2009 01:24:18 -0.5 C 4.17 g/m*3 -0.5 C 0 km/h
2407 13-02-2009 01:36:18 -0.4 C 4.19 g/m*3 -0.4 C 0 km/h
2408 13-02-2009 01:48:18 -0.4 C 4.19 g/m*3 -0.4 C 0 km/h
2409 13-02-2009 02:00:18 -0.4 C 4.19 g/m*3 -0.4 C 0 km/h
2410 13-02-2009 02:12:18 -0.3 C 4.22 g/m*3 -0.3 C 0 km/h
2411 13-02-2009 02:24:18 -0.3 C 4.22 g/m*3 -0.3 C 0 km/h
2412 13-02-2009 02:36:18 -0.3 C 4.22 g/m*3 -0.3 C 0 km/h
2413 13-02-2009 02:48:18 -0.2 C 4.25 g/m*3 -0.2 C 0 km/h
2414 13-02-2009 03:00:18 -0.3 C 4.18 g/m*3 -0.3 C 0 km/h
2415 13-02-2009 03:12:18 -0.3 C 4.18 g/m*3 -0.3 C 0 km/h
2416 13-02-2009 03:24:18 -0.3 C 4.18 g/m*3 -0.3 C 0 km/h
2417 13-02-2009 03:36:18 -0.3 C 4.18 g/m*3 -0.3 C 0 km/h
2418 13-02-2009 03:48:18 -0.3 C 4.18 g/m*3 -0.3 C 0 km/h
2419 13-02-2009 04:00:18 -0.3 C 4.18 g/m*3 -0.3 C 0 km/h
2420 13-02-2009 04:12:18 -0.3 C 4.18 g/m*3 -0.3 C 0 km/h
2421 13-02-2009 04:24:18 -0.4 C 4.1 g/m*3 -0.4 C 0 km/h
2422 13-02-2009 04:36:19 -0.4 C 4.1 g/m*3 -0.4 C 0 km/h
2423 13-02-2009 04:48:19 -0.4 C 4.1 g/m*3 -0.4 C 0 km/h
2424 13-02-2009 05:00:19 -0.4 C 4.1 g/m*3 -0.4 C 0 km/h
2425 13-02-2009 05:12:19 -0.5 C 4.03 g/m*3 -0.5 C 0 km/h
Sensor: Nr:Datum:Temp:Abs-Feuchte:Windchill:Wind:
Aussen-T/F 2426 13-02-2009 05:24:19 -0.6 C 4 g/m*3 -0.6 C 0 km/h
2427 13-02-2009 05:36:19 -0.6 C 3.95 g/m*3 -0.6 C 0 km/h
2428 13-02-2009 05:48:19 -0.5 C 3.98 g/m*3 -0.5 C 0 km/h
2429 13-02-2009 06:00:19 -0.4 C 3.96 g/m*3 -0.4 C 0 km/h
2430 13-02-2009 06:12:19 -0.4 C 3.96 g/m*3 -0.4 C 0 km/h
2431 13-02-2009 06:24:19 -0.3 C 3.94 g/m*3 -0.3 C 0 km/h
2432 13-02-2009 06:36:19 -0.4 C 3.91 g/m*3 -0.4 C 0 km/h
2433 13-02-2009 06:48:19 -0.4 C 3.86 g/m*3 -0.4 C 0 km/h
2434 13-02-2009 07:00:08 -0.4 C 3.86 g/m*3 -0.4 C 0 km/h
2435 13-02-2009 07:12:17 -0.5 C 3.84 g/m*3 -0.5 C 0 km/h
2436 13-02-2009 07:24:18 -0.5 C 3.84 g/m*3 -0.5 C 0 km/h
2437 13-02-2009 07:36:17 -0.5 C 3.88 g/m*3 -0.5 C 0 km/h
2438 13-02-2009 07:48:17 -0.5 C 3.84 g/m*3 -0.5 C 0 km/h
2439 13-02-2009 08:00:16 -0.5 C 3.84 g/m*3 -0.5 C 0 km/h
2440 13-02-2009 08:12:16 -0.5 C 3.84 g/m*3 -0.5 C 0 km/h
2441 13-02-2009 08:24:17 -0.5 C 3.84 g/m*3 -0.5 C 0 km/h
2442 13-02-2009 08:36:16 -0.5 C 3.84 g/m*3 -0.5 C 0 km/h
2443 13-02-2009 08:48:16 -0.4 C 3.86 g/m*3 -0.4 C 0 km/h
2444 13-02-2009 09:00:16 -0.4 C 3.86 g/m*3 -0.4 C 0 km/h
2445 13-02-2009 09:12:16 -0.3 C 3.84 g/m*3 -0.3 C 0 km/h
2446 13-02-2009 09:24:16 -0.1 C 3.9 g/m*3 -0.1 C 0 km/h
2447 13-02-2009 09:36:16 0.1 C 3.9 g/m*3 0.1 C 0 km/h
2448 13-02-2009 09:48:16 0.1 C 3.9 g/m*3 0.1 C 0 km/h
2449 13-02-2009 10:00:15 0.1 C 3.85 g/m*3 0.1 C 0 km/h
2450 13-02-2009 10:12:15 0.2 C 3.88 g/m*3 0.2 C 0 km/h
Sensor: Nr:Datum:Temp:Abs-Feuchte:Windchill:Wind:
Aussen-T/F 2451 13-02-2009 10:24:16 0.4 C 3.93 g/m*3 0.4 C 0 km/h
2452 13-02-2009 10:36:15 0.4 C 3.88 g/m*3 0.4 C 0 km/h
2453 13-02-2009 10:48:15 0.5 C 3.91 g/m*3 0.5 C 0 km/h
2454 13-02-2009 11:00:15 0.6 C 3.94 g/m*3 0.6 C 0 km/h
2455 13-02-2009 11:12:15 0.7 C 3.97 g/m*3 0.7 C 0 km/h
2456 13-02-2009 11:24:15 0.9 C 4.02 g/m*3 0.9 C 0 km/h
2457 13-02-2009 11:36:15 1.1 C 4.02 g/m*3 1.1 C 0 km/h
2458 13-02-2009 11:48:15 1.2 C 4 g/m*3 1.2 C 0 km/h
2459 13-02-2009 12:00:15 1.3 C 4.08 g/m*3 1.3 C 0 km/h
2460 13-02-2009 12:12:15 1.4 C 4.11 g/m*3 1.4 C 0 km/h
2461 13-02-2009 12:24:14 1.6 C 4.11 g/m*3 1.6 C 0 km/h
2462 13-02-2009 12:36:14 1.8 C 4.11 g/m*3 1.8 C 0 km/h
2463 13-02-2009 12:48:14 1.8 C 4.06 g/m*3 1.8 C 0 km/h
2464 13-02-2009 13:00:14 1.8 C 4.11 g/m*3 1.8 C 0 km/h
2465 13-02-2009 13:12:14 1.7 C 4.14 g/m*3 1.7 C 0 km/h
2466 13-02-2009 13:24:13 1.5 C 4.19 g/m*3 1.5 C 0 km/h
2467 13-02-2009 13:36:14 1.7 C 4.3 g/m*3 1.7 C 0 km/h
2468 13-02-2009 13:48:13 1.8 C 4.28 g/m*3 1.8 C 0 km/h
2469 13-02-2009 14:00:13 2.1 C 4.25 g/m*3 2.1 C 0 km/h
2470 13-02-2009 14:12:13 2.3 C 4.25 g/m*3 2.3 C 0 km/h
2471 13-02-2009 14:24:14 2.3 C 4.25 g/m*3 2.3 C 0 km/h
2472 13-02-2009 14:36:13 2.3 C 4.25 g/m*3 2.3 C 0 km/h
2473 13-02-2009 14:48:13 2.4 C 4.28 g/m*3 2.4 C 0 km/h
2474 13-02-2009 15:00:12 2.2 C 4.28 g/m*3 2.2 C 0 km/h
2475 13-02-2009 15:12:12 2.2 C 4.34 g/m*3 2.2 C 0 km/h
Sensor: Nr:Datum:Temp:Abs-Feuchte:Windchill:Wind:
Aussen-T/F 2476 13-02-2009 15:24:13 2 C 4.28 g/m*3 2 C 0 km/h
2477 13-02-2009 15:36:12 2 C 4.39 g/m*3 2 C 0 km/h
2478 13-02-2009 15:48:12 2 C 4.39 g/m*3 2 C 0 km/h
2479 13-02-2009 16:00:12 1.8 C 4.33 g/m*3 1.8 C 0 km/h
2480 13-02-2009 16:12:12 1.7 C 4.3 g/m*3 1.7 C 0 km/h
2481 13-02-2009 16:24:12 1.7 C 4.3 g/m*3 1.7 C 0 km/h
2482 13-02-2009 16:36:12 1.5 C 4.24 g/m*3 1.5 C 0 km/h
2483 13-02-2009 16:48:12 1.4 C 4.27 g/m*3 1.4 C 0 km/h
2484 13-02-2009 17:00:12 1.4 C 4.32 g/m*3 1.4 C 0 km/h
2485 13-02-2009 17:12:12 1.4 C 4.27 g/m*3 1.4 C 0 km/h
2486 13-02-2009 17:24:11 1.4 C 4.27 g/m*3 1.4 C 0 km/h
2487 13-02-2009 17:36:12 1.2 C 4.16 g/m*3 1.2 C 0 km/h
2488 13-02-2009 17:48:11 1.2 C 4.16 g/m*3 1.2 C 0 km/h
2489 13-02-2009 18:00:11 1.2 C 4.1 g/m*3 1.2 C 0 km/h
2490 13-02-2009 18:12:11 1.2 C 4.05 g/m*3 1.2 C 0 km/h
2491 13-02-2009 18:24:11 1.2 C 4.05 g/m*3 1.2 C 0 km/h
2492 13-02-2009 18:36:11 1.2 C 4 g/m*3 1.2 C 0 km/h
2493 13-02-2009 18:48:10 1.3 C 3.92 g/m*3 1.3 C 0 km/h
2494 13-02-2009 19:00:10 1.4 C 3.84 g/m*3 1.4 C 0 km/h
2495 13-02-2009 19:12:10 1.4 C 3.84 g/m*3 1.4 C 0 km/h
2496 13-02-2009 19:24:11 1.2 C 3.74 g/m*3 1.2 C 0 km/h
2497 13-02-2009 19:36:10 1.3 C 3.66 g/m*3 1.3 C 0 km/h
2498 13-02-2009 19:48:10 1.2 C 3.58 g/m*3 1.2 C 0 km/h
2499 13-02-2009 20:00:10 1.2 C 3.58 g/m*3 1.2 C 0 km/h
2500 13-02-2009 20:12:10 1.1 C 3.61 g/m*3 1.1 C 0 km/h
Sensor: Nr:Datum:Temp:Abs-Feuchte:Windchill:Wind:
Aussen-T/F 2501 13-02-2009 20:24:10 1 C 3.63 g/m*3 1 C 0 km/h
2502 13-02-2009 20:36:10 1 C 3.74 g/m*3 1 C 0 km/h
2503 13-02-2009 20:48:09 0.9 C 3.81 g/m*3 0.9 C 0 km/h
2504 13-02-2009 21:00:09 0.9 C 3.76 g/m*3 0.9 C 0 km/h
2505 13-02-2009 21:12:09 1 C 3.74 g/m*3 1 C 0 km/h
2506 13-02-2009 21:24:09 0.9 C 3.81 g/m*3 0.9 C 0 km/h
2507 13-02-2009 21:36:09 0.7 C 3.97 g/m*3 0.7 C 0 km/h
2508 13-02-2009 21:48:08 0.6 C 4.04 g/m*3 0.6 C 0 km/h
2509 13-02-2009 22:01:09 0.6 C 4.09 g/m*3 0.6 C 0 km/h
2510 13-02-2009 22:13:09 0.6 C 4.14 g/m*3 0.6 C 0 km/h
2511 13-02-2009 22:25:09 0.4 C 4.13 g/m*3 0.4 C 0 km/h
2512 13-02-2009 22:37:09 0.4 C 4.23 g/m*3 0.4 C 0 km/h
2513 13-02-2009 22:49:09 0.4 C 4.23 g/m*3 0.4 C 0 km/h
2514 13-02-2009 23:01:10 0.4 C 4.28 g/m*3 0.4 C 0 km/h
2515 13-02-2009 23:13:10 0.4 C 4.28 g/m*3 0.4 C 0 km/h
2516 13-02-2009 23:25:10 0.4 C 4.28 g/m*3 0.4 C 0 km/h
2517 13-02-2009 23:37:10 0.5 C 4.31 g/m*3 0.5 C 0 km/h
2518 13-02-2009 23:49:10 0.6 C 4.29 g/m*3 0.6 C 0 km/h
2519 14-02-2009 00:01:10 0.4 C 4.18 g/m*3 0.4 C 0 km/h
2520 14-02-2009 00:13:10 0.4 C 4.18 g/m*3 0.4 C 0 km/h
2521 14-02-2009 00:25:10 0.5 C 4.21 g/m*3 0.5 C 0 km/h
2522 14-02-2009 00:37:10 0.6 C 4.19 g/m*3 0.6 C 0 km/h
2523 14-02-2009 00:49:10 0.5 C 4.16 g/m*3 0.5 C 0 km/h
2524 14-02-2009 01:01:10 0.5 C 4.16 g/m*3 0.5 C 0 km/h
2525 14-02-2009 01:13:10 0.5 C 4.16 g/m*3 0.5 C 0 km/h
Sensor: Nr:Datum:Temp:Abs-Feuchte:Windchill:Wind:
Aussen-T/F 2526 14-02-2009 01:25:10 0.4 C 4.13 g/m*3 0.4 C 0 km/h
2527 14-02-2009 01:37:10 0.5 C 4.11 g/m*3 0.5 C 0 km/h
2528 14-02-2009 01:49:10 0.5 C 4.06 g/m*3 0.5 C 0 km/h
2529 14-02-2009 02:01:10 0.6 C 4.04 g/m*3 0.6 C 0 km/h
2530 14-02-2009 02:13:10 0.5 C 3.96 g/m*3 0.5 C 0 km/h
2531 14-02-2009 02:25:10 0.3 C 4.01 g/m*3 0.3 C 0 km/h
2532 14-02-2009 02:37:10 0.2 C 4.08 g/m*3 0.2 C 0 km/h
2533 14-02-2009 02:49:11 0.2 C 4.18 g/m*3 0.2 C 0 km/h
2534 14-02-2009 03:01:11 0.2 C 4.18 g/m*3 0.2 C 0 km/h
2535 14-02-2009 03:13:11 0.3 C 4.2 g/m*3 0.3 C 0 km/h
2536 14-02-2009 03:25:11 0.2 C 4.18 g/m*3 0.2 C 0 km/h
2537 14-02-2009 03:37:11 0.1 C 4.15 g/m*3 0.1 C 0 km/h
2538 14-02-2009 03:49:11 0.1 C 4.2 g/m*3 0.1 C 0 km/h
2539 14-02-2009 04:01:11 0.2 C 4.22 g/m*3 0.2 C 0 km/h
2540 14-02-2009 04:13:11 0.2 C 4.27 g/m*3 0.2 C 0 km/h
2541 14-02-2009 04:25:11 0.2 C 4.27 g/m*3 0.2 C 0 km/h
2542 14-02-2009 04:37:11 0.2 C 4.32 g/m*3 0.2 C 0 km/h
2543 14-02-2009 04:49:11 0.2 C 4.32 g/m*3 0.2 C 0 km/h
2544 14-02-2009 05:01:11 0.2 C 4.32 g/m*3 0.2 C 0 km/h
2545 14-02-2009 05:13:11 0.1 C 4.29 g/m*3 0.1 C 0 km/h
2546 14-02-2009 05:25:11 0.2 C 4.32 g/m*3 0.2 C 0 km/h
2547 14-02-2009 05:37:11 0.2 C 4.32 g/m*3 0.2 C 0 km/h
2548 14-02-2009 05:49:11 0.2 C 4.32 g/m*3 0.2 C 0 km/h
2549 14-02-2009 06:01:11 0.2 C 4.32 g/m*3 0.2 C 0 km/h
2550 14-02-2009 06:13:11 0.2 C 4.27 g/m*3 0.2 C 0 km/h
Sensor: Nr:Datum:Temp:Abs-Feuchte:Windchill:Wind:
Aussen-T/F 2551 14-02-2009 06:25:11 0.2 C 4.27 g/m*3 0.2 C 0 km/h
2552 14-02-2009 06:37:12 0.2 C 4.22 g/m*3 0.2 C 0 km/h
2553 14-02-2009 06:49:12 0.2 C 4.22 g/m*3 0.2 C 0 km/h
2554 14-02-2009 07:01:12 0.2 C 4.22 g/m*3 0.2 C 0 km/h
2555 14-02-2009 07:13:12 0.1 C 4.2 g/m*3 0.1 C 0 km/h
2556 14-02-2009 07:25:12 0.1 C 4.2 g/m*3 0.1 C 0 km/h
2557 14-02-2009 07:37:12 0.2 C 4.22 g/m*3 0.2 C 0 km/h
2558 14-02-2009 07:49:10 0.3 C 4.25 g/m*3 0.3 C 0 km/h
2559 14-02-2009 08:01:09 0.4 C 4.23 g/m*3 0.4 C 0 km/h
2560 14-02-2009 08:13:09 0.5 C 4.16 g/m*3 0.5 C 0 km/h
2561 14-02-2009 08:25:09 0.4 C 4.08 g/m*3 0.4 C 0 km/h
2562 14-02-2009 08:37:09 0.3 C 3.96 g/m*3 0.3 C 0 km/h
2563 14-02-2009 08:49:09 0.2 C 3.88 g/m*3 0.2 C 0 km/h
2564 14-02-2009 09:01:08 0.2 C 3.83 g/m*3 0.2 C 0 km/h
2565 14-02-2009 09:13:08 0.2 C 3.83 g/m*3 0.2 C 0 km/h
2566 14-02-2009 09:25:08 0.4 C 3.88 g/m*3 0.4 C 0 km/h
2567 14-02-2009 09:37:09 0.3 C 3.86 g/m*3 0.3 C 0 km/h
2568 14-02-2009 09:49:08 0.3 C 3.86 g/m*3 0.3 C 0 km/h
2569 14-02-2009 10:01:08 0.4 C 3.84 g/m*3 0.4 C 0 km/h
2570 14-02-2009 10:13:08 0.2 C 3.68 g/m*3 0.2 C 0 km/h
2571 14-02-2009 10:25:08 0.1 C 3.61 g/m*3 0.1 C 0 km/h
2572 14-02-2009 10:37:08 0.3 C 3.56 g/m*3 0.3 C 0 km/h
2573 14-02-2009 10:49:07 0.6 C 3.53 g/m*3 0.6 C 0 km/h
2574 14-02-2009 11:01:08 0.8 C 3.38 g/m*3 0.8 C 0 km/h
2575 14-02-2009 11:13:08 0.6 C 3.38 g/m*3 0.6 C 0 km/h
Sensor: Nr:Datum:Temp:Abs-Feuchte:Windchill:Wind:
Aussen-T/F 2576 14-02-2009 11:25:07 0.9 C 3.45 g/m*3 0.9 C 0 km/h
2577 14-02-2009 11:37:07 0.8 C 3.28 g/m*3 0.8 C 0 km/h
2578 14-02-2009 11:49:07 0.8 C 3.23 g/m*3 0.8 C 0 km/h
2579 14-02-2009 12:01:07 0.9 C 3.14 g/m*3 0.9 C 0 km/h
2580 14-02-2009 12:13:07 0.9 C 3.2 g/m*3 0.9 C 0 km/h
2581 14-02-2009 12:25:07 1.4 C 3.15 g/m*3 1.4 C 0 km/h
2582 14-02-2009 12:37:06 1.5 C 3.06 g/m*3 1.5 C 0 km/h
2583 14-02-2009 12:49:07 2 C 3.06 g/m*3 2 C 0 km/h
2584 14-02-2009 13:01:06 1.8 C 2.85 g/m*3 1.8 C 0 km/h
2585 14-02-2009 13:13:06 2.4 C 2.91 g/m*3 2.4 C 0 km/h
2586 14-02-2009 13:25:06 2.6 C 2.84 g/m*3 2.6 C 0 km/h
2587 14-02-2009 13:37:06 2.9 C 2.72 g/m*3 2.9 C 0 km/h
2588 14-02-2009 13:49:06 3.1 C 2.63 g/m*3 3.1 C 0 km/h
2589 14-02-2009 14:01:05 3.4 C 2.57 g/m*3 3.4 C 0 km/h
2590 14-02-2009 14:13:05 3.7 C 2.55 g/m*3 3.7 C 0 km/h
2591 14-02-2009 14:25:06 3.7 C 2.62 g/m*3 3.7 C 0 km/h
2592 14-02-2009 14:37:06 3.8 C 2.7 g/m*3 3.8 C 0 km/h
2593 14-02-2009 14:49:05 3.6 C 2.72 g/m*3 3.6 C 0 km/h
2594 14-02-2009 15:01:06 4.1 C 2.69 g/m*3 4.1 C 0 km/h
2595 14-02-2009 15:13:06 4.2 C 2.58 g/m*3 4.2 C 0 km/h
2596 14-02-2009 15:25:05 3.6 C 2.66 g/m*3 3.6 C 0 km/h
2597 14-02-2009 15:37:05 3.3 C 2.67 g/m*3 3.3 C 0 km/h
2598 14-02-2009 15:49:05 2.9 C 2.66 g/m*3 2.9 C 0 km/h
2599 14-02-2009 16:01:05 2.9 C 2.66 g/m*3 2.9 C 0 km/h
2600 14-02-2009 16:13:05 3.2 C 2.65 g/m*3 3.2 C 0 km/h
Sensor: Nr:Datum:Temp:Abs-Feuchte:Windchill:Wind:
Aussen-T/F 2601 14-02-2009 16:25:04 3.3 C 2.49 g/m*3 3.3 C 0 km/h
2602 14-02-2009 16:37:04 3.9 C 2.65 g/m*3 3.9 C 0 km/h
2603 14-02-2009 16:49:04 3.9 C 2.46 g/m*3 3.9 C 0 km/h
2604 14-02-2009 17:01:04 3.3 C 2.43 g/m*3 3.3 C 0 km/h
2605 14-02-2009 17:13:04 2.6 C 2.55 g/m*3 2.6 C 0 km/h
2606 14-02-2009 17:25:04 2.2 C 2.59 g/m*3 2.2 C 0 km/h
2607 14-02-2009 17:37:04 1.5 C 2.52 g/m*3 1.5 C 0 km/h
2608 14-02-2009 17:49:04 0.8 C 2.51 g/m*3 0.8 C 0 km/h
2609 14-02-2009 18:01:03 0.4 C 2.59 g/m*3 0.4 C 0 km/h
2610 14-02-2009 18:13:03 0.2 C 2.55 g/m*3 0.2 C 0 km/h
2611 14-02-2009 18:25:04 0.2 C 2.46 g/m*3 0.2 C 0 km/h
2612 14-02-2009 18:37:03 -0.1 C 2.41 g/m*3 -0.1 C 0 km/h
2613 14-02-2009 18:49:03 -0.3 C 2.42 g/m*3 -0.3 C 0 km/h
2614 14-02-2009 19:01:03 -0.3 C 2.42 g/m*3 -0.3 C 0 km/h
2615 14-02-2009 19:13:03 -0.8 C 2.48 g/m*3 -0.8 C 0 km/h
2616 14-02-2009 19:25:03 -0.9 C 2.55 g/m*3 -0.9 C 0 km/h
2617 14-02-2009 19:37:03 -1 C 2.67 g/m*3 -1 C 0 km/h
2618 14-02-2009 19:49:03 -1.2 C 2.67 g/m*3 -1.2 C 0 km/h
2619 14-02-2009 20:01:03 -1.3 C 2.74 g/m*3 -1.3 C 0 km/h
2620 14-02-2009 20:13:03 -1.4 C 2.77 g/m*3 -1.4 C 0 km/h
2621 14-02-2009 20:25:02 -1.6 C 2.77 g/m*3 -1.6 C 0 km/h
2622 14-02-2009 20:37:02 -1.8 C 2.78 g/m*3 -1.8 C 0 km/h
2623 14-02-2009 20:49:02 -2 C 2.78 g/m*3 -2 C 0 km/h
2624 14-02-2009 21:01:01 -2.1 C 2.76 g/m*3 -2.1 C 0 km/h
2625 14-02-2009 21:13:01 -2.3 C 2.72 g/m*3 -2.3 C 0 km/h
Sensor: Nr:Datum:Temp:Abs-Feuchte:Windchill:Wind:
Aussen-T/F 2626 14-02-2009 21:25:02 -2.4 C 2.75 g/m*3 -2.4 C 0 km/h
2627 14-02-2009 21:37:02 -2.6 C 2.75 g/m*3 -2.6 C 0 km/h
2628 14-02-2009 21:49:01 -2.3 C 2.89 g/m*3 -2.3 C 0 km/h
2629 14-02-2009 22:01:02 -2.2 C 2.91 g/m*3 -2.2 C 0 km/h
2630 14-02-2009 22:13:02 -2.3 C 2.89 g/m*3 -2.3 C 0 km/h
2631 14-02-2009 22:25:01 -2.4 C 2.87 g/m*3 -2.4 C 0 km/h
2632 14-02-2009 22:37:01 -2.3 C 2.93 g/m*3 -2.3 C 0 km/h
2633 14-02-2009 22:49:01 -2.3 C 2.89 g/m*3 -2.3 C 0 km/h
2634 14-02-2009 23:01:01 -2.2 C 2.91 g/m*3 -2.2 C 0 km/h
2635 14-02-2009 23:13:02 -2.5 C 2.85 g/m*3 -2.5 C 0 km/h
2636 14-02-2009 23:25:00 -2.6 C 2.83 g/m*3 -2.6 C 0 km/h
2637 14-02-2009 23:37:00 -2.8 C 2.83 g/m*3 -2.8 C 0 km/h
2638 14-02-2009 23:49:00 -2.9 C 2.81 g/m*3 -2.9 C 0 km/h
2639 15-02-2009 00:01:00 -2.9 C 2.85 g/m*3 -2.9 C 0 km/h
2640 15-02-2009 00:13:00 -3.1 C 2.81 g/m*3 -3.1 C 0 km/h
2641 15-02-2009 00:25:00 -3.3 C 2.77 g/m*3 -3.3 C 0 km/h
2642 15-02-2009 00:37:00 -3.5 C 2.73 g/m*3 -3.5 C 0 km/h
2643 15-02-2009 00:49:59 -3.5 C 2.77 g/m*3 -3.5 C 0 km/h
2644 15-02-2009 01:12:59 -3.6 C 2.79 g/m*3 -3.6 C 0 km/h
2645 15-02-2009 01:13:00 -3.7 C 2.77 g/m*3 -3.7 C 0 km/h
2646 15-02-2009 01:25:00 -3.8 C 2.75 g/m*3 -3.8 C 0 km/h
2647 15-02-2009 01:37:59 -3.9 C 2.76 g/m*3 -3.9 C 0 km/h
2648 15-02-2009 01:49:59 -4 C 2.74 g/m*3 -4 C 0 km/h
2649 15-02-2009 02:01:59 -4 C 2.78 g/m*3 -4 C 0 km/h
2650 15-02-2009 02:13:59 -4.1 C 2.76 g/m*3 -4.1 C 0 km/h
Sensor: Nr:Datum:Temp:Abs-Feuchte:Windchill:Wind:
Aussen-T/F 2651 15-02-2009 02:26:00 -4.2 C 2.78 g/m*3 -4.2 C 0 km/h
2652 15-02-2009 02:37:58 -4.2 C 2.78 g/m*3 -4.2 C 0 km/h
2653 15-02-2009 02:51:01 -4.4 C 2.74 g/m*3 -4.4 C 0 km/h
2654 15-02-2009 03:03:01 -4.5 C 2.72 g/m*3 -4.5 C 0 km/h
2655 15-02-2009 03:15:01 -4.6 C 2.73 g/m*3 -4.6 C 0 km/h
2656 15-02-2009 03:27:01 -4.7 C 2.71 g/m*3 -4.7 C 0 km/h
2657 15-02-2009 03:39:01 -4.7 C 2.71 g/m*3 -4.7 C 0 km/h
2658 15-02-2009 03:51:01 -4.8 C 2.69 g/m*3 -4.8 C 0 km/h
2659 15-02-2009 04:03:02 -4.9 C 2.68 g/m*3 -4.9 C 0 km/h
2660 15-02-2009 04:15:01 -5 C 2.66 g/m*3 -5 C 0 km/h
2661 15-02-2009 04:27:01 -5.2 C 2.62 g/m*3 -5.2 C 0 km/h
2662 15-02-2009 04:39:02 -5.2 C 2.62 g/m*3 -5.2 C 0 km/h
2663 15-02-2009 04:51:02 -5.5 C 2.56 g/m*3 -5.5 C 0 km/h
2664 15-02-2009 05:02:59 -5.6 C 2.54 g/m*3 -5.6 C 0 km/h
2665 15-02-2009 05:14:59 -5.4 C 2.58 g/m*3 -5.4 C 0 km/h
2666 15-02-2009 05:26:59 -5.5 C 2.59 g/m*3 -5.5 C 0 km/h
2667 15-02-2009 05:38:58 -5.6 C 2.54 g/m*3 -5.6 C 0 km/h
2668 15-02-2009 05:50:58 -5.7 C 2.52 g/m*3 -5.7 C 0 km/h
2669 15-02-2009 06:02:59 -5.7 C 2.56 g/m*3 -5.7 C 0 km/h
2670 15-02-2009 06:14:59 -5.8 C 2.54 g/m*3 -5.8 C 0 km/h
2671 15-02-2009 06:26:59 -5.8 C 2.54 g/m*3 -5.8 C 0 km/h
2672 15-02-2009 06:38:58 -6 C 2.5 g/m*3 -6 C 0 km/h
2673 15-02-2009 06:50:59 -6 C 2.5 g/m*3 -6 C 0 km/h
2674 15-02-2009 07:02:58 -6.1 C 2.48 g/m*3 -6.1 C 0 km/h
2675 15-02-2009 07:14:58 -6.1 C 2.48 g/m*3 -6.1 C 0 km/h
Sensor: Nr:Datum:Temp:Abs-Feuchte:Windchill:Wind:
Aussen-T/F 2676 15-02-2009 07:26:59 -6.2 C 2.47 g/m*3 -6.2 C 0 km/h
2677 15-02-2009 07:38:57 -6.3 C 2.45 g/m*3 -6.3 C 0 km/h
2678 15-02-2009 07:50:58 -6.3 C 2.45 g/m*3 -6.3 C 0 km/h
2679 15-02-2009 08:02:57 -6.3 C 2.45 g/m*3 -6.3 C 0 km/h
2680 15-02-2009 08:14:57 -6.2 C 2.47 g/m*3 -6.2 C 0 km/h
2681 15-02-2009 08:26:57 -6 C 2.5 g/m*3 -6 C 0 km/h
2682 15-02-2009 08:38:58 -5.9 C 2.52 g/m*3 -5.9 C 0 km/h
2683 15-02-2009 08:50:57 -5.6 C 2.58 g/m*3 -5.6 C 0 km/h
2684 15-02-2009 09:02:57 -5.3 C 2.63 g/m*3 -5.3 C 0 km/h
2685 15-02-2009 09:14:57 -5 C 2.69 g/m*3 -5 C 0 km/h
2686 15-02-2009 09:26:57 -4.8 C 2.69 g/m*3 -4.8 C 0 km/h
2687 15-02-2009 09:38:57 -4.6 C 2.7 g/m*3 -4.6 C 0 km/h
2688 15-02-2009 09:50:56 -4.4 C 2.7 g/m*3 -4.4 C 0 km/h
2689 15-02-2009 10:02:57 -4.2 C 2.7 g/m*3 -4.2 C 0 km/h
2690 15-02-2009 10:14:56 -3.9 C 2.76 g/m*3 -3.9 C 0 km/h
2691 15-02-2009 10:26:56 -3.5 C 2.77 g/m*3 -3.5 C 0 km/h
2692 15-02-2009 10:38:56 -3.1 C 2.77 g/m*3 -3.1 C 0 km/h
2693 15-02-2009 10:50:55 -2.9 C 2.77 g/m*3 -2.9 C 0 km/h
2694 15-02-2009 11:02:56 -2.5 C 2.81 g/m*3 -2.5 C 0 km/h
2695 15-02-2009 11:14:56 -2 C 2.82 g/m*3 -2 C 0 km/h
2696 15-02-2009 11:26:56 -1.6 C 2.82 g/m*3 -1.6 C 0 km/h
2697 15-02-2009 11:38:55 -1.2 C 2.85 g/m*3 -1.2 C 0 km/h
2698 15-02-2009 11:50:56 -0.9 C 2.87 g/m*3 -0.9 C 0 km/h
2699 15-02-2009 12:02:55 -0.4 C 2.92 g/m*3 -0.4 C 0 km/h
2700 15-02-2009 12:14:55 -0.1 C 2.89 g/m*3 -0.1 C 0 km/h
Sensor: Nr:Datum:Temp:Abs-Feuchte:Windchill:Wind:
Aussen-T/F 2701 15-02-2009 12:26:55 0.3 C 2.92 g/m*3 0.3 C 0 km/h
2702 15-02-2009 12:38:55 0.8 C 3.02 g/m*3 0.8 C 0 km/h
2703 15-02-2009 12:50:55 1 C 2.85 g/m*3 1 C 0 km/h
2704 15-02-2009 13:02:55 1.5 C 2.79 g/m*3 1.5 C 0 km/h
2705 15-02-2009 13:14:54 1.8 C 2.69 g/m*3 1.8 C 0 km/h
2706 15-02-2009 13:26:54 1.8 C 2.58 g/m*3 1.8 C 0 km/h
2707 15-02-2009 13:38:55 2 C 2.56 g/m*3 2 C 0 km/h
2708 15-02-2009 13:50:54 1.8 C 2.52 g/m*3 1.8 C 0 km/h
2709 15-02-2009 14:02:54 2 C 2.5 g/m*3 2 C 0 km/h
2710 15-02-2009 14:14:54 2.1 C 2.52 g/m*3 2.1 C 0 km/h
2711 15-02-2009 14:26:54 2.1 C 2.52 g/m*3 2.1 C 0 km/h
2712 15-02-2009 14:38:54 2.2 C 2.53 g/m*3 2.2 C 0 km/h
2713 15-02-2009 14:50:53 2.2 C 2.53 g/m*3 2.2 C 0 km/h
2714 15-02-2009 15:02:54 2.3 C 2.5 g/m*3 2.3 C 0 km/h
2715 15-02-2009 15:14:53 2.4 C 2.51 g/m*3 2.4 C 0 km/h
2716 15-02-2009 15:26:53 2.4 C 2.57 g/m*3 2.4 C 0 km/h
2717 15-02-2009 15:38:54 2.5 C 2.59 g/m*3 2.5 C 0 km/h
2718 15-02-2009 15:50:53 2.4 C 2.57 g/m*3 2.4 C 0 km/h
2719 15-02-2009 16:02:53 2.4 C 2.57 g/m*3 2.4 C 0 km/h
2720 15-02-2009 16:14:53 2.3 C 2.55 g/m*3 2.3 C 0 km/h
2721 15-02-2009 16:26:54 2.2 C 2.59 g/m*3 2.2 C 0 km/h
2722 15-02-2009 16:38:52 2.1 C 2.63 g/m*3 2.1 C 0 km/h
2723 15-02-2009 16:50:53 2 C 2.67 g/m*3 2 C 0 km/h
2724 15-02-2009 17:02:52 1.8 C 2.74 g/m*3 1.8 C 0 km/h
2725 15-02-2009 17:14:52 1.6 C 2.7 g/m*3 1.6 C 0 km/h
Sensor: Nr:Datum:Temp:Abs-Feuchte:Windchill:Wind:
Aussen-T/F 2726 15-02-2009 17:26:52 1.6 C 2.7 g/m*3 1.6 C 0 km/h
2727 15-02-2009 17:38:52 1.4 C 2.67 g/m*3 1.4 C 0 km/h
2728 15-02-2009 17:50:52 1.2 C 2.68 g/m*3 1.2 C 0 km/h
2729 15-02-2009 18:02:52 1.2 C 2.68 g/m*3 1.2 C 0 km/h
2730 15-02-2009 18:14:51 1.1 C 2.67 g/m*3 1.1 C 0 km/h
2731 15-02-2009 18:26:51 0.9 C 2.73 g/m*3 0.9 C 0 km/h
2732 15-02-2009 18:38:52 0.7 C 2.75 g/m*3 0.7 C 0 km/h
2733 15-02-2009 18:50:51 0.7 C 2.75 g/m*3 0.7 C 0 km/h
2734 15-02-2009 19:02:51 0.7 C 2.69 g/m*3 0.7 C 0 km/h
2735 15-02-2009 19:14:51 0.8 C 2.76 g/m*3 0.8 C 0 km/h
2736 15-02-2009 19:26:51 1 C 2.7 g/m*3 1 C 0 km/h
2737 15-02-2009 19:38:51 1.1 C 2.67 g/m*3 1.1 C 0 km/h
2738 15-02-2009 19:50:50 1.2 C 2.68 g/m*3 1.2 C 0 km/h
2739 15-02-2009 20:02:51 1.3 C 2.65 g/m*3 1.3 C 0 km/h
2740 15-02-2009 20:14:51 1.4 C 2.67 g/m*3 1.4 C 0 km/h
2741 15-02-2009 20:26:51 1.4 C 2.67 g/m*3 1.4 C 0 km/h
2742 15-02-2009 20:38:50 1.4 C 2.67 g/m*3 1.4 C 0 km/h
2743 15-02-2009 20:50:51 1.4 C 2.72 g/m*3 1.4 C 0 km/h
2744 15-02-2009 21:02:50 1.3 C 2.86 g/m*3 1.3 C 0 km/h
2745 15-02-2009 21:14:50 1.2 C 3 g/m*3 1.2 C 0 km/h
2746 15-02-2009 21:26:50 1 C 3.11 g/m*3 1 C 0 km/h
2747 15-02-2009 21:38:49 0.8 C 3.28 g/m*3 0.8 C 0 km/h
2748 15-02-2009 21:50:00 0.8 C 3.33 g/m*3 0.8 C 0 km/h
2749 15-02-2009 22:03:51 0.6 C 3.43 g/m*3 0.6 C 0 km/h
2750 15-02-2009 22:15:51 0.5 C 3.51 g/m*3 0.5 C 0 km/h
Sensor: Nr:Datum:Temp:Abs-Feuchte:Windchill:Wind:
Aussen-T/F 2751 15-02-2009 22:27:51 0.5 C 3.61 g/m*3 0.5 C 0 km/h
2752 15-02-2009 22:39:51 0.5 C 3.61 g/m*3 0.5 C 0 km/h
2753 15-02-2009 22:51:51 0.4 C 3.64 g/m*3 0.4 C 0 km/h
2754 15-02-2009 23:03:51 0.4 C 3.74 g/m*3 0.4 C 0 km/h
2755 15-02-2009 23:15:51 0.3 C 3.76 g/m*3 0.3 C 0 km/h
2756 15-02-2009 23:27:51 0.3 C 3.81 g/m*3 0.3 C 0 km/h
2757 15-02-2009 23:39:51 0.2 C 3.83 g/m*3 0.2 C 0 km/h
2758 15-02-2009 23:51:51 0.2 C 3.83 g/m*3 0.2 C 0 km/h
2759 16-02-2009 00:03:51 0.2 C 3.83 g/m*3 0.2 C 0 km/h
2760 16-02-2009 00:15:51 0.2 C 3.88 g/m*3 0.2 C 0 km/h
2761 16-02-2009 00:27:51 0.1 C 3.9 g/m*3 0.1 C 0 km/h
2762 16-02-2009 00:39:51 0.1 C 4 g/m*3 0.1 C 0 km/h
2763 16-02-2009 00:51:51 0 C 4.02 g/m*3 0 C 0 km/h
2764 16-02-2009 01:03:51 0 C 4.02 g/m*3 0 C 0 km/h
2765 16-02-2009 01:15:51 0 C 4.02 g/m*3 0 C 0 km/h
2766 16-02-2009 01:27:51 0 C 4.02 g/m*3 0 C 0 km/h
2767 16-02-2009 01:39:52 0 C 4.02 g/m*3 0 C 0 km/h
2768 16-02-2009 01:51:52 0 C 4.02 g/m*3 0 C 0 km/h
2769 16-02-2009 02:03:52 0 C 4.02 g/m*3 0 C 0 km/h
2770 16-02-2009 02:15:52 0.1 C 4 g/m*3 0.1 C 0 km/h
2771 16-02-2009 02:27:52 0.1 C 3.95 g/m*3 0.1 C 0 km/h
2772 16-02-2009 02:39:52 0.2 C 3.98 g/m*3 0.2 C 0 km/h
2773 16-02-2009 02:51:52 0.2 C 3.93 g/m*3 0.2 C 0 km/h
2774 16-02-2009 03:03:52 0.2 C 3.93 g/m*3 0.2 C 0 km/h
2775 16-02-2009 03:15:52 0.2 C 3.93 g/m*3 0.2 C 0 km/h
Sensor: Nr:Datum:Temp:Abs-Feuchte:Windchill:Wind:
Aussen-T/F 2776 16-02-2009 03:27:52 0.2 C 3.93 g/m*3 0.2 C 0 km/h
2777 16-02-2009 03:39:52 0.3 C 3.96 g/m*3 0.3 C 0 km/h
2778 16-02-2009 03:51:52 0.3 C 3.91 g/m*3 0.3 C 0 km/h
2779 16-02-2009 04:03:52 0.3 C 3.86 g/m*3 0.3 C 0 km/h
2780 16-02-2009 04:15:52 0.4 C 3.88 g/m*3 0.4 C 0 km/h
2781 16-02-2009 04:27:52 0.4 C 3.88 g/m*3 0.4 C 0 km/h
2782 16-02-2009 04:39:52 0.4 C 3.88 g/m*3 0.4 C 0 km/h
2783 16-02-2009 04:51:52 0.4 C 3.88 g/m*3 0.4 C 0 km/h
2784 16-02-2009 05:03:52 0.5 C 3.91 g/m*3 0.5 C 0 km/h
2785 16-02-2009 05:15:52 0.5 C 3.91 g/m*3 0.5 C 0 km/h
2786 16-02-2009 05:27:52 0.5 C 3.91 g/m*3 0.5 C 0 km/h
2787 16-02-2009 05:39:53 0.5 C 3.91 g/m*3 0.5 C 0 km/h
2788 16-02-2009 05:51:53 0.4 C 3.88 g/m*3 0.4 C 0 km/h
2789 16-02-2009 06:03:53 0.4 C 3.93 g/m*3 0.4 C 0 km/h
2790 16-02-2009 06:15:53 0.4 C 4.03 g/m*3 0.4 C 0 km/h
2791 16-02-2009 06:27:53 0.3 C 4.06 g/m*3 0.3 C 0 km/h
2792 16-02-2009 06:39:53 0.4 C 4.13 g/m*3 0.4 C 0 km/h
2793 16-02-2009 06:51:53 0.4 C 4.13 g/m*3 0.4 C 0 km/h
2794 16-02-2009 07:03:51 0.4 C 4.18 g/m*3 0.4 C 0 km/h
2795 16-02-2009 07:15:50 0.4 C 4.23 g/m*3 0.4 C 0 km/h
2796 16-02-2009 07:27:50 0.4 C 4.23 g/m*3 0.4 C 0 km/h
2797 16-02-2009 07:39:51 0.4 C 4.23 g/m*3 0.4 C 0 km/h
2798 16-02-2009 07:51:50 0.5 C 4.26 g/m*3 0.5 C 0 km/h
2799 16-02-2009 08:03:50 0.5 C 4.26 g/m*3 0.5 C 0 km/h
2800 16-02-2009 08:15:50 0.5 C 4.26 g/m*3 0.5 C 0 km/h
Sensor: Nr:Datum:Temp:Abs-Feuchte:Windchill:Wind:
Aussen-T/F 2801 16-02-2009 08:27:50 0.5 C 4.26 g/m*3 0.5 C 0 km/h
2802 16-02-2009 08:39:50 0.6 C 4.29 g/m*3 0.6 C 0 km/h
2803 16-02-2009 08:51:49 0.7 C 4.32 g/m*3 0.7 C 0 km/h
2804 16-02-2009 09:03:50 0.8 C 4.35 g/m*3 0.8 C 0 km/h
2805 16-02-2009 09:15:50 1 C 4.31 g/m*3 1 C 0 km/h
2806 16-02-2009 09:27:50 1.1 C 4.34 g/m*3 1.1 C 0 km/h
2807 16-02-2009 09:39:49 1.2 C 4.31 g/m*3 1.2 C 0 km/h
2808 16-02-2009 09:51:50 1.3 C 4.29 g/m*3 1.3 C 0 km/h
2809 16-02-2009 10:03:49 1.3 C 4.24 g/m*3 1.3 C 0 km/h
2810 16-02-2009 10:15:49 1.3 C 4.24 g/m*3 1.3 C 0 km/h
2811 16-02-2009 10:27:49 1.5 C 4.4 g/m*3 1.5 C 0 km/h
2812 16-02-2009 10:39:48 1.5 C 4.46 g/m*3 1.5 C 0 km/h
2813 16-02-2009 10:51:49 1.4 C 4.48 g/m*3 1.4 C 0 km/h
2814 16-02-2009 11:03:48 1.2 C 4.47 g/m*3 1.2 C 0 km/h
2815 16-02-2009 11:15:48 1.5 C 4.62 g/m*3 1.5 C 0 km/h
2816 16-02-2009 11:27:48 1.6 C 4.7 g/m*3 1.6 C 0 km/h
2817 16-02-2009 11:39:48 1.7 C 4.68 g/m*3 1.7 C 0 km/h
2818 16-02-2009 11:51:48 1.8 C 4.71 g/m*3 1.8 C 0 km/h
2819 16-02-2009 12:03:48 1.9 C 4.8 g/m*3 1.9 C 0 km/h
2820 16-02-2009 12:15:47 2.1 C 4.81 g/m*3 2.1 C 0 km/h
2821 16-02-2009 12:27:47 2.3 C 4.88 g/m*3 2.3 C 0 km/h
2822 16-02-2009 12:39:48 2.6 C 4.86 g/m*3 2.6 C 0 km/h
2823 16-02-2009 12:51:47 2.7 C 4.84 g/m*3 2.7 C 0 km/h
2824 16-02-2009 13:03:47 2.8 C 4.81 g/m*3 2.8 C 0 km/h
2825 16-02-2009 13:15:47 3 C 4.82 g/m*3 3 C 0 km/h
Sensor: Nr:Datum:Temp:Abs-Feuchte:Windchill:Wind:
Aussen-T/F 2826 16-02-2009 13:27:47 3.4 C 4.89 g/m*3 3.4 C 0 km/h
2827 16-02-2009 13:39:47 3.8 C 4.89 g/m*3 3.8 C 0 km/h
2828 16-02-2009 13:51:46 3.8 C 4.89 g/m*3 3.8 C 0 km/h
2829 16-02-2009 14:03:47 3.9 C 4.86 g/m*3 3.9 C 0 km/h
2830 16-02-2009 14:15:47 4 C 4.83 g/m*3 4 C 0 km/h
2831 16-02-2009 14:27:47 3.8 C 4.83 g/m*3 3.8 C 0 km/h
2832 16-02-2009 14:39:46 3.8 C 4.89 g/m*3 3.8 C 0 km/h
2833 16-02-2009 14:51:47 3.6 C 4.83 g/m*3 3.6 C 0 km/h
2834 16-02-2009 15:03:46 3.5 C 4.86 g/m*3 3.5 C 0 km/h
2835 16-02-2009 15:15:46 3.4 C 4.95 g/m*3 3.4 C 0 km/h
2836 16-02-2009 15:27:46 3.4 C 5.01 g/m*3 3.4 C 0 km/h
2837 16-02-2009 15:39:45 3.4 C 5.07 g/m*3 3.4 C 0 km/h
2838 16-02-2009 15:51:46 3.4 C 5.13 g/m*3 3.4 C 0 km/h
2839 16-02-2009 16:03:45 3.4 C 5.19 g/m*3 3.4 C 0 km/h
2840 16-02-2009 16:15:45 3.4 C 5.19 g/m*3 3.4 C 0 km/h
2841 16-02-2009 16:27:45 3.4 C 5.25 g/m*3 3.4 C 0 km/h
2842 16-02-2009 16:39:46 3.3 C 5.22 g/m*3 3.3 C 0 km/h
2843 16-02-2009 16:51:45 3.3 C 5.28 g/m*3 3.3 C 0 km/h
2844 16-02-2009 17:03:45 3.3 C 5.28 g/m*3 3.3 C 0 km/h
2845 16-02-2009 17:15:45 3.3 C 5.34 g/m*3 3.3 C 0 km/h
2846 16-02-2009 17:27:45 3.2 C 5.3 g/m*3 3.2 C 0 km/h
2847 16-02-2009 17:39:45 3.2 C 5.3 g/m*3 3.2 C 0 km/h
2848 16-02-2009 17:51:44 3.2 C 5.36 g/m*3 3.2 C 0 km/h
2849 16-02-2009 18:03:45 3.2 C 5.36 g/m*3 3.2 C 0 km/h
2850 16-02-2009 18:15:44 3.3 C 5.46 g/m*3 3.3 C 0 km/h
Sensor: Nr:Datum:Temp:Abs-Feuchte:Windchill:Wind:
Aussen-T/F 2851 16-02-2009 18:27:44 3.3 C 5.46 g/m*3 3.3 C 0 km/h
2852 16-02-2009 18:39:44 3.3 C 5.46 g/m*3 3.3 C 0 km/h
2853 16-02-2009 18:51:44 3.3 C 5.46 g/m*3 3.3 C 0 km/h
2854 16-02-2009 19:03:44 3.4 C 5.56 g/m*3 3.4 C 0 km/h
2855 16-02-2009 19:15:44 3.4 C 5.56 g/m*3 3.4 C 0 km/h
2856 16-02-2009 19:27:44 3.5 C 5.6 g/m*3 3.5 C 0 km/h
2857 16-02-2009 19:39:43 3.4 C 5.56 g/m*3 3.4 C 0 km/h
2858 16-02-2009 19:51:44 3.4 C 5.56 g/m*3 3.4 C 0 km/h
2859 16-02-2009 20:03:43 3.4 C 5.56 g/m*3 3.4 C 0 km/h
2860 16-02-2009 20:15:43 3.6 C 5.63 g/m*3 3.6 C 0 km/h
2861 16-02-2009 20:27:43 3.6 C 5.63 g/m*3 3.6 C 0 km/h
2862 16-02-2009 20:39:43 3.5 C 5.6 g/m*3 3.5 C 0 km/h
2863 16-02-2009 20:51:43 3.5 C 5.6 g/m*3 3.5 C 0 km/h
2864 16-02-2009 21:03:43 3.5 C 5.6 g/m*3 3.5 C 0 km/h
2865 16-02-2009 21:15:43 3.5 C 5.6 g/m*3 3.5 C 0 km/h
2866 16-02-2009 21:27:43 3.6 C 5.63 g/m*3 3.6 C 0 km/h
2867 16-02-2009 21:39:42 3.4 C 5.56 g/m*3 3.4 C 0 km/h
2868 16-02-2009 21:52:59 3.5 C 5.6 g/m*3 3.5 C 0 km/h
2869 16-02-2009 22:04:59 3.3 C 5.52 g/m*3 3.3 C 0 km/h
2870 16-02-2009 22:16:59 3.3 C 5.58 g/m*3 3.3 C 0 km/h
2871 16-02-2009 22:28:59 3.3 C 5.58 g/m*3 3.3 C 0 km/h
2872 16-02-2009 22:40:59 3.4 C 5.62 g/m*3 3.4 C 0 km/h
2873 16-02-2009 22:52:59 3.4 C 5.68 g/m*3 3.4 C 0 km/h
2874 16-02-2009 23:04:59 3.5 C 5.72 g/m*3 3.5 C 0 km/h
2875 16-02-2009 23:16:59 3.8 C 5.83 g/m*3 3.8 C 0 km/h
Sensor: Nr:Datum:Temp:Abs-Feuchte:Windchill:Wind:
Aussen-T/F 2876 16-02-2009 23:28:59 3.9 C 5.87 g/m*3 3.9 C 0 km/h
2877 16-02-2009 23:40:59 3.9 C 5.81 g/m*3 3.9 C 0 km/h
2878 16-02-2009 23:52:59 4 C 5.79 g/m*3 4 C 0 km/h
2879 17-02-2009 00:04:59 4 C 5.79 g/m*3 4 C 0 km/h
2880 17-02-2009 00:16:59 4 C 5.79 g/m*3 4 C 0 km/h
2881 17-02-2009 00:28:59 3.9 C 5.75 g/m*3 3.9 C 0 km/h
2882 17-02-2009 00:40:59 3.9 C 5.81 g/m*3 3.9 C 0 km/h
2883 17-02-2009 00:51:59 3.9 C 5.81 g/m*3 3.9 C 0 km/h
2884 17-02-2009 01:04:00 3.9 C 5.81 g/m*3 3.9 C 0 km/h
2885 17-02-2009 01:16:00 3.9 C 5.81 g/m*3 3.9 C 0 km/h
2886 17-02-2009 01:28:00 3.9 C 5.81 g/m*3 3.9 C 0 km/h
2887 17-02-2009 01:40:00 4 C 5.85 g/m*3 4 C 0 km/h
2888 17-02-2009 01:52:00 3.9 C 5.87 g/m*3 3.9 C 0 km/h
2889 17-02-2009 02:04:00 3.9 C 5.87 g/m*3 3.9 C 0 km/h
2890 17-02-2009 02:16:00 3.9 C 5.87 g/m*3 3.9 C 0 km/h
2891 17-02-2009 02:28:00 3.9 C 5.87 g/m*3 3.9 C 0 km/h
2892 17-02-2009 02:40:00 3.9 C 5.87 g/m*3 3.9 C 0 km/h
2893 17-02-2009 02:52:00 3.9 C 5.87 g/m*3 3.9 C 0 km/h
2894 17-02-2009 03:04:00 4 C 5.91 g/m*3 4 C 0 km/h
2895 17-02-2009 03:16:00 4 C 5.91 g/m*3 4 C 0 km/h
2896 17-02-2009 03:28:00 4 C 5.91 g/m*3 4 C 0 km/h
2897 17-02-2009 03:40:00 4 C 5.91 g/m*3 4 C 0 km/h
2898 17-02-2009 03:52:00 4 C 5.91 g/m*3 4 C 0 km/h
2899 17-02-2009 04:04:00 4 C 5.91 g/m*3 4 C 0 km/h
2900 17-02-2009 04:16:00 4.1 C 6.02 g/m*3 4.1 C 0 km/h
Sensor: Nr:Datum:Temp:Abs-Feuchte:Windchill:Wind:
Aussen-T/F 2901 17-02-2009 04:28:00 4.2 C 6.06 g/m*3 4.2 C 0 km/h
2902 17-02-2009 04:40:00 4.2 C 6.06 g/m*3 4.2 C 0 km/h
2903 17-02-2009 04:52:00 4.3 C 6.1 g/m*3 4.3 C 0 km/h
2904 17-02-2009 05:04:00 4.3 C 6.1 g/m*3 4.3 C 0 km/h
2905 17-02-2009 05:16:01 4.3 C 6.1 g/m*3 4.3 C 0 km/h
2906 17-02-2009 05:28:01 4.4 C 6.14 g/m*3 4.4 C 0 km/h
2907 17-02-2009 05:40:01 4.4 C 6.14 g/m*3 4.4 C 0 km/h
2908 17-02-2009 05:52:01 4.4 C 6.14 g/m*3 4.4 C 0 km/h
2909 17-02-2009 06:04:01 4.5 C 6.18 g/m*3 4.5 C 0 km/h
2910 17-02-2009 06:16:01 4.4 C 6.14 g/m*3 4.4 C 0 km/h
2911 17-02-2009 06:28:01 4.4 C 6.14 g/m*3 4.4 C 0 km/h
2912 17-02-2009 06:40:01 4.4 C 6.14 g/m*3 4.4 C 0 km/h
2913 17-02-2009 06:52:01 4.5 C 6.18 g/m*3 4.5 C 0 km/h
2914 17-02-2009 07:04:43 4.5 C 6.18 g/m*3 4.5 C 0 km/h
2915 17-02-2009 07:16:43 4.7 C 6.33 g/m*3 4.7 C 0 km/h
2916 17-02-2009 07:28:43 4.7 C 6.33 g/m*3 4.7 C 0 km/h
2917 17-02-2009 07:40:43 4.6 C 6.29 g/m*3 4.6 C 0 km/h
2918 17-02-2009 07:52:43 4.7 C 6.33 g/m*3 4.7 C 0 km/h
2919 17-02-2009 08:04:42 4.6 C 6.29 g/m*3 4.6 C 0 km/h
2920 17-02-2009 08:16:43 4.6 C 6.29 g/m*3 4.6 C 0 km/h
2921 17-02-2009 08:28:44 4.8 C 6.37 g/m*3 4.8 C 0 km/h
2922 17-02-2009 08:40:42 5 C 6.46 g/m*3 5 C 0 km/h
2923 17-02-2009 08:52:42 5.1 C 6.5 g/m*3 5.1 C 0 km/h
2924 17-02-2009 09:04:42 5.3 C 6.58 g/m*3 5.3 C 0 km/h
2925 17-02-2009 09:16:42 5.5 C 6.67 g/m*3 5.5 C 0 km/h
Sensor: Nr:Datum:Temp:Abs-Feuchte:Windchill:Wind:
Aussen-T/F 2926 17-02-2009 09:28:42 5.5 C 6.67 g/m*3 5.5 C 0 km/h
2927 17-02-2009 09:40:42 5.6 C 6.72 g/m*3 5.6 C 0 km/h
2928 17-02-2009 09:52:42 5.6 C 6.65 g/m*3 5.6 C 0 km/h
2929 17-02-2009 10:04:42 5.7 C 6.69 g/m*3 5.7 C 0 km/h
2930 17-02-2009 10:16:41 5.7 C 6.69 g/m*3 5.7 C 0 km/h
2931 17-02-2009 10:28:41 5.7 C 6.62 g/m*3 5.7 C 0 km/h
2932 17-02-2009 10:40:41 6 C 6.68 g/m*3 6 C 0 km/h
2933 17-02-2009 10:52:41 6 C 6.68 g/m*3 6 C 0 km/h
2934 17-02-2009 11:04:41 5.9 C 6.71 g/m*3 5.9 C 0 km/h
2935 17-02-2009 11:16:40 5.9 C 6.71 g/m*3 5.9 C 0 km/h
2936 17-02-2009 11:28:40 6 C 6.68 g/m*3 6 C 0 km/h
2937 17-02-2009 11:40:41 6 C 6.68 g/m*3 6 C 0 km/h
2938 17-02-2009 11:52:41 6 C 6.68 g/m*3 6 C 0 km/h
2939 17-02-2009 12:04:40 6.1 C 6.72 g/m*3 6.1 C 0 km/h
2940 17-02-2009 12:16:41 6.3 C 6.88 g/m*3 6.3 C 0 km/h
2941 17-02-2009 12:28:41 6.3 C 6.88 g/m*3 6.3 C 0 km/h
2942 17-02-2009 12:40:40 6.3 C 6.88 g/m*3 6.3 C 0 km/h
2943 17-02-2009 12:52:40 6.6 C 7.02 g/m*3 6.6 C 0 km/h
2944 17-02-2009 13:04:39 6.7 C 7.07 g/m*3 6.7 C 0 km/h
2945 17-02-2009 13:16:40 6.7 C 6.99 g/m*3 6.7 C 0 km/h
2946 17-02-2009 13:28:40 6.5 C 6.9 g/m*3 6.5 C 0 km/h
2947 17-02-2009 13:40:39 6.5 C 6.9 g/m*3 6.5 C 0 km/h
2948 17-02-2009 13:52:39 6.4 C 6.71 g/m*3 6.4 C 0 km/h
2949 17-02-2009 14:04:40 6.4 C 6.71 g/m*3 6.4 C 0 km/h
2950 17-02-2009 14:16:39 6.5 C 6.6 g/m*3 6.5 C 0 km/h
Sensor: Nr:Datum:Temp:Abs-Feuchte:Windchill:Wind:
Aussen-T/F 2951 17-02-2009 14:28:39 6.7 C 6.53 g/m*3 6.7 C 0 km/h
2952 17-02-2009 14:40:39 6.8 C 6.35 g/m*3 6.8 C 0 km/h
2953 17-02-2009 14:52:39 7 C 6.2 g/m*3 7 C 0 km/h
2954 17-02-2009 15:04:39 6.9 C 6.16 g/m*3 6.9 C 0 km/h
2955 17-02-2009 15:16:38 6.9 C 6.08 g/m*3 6.9 C 0 km/h
2956 17-02-2009 15:28:38 7 C 5.81 g/m*3 7 C 0 km/h
2957 17-02-2009 15:40:38 6.9 C 5.93 g/m*3 6.9 C 0 km/h
2958 17-02-2009 15:52:38 6.8 C 5.58 g/m*3 6.8 C 0 km/h
2959 17-02-2009 16:04:38 5.9 C 5.19 g/m*3 5.9 C 0 km/h
2960 17-02-2009 16:16:38 5.5 C 5.06 g/m*3 5.5 C 0 km/h
2961 17-02-2009 16:28:38 5.1 C 4.99 g/m*3 5.1 C 0 km/h
2962 17-02-2009 16:40:38 4.9 C 5 g/m*3 4.9 C 0 km/h
2963 17-02-2009 16:52:38 4.6 C 4.76 g/m*3 4.6 C 0 km/h
2964 17-02-2009 17:04:37 4.4 C 4.7 g/m*3 4.4 C 0 km/h
2965 17-02-2009 17:16:38 4 C 4.51 g/m*3 4 C 0 km/h
2966 17-02-2009 17:28:38 3.7 C 4.42 g/m*3 3.7 C 0 km/h
2967 17-02-2009 17:40:37 3.6 C 4.33 g/m*3 3.6 C 0 km/h
2968 17-02-2009 17:52:37 3.4 C 4.15 g/m*3 3.4 C 0 km/h
2969 17-02-2009 18:04:37 3.1 C 4.07 g/m*3 3.1 C 0 km/h
2970 17-02-2009 18:16:37 2.9 C 4.02 g/m*3 2.9 C 0 km/h
2971 17-02-2009 18:28:37 2.8 C 4.05 g/m*3 2.8 C 0 km/h
2972 17-02-2009 18:40:37 2.5 C 3.97 g/m*3 2.5 C 0 km/h
2973 17-02-2009 18:52:37 2.3 C 3.74 g/m*3 2.3 C 0 km/h
2974 17-02-2009 19:04:37 2.1 C 3.41 g/m*3 2.1 C 0 km/h
2975 17-02-2009 19:16:36 2.1 C 3.3 g/m*3 2.1 C 0 km/h
Sensor: Nr:Datum:Temp:Abs-Feuchte:Windchill:Wind:
Aussen-T/F 2976 17-02-2009 19:28:36 1.9 C 3.09 g/m*3 1.9 C 0 km/h
2977 17-02-2009 19:40:36 1.6 C 2.97 g/m*3 1.6 C 0 km/h
2978 17-02-2009 19:52:36 1.1 C 2.98 g/m*3 1.1 C 0 km/h
2979 17-02-2009 20:04:36 0.7 C 2.85 g/m*3 0.7 C 0 km/h
2980 17-02-2009 20:16:35 0.3 C 2.67 g/m*3 0.3 C 0 km/h
2981 17-02-2009 20:28:35 0 C 2.66 g/m*3 0 C 0 km/h
2982 17-02-2009 20:40:36 -0.3 C 2.66 g/m*3 -0.3 C 0 km/h
2983 17-02-2009 20:52:35 -0.4 C 2.54 g/m*3 -0.4 C 0 km/h
2984 17-02-2009 21:04:36 -0.5 C 2.57 g/m*3 -0.5 C 0 km/h
2985 17-02-2009 21:16:35 -0.7 C 2.45 g/m*3 -0.7 C 0 km/h
2986 17-02-2009 21:28:35 -0.9 C 2.46 g/m*3 -0.9 C 0 km/h
2987 17-02-2009 21:41:36 -1 C 2.44 g/m*3 -1 C 0 km/h
2988 17-02-2009 21:53:36 -1.2 C 2.41 g/m*3 -1.2 C 0 km/h
2989 17-02-2009 22:05:36 -1.3 C 2.39 g/m*3 -1.3 C 0 km/h
2990 17-02-2009 22:17:36 -1.5 C 2.49 g/m*3 -1.5 C 0 km/h
2991 17-02-2009 22:29:36 -1.7 C 2.5 g/m*3 -1.7 C 0 km/h
2992 17-02-2009 22:41:36 -1.9 C 2.55 g/m*3 -1.9 C 0 km/h
2993 17-02-2009 22:53:36 -2 C 2.49 g/m*3 -2 C 0 km/h
2994 17-02-2009 23:05:36 -2.2 C 2.49 g/m*3 -2.2 C 0 km/h
2995 17-02-2009 23:17:36 -2.3 C 2.48 g/m*3 -2.3 C 0 km/h
2996 17-02-2009 23:29:36 -2.4 C 2.5 g/m*3 -2.4 C 0 km/h
2997 17-02-2009 23:41:36 -2.6 C 2.51 g/m*3 -2.6 C 0 km/h
2998 17-02-2009 23:53:36 -2.6 C 2.51 g/m*3 -2.6 C 0 km/h
2999 18-02-2009 00:05:36 -2.8 C 2.51 g/m*3 -2.8 C 0 km/h
3000 18-02-2009 00:17:36 -2.9 C 2.53 g/m*3 -2.9 C 0 km/h
Sensor: Nr:Datum:Temp:Abs-Feuchte:Windchill:Wind:
Aussen-T/F 3001 18-02-2009 00:29:37 -2.9 C 2.57 g/m*3 -2.9 C 0 km/h
3002 18-02-2009 00:41:37 -3 C 2.59 g/m*3 -3 C 0 km/h
3003 18-02-2009 00:53:37 -3.2 C 2.52 g/m*3 -3.2 C 0 km/h
3004 18-02-2009 01:05:37 -3.3 C 2.5 g/m*3 -3.3 C 0 km/h
3005 18-02-2009 01:17:37 -3.4 C 2.48 g/m*3 -3.4 C 0 km/h
3006 18-02-2009 01:29:37 -3.5 C 2.5 g/m*3 -3.5 C 0 km/h
3007 18-02-2009 01:41:37 -3.5 C 2.5 g/m*3 -3.5 C 0 km/h
3008 18-02-2009 01:53:37 -3.6 C 2.48 g/m*3 -3.6 C 0 km/h
3009 18-02-2009 02:05:37 -3.7 C 2.47 g/m*3 -3.7 C 0 km/h
3010 18-02-2009 02:17:37 -3.7 C 2.5 g/m*3 -3.7 C 0 km/h
3011 18-02-2009 02:29:37 -3.7 C 2.54 g/m*3 -3.7 C 0 km/h
3012 18-02-2009 02:41:37 -3.8 C 2.52 g/m*3 -3.8 C 0 km/h
3013 18-02-2009 02:53:37 -4 C 2.49 g/m*3 -4 C 0 km/h
3014 18-02-2009 03:05:37 -4 C 2.52 g/m*3 -4 C 0 km/h
3015 18-02-2009 03:17:37 -4.1 C 2.51 g/m*3 -4.1 C 0 km/h
3016 18-02-2009 03:29:37 -4.3 C 2.47 g/m*3 -4.3 C 0 km/h
3017 18-02-2009 03:41:37 -4.3 C 2.51 g/m*3 -4.3 C 0 km/h
3018 18-02-2009 03:53:37 -4.5 C 2.47 g/m*3 -4.5 C 0 km/h
3019 18-02-2009 04:05:37 -4.5 C 2.47 g/m*3 -4.5 C 0 km/h
3020 18-02-2009 04:17:37 -4.7 C 2.44 g/m*3 -4.7 C 0 km/h
3021 18-02-2009 04:29:37 -4.8 C 2.42 g/m*3 -4.8 C 0 km/h
3022 18-02-2009 04:41:38 -4.8 C 2.42 g/m*3 -4.8 C 0 km/h
3023 18-02-2009 04:53:38 -4.9 C 2.4 g/m*3 -4.9 C 0 km/h
3024 18-02-2009 05:05:38 -4.9 C 2.4 g/m*3 -4.9 C 0 km/h
3025 18-02-2009 05:17:38 -5.1 C 2.4 g/m*3 -5.1 C 0 km/h
Sensor: Nr:Datum:Temp:Abs-Feuchte:Windchill:Wind:
Aussen-T/F 3026 18-02-2009 05:29:38 -5 C 2.45 g/m*3 -5 C 0 km/h
3027 18-02-2009 05:41:38 -5.1 C 2.43 g/m*3 -5.1 C 0 km/h
3028 18-02-2009 05:53:38 -5.4 C 2.38 g/m*3 -5.4 C 0 km/h
3029 18-02-2009 06:05:38 -5.5 C 2.36 g/m*3 -5.5 C 0 km/h
3030 18-02-2009 06:17:38 -5.6 C 2.35 g/m*3 -5.6 C 0 km/h
3031 18-02-2009 06:29:38 -5.7 C 2.36 g/m*3 -5.7 C 0 km/h
3032 18-02-2009 06:41:38 -5.5 C 2.4 g/m*3 -5.5 C 0 km/h
3033 18-02-2009 06:53:38 -5.5 C 2.43 g/m*3 -5.5 C 0 km/h
3034 18-02-2009 07:05:36 -5.7 C 2.4 g/m*3 -5.7 C 0 km/h
3035 18-02-2009 07:17:35 -6.1 C 2.3 g/m*3 -6.1 C 0 km/h
3036 18-02-2009 07:29:36 -6.2 C 2.28 g/m*3 -6.2 C 0 km/h
3037 18-02-2009 07:41:36 -5.9 C 2.36 g/m*3 -5.9 C 0 km/h
3038 18-02-2009 07:53:35 -5.8 C 2.41 g/m*3 -5.8 C 0 km/h
3039 18-02-2009 08:05:35 -5.7 C 2.43 g/m*3 -5.7 C 0 km/h
3040 18-02-2009 08:17:35 -5.6 C 2.48 g/m*3 -5.6 C 0 km/h
3041 18-02-2009 08:29:35 -5.8 C 2.44 g/m*3 -5.8 C 0 km/h
3042 18-02-2009 08:41:35 -5.9 C 2.42 g/m*3 -5.9 C 0 km/h
3043 18-02-2009 08:53:34 -5.7 C 2.46 g/m*3 -5.7 C 0 km/h
3044 18-02-2009 09:05:35 -5.7 C 2.46 g/m*3 -5.7 C 0 km/h
3045 18-02-2009 09:17:35 -5.5 C 2.53 g/m*3 -5.5 C 0 km/h
3046 18-02-2009 09:29:34 -5.4 C 2.55 g/m*3 -5.4 C 0 km/h
3047 18-02-2009 09:41:34 -4.9 C 2.64 g/m*3 -4.9 C 0 km/h
3048 18-02-2009 09:53:35 -4.7 C 2.68 g/m*3 -4.7 C 0 km/h
3049 18-02-2009 10:05:34 -4.2 C 2.78 g/m*3 -4.2 C 0 km/h
3050 18-02-2009 10:17:34 -3.5 C 2.84 g/m*3 -3.5 C 0 km/h
Sensor: Nr:Datum:Temp:Abs-Feuchte:Windchill:Wind:
Aussen-T/F 3051 18-02-2009 10:29:34 -2.4 C 2.87 g/m*3 -2.4 C 0 km/h
3052 18-02-2009 10:41:34 -1.7 C 2.67 g/m*3 -1.7 C 0 km/h
3053 18-02-2009 10:53:34 -1.3 C 2.52 g/m*3 -1.3 C 0 km/h
3054 18-02-2009 11:05:34 -1.5 C 2.36 g/m*3 -1.5 C 0 km/h
3055 18-02-2009 11:17:33 -1.3 C 2.39 g/m*3 -1.3 C 0 km/h
3056 18-02-2009 11:29:33 -1 C 2.35 g/m*3 -1 C 0 km/h
3057 18-02-2009 11:41:33 -0.7 C 2.12 g/m*3 -0.7 C 0 km/h
3058 18-02-2009 11:53:33 -0.3 C 2.28 g/m*3 -0.3 C 0 km/h
3059 18-02-2009 12:05:33 0 C 2.33 g/m*3 0 C 0 km/h
3060 18-02-2009 12:17:32 0.2 C 2.36 g/m*3 0.2 C 0 km/h
3061 18-02-2009 12:29:33 0.5 C 2.31 g/m*3 0.5 C 0 km/h
3062 18-02-2009 12:41:33 0.7 C 2.29 g/m*3 0.7 C 0 km/h
3063 18-02-2009 12:53:32 1.1 C 2.09 g/m*3 1.1 C 0 km/h
3064 18-02-2009 13:05:32 1.9 C 2.1 g/m*3 1.9 C 0 km/h
3065 18-02-2009 13:17:33 2.3 C 2.04 g/m*3 2.3 C 0 km/h
3066 18-02-2009 13:29:32 2.7 C 2.04 g/m*3 2.7 C 0 km/h
3067 18-02-2009 13:41:32 2.8 C 1.82 g/m*3 2.8 C 0 km/h
3068 18-02-2009 13:53:32 3.6 C 1.55 g/m*3 3.6 C 0 km/h
3069 18-02-2009 14:05:32 3.6 C 1.55 g/m*3 3.6 C 0 km/h
3070 18-02-2009 14:17:32 4.4 C 1.31 g/m*3 4.4 C 0 km/h
3071 18-02-2009 14:29:31 4.8 C 1.34 g/m*3 4.8 C 0 km/h
3072 18-02-2009 14:41:31 5.5 C 1.4 g/m*3 5.5 C 0 km/h
3073 18-02-2009 14:53:32 5.7 C 1.42 g/m*3 5.7 C 0 km/h
3074 18-02-2009 15:05:31 5.9 C 1.44 g/m*3 5.9 C 0 km/h
3075 18-02-2009 15:17:31 5.5 C 1.4 g/m*3 5.5 C 0 km/h
Sensor: Nr:Datum:Temp:Abs-Feuchte:Windchill:Wind:
Aussen-T/F 3076 18-02-2009 15:29:31 5.7 C 1.42 g/m*3 5.7 C 0 km/h
3077 18-02-2009 15:41:31 6 C 1.45 g/m*3 6 C 0 km/h
3078 18-02-2009 15:53:31 6 C 1.45 g/m*3 6 C 0 km/h
3079 18-02-2009 16:05:31 6.7 C 1.52 g/m*3 6.7 C 0 km/h
3080 18-02-2009 16:17:30 6.9 C 1.54 g/m*3 6.9 C 0 km/h
3081 18-02-2009 16:29:31 5.1 C 1.37 g/m*3 5.1 C 0 km/h
3082 18-02-2009 16:41:31 5.5 C 1.4 g/m*3 5.5 C 0 km/h
3083 18-02-2009 16:53:30 5.7 C 1.42 g/m*3 5.7 C 0 km/h
3084 18-02-2009 17:05:30 5.4 C 1.4 g/m*3 5.4 C 0 km/h
3085 18-02-2009 17:17:30 4.7 C 1.67 g/m*3 4.7 C 0 km/h
3086 18-02-2009 17:29:30 3.2 C 1.81 g/m*3 3.2 C 0 km/h
3087 18-02-2009 17:41:30 1.9 C 2.04 g/m*3 1.9 C 0 km/h
3088 18-02-2009 17:53:30 1 C 2.13 g/m*3 1 C 0 km/h
3089 18-02-2009 18:05:29 0.4 C 2.14 g/m*3 0.4 C 0 km/h
3090 18-02-2009 18:17:29 -0.1 C 2.21 g/m*3 -0.1 C 0 km/h
3091 18-02-2009 18:29:30 -0.4 C 2.26 g/m*3 -0.4 C 0 km/h
3092 18-02-2009 18:41:30 -0.6 C 2.28 g/m*3 -0.6 C 0 km/h
3093 18-02-2009 18:53:29 -0.9 C 2.37 g/m*3 -0.9 C 0 km/h
3094 18-02-2009 19:05:29 -1 C 2.26 g/m*3 -1 C 0 km/h
3095 18-02-2009 19:17:29 -1.2 C 2.27 g/m*3 -1.2 C 0 km/h
3096 18-02-2009 19:29:29 -1.3 C 2.26 g/m*3 -1.3 C 0 km/h
3097 18-02-2009 19:41:29 -1.4 C 2.33 g/m*3 -1.4 C 0 km/h
3098 18-02-2009 19:53:28 -1.6 C 2.3 g/m*3 -1.6 C 0 km/h
3099 18-02-2009 20:05:29 -1.7 C 2.32 g/m*3 -1.7 C 0 km/h
3100 18-02-2009 20:17:28 -1.8 C 2.35 g/m*3 -1.8 C 0 km/h
Sensor: Nr:Datum:Temp:Abs-Feuchte:Windchill:Wind:
Aussen-T/F 3101 18-02-2009 20:29:28 -1.9 C 2.33 g/m*3 -1.9 C 0 km/h
3102 18-02-2009 20:41:28 -2 C 2.32 g/m*3 -2 C 0 km/h
3103 18-02-2009 20:53:28 -2.1 C 2.22 g/m*3 -2.1 C 0 km/h
3104 18-02-2009 21:05:28 -2.2 C 2.29 g/m*3 -2.2 C 0 km/h
3105 18-02-2009 21:17:28 -2.3 C 2.27 g/m*3 -2.3 C 0 km/h
3106 18-02-2009 21:29:27 -2.3 C 2.23 g/m*3 -2.3 C 0 km/h
3107 18-02-2009 21:41:27 -2.4 C 2.17 g/m*3 -2.4 C 0 km/h
3108 18-02-2009 21:53:28 -2.6 C 2.3 g/m*3 -2.6 C 0 km/h
3109 18-02-2009 22:06:27 -2.7 C 2.33 g/m*3 -2.7 C 0 km/h
3110 18-02-2009 22:18:27 -2.9 C 2.33 g/m*3 -2.9 C 0 km/h
3111 18-02-2009 22:30:27 -2.9 C 2.37 g/m*3 -2.9 C 0 km/h
3112 18-02-2009 22:42:27 -2.9 C 2.41 g/m*3 -2.9 C 0 km/h
3113 18-02-2009 22:54:27 -3.1 C 2.38 g/m*3 -3.1 C 0 km/h
3114 18-02-2009 23:06:27 -3.3 C 2.35 g/m*3 -3.3 C 0 km/h
3115 18-02-2009 23:18:27 -3.2 C 2.4 g/m*3 -3.2 C 0 km/h
3116 18-02-2009 23:30:27 -2.9 C 2.45 g/m*3 -2.9 C 0 km/h
3117 18-02-2009 23:42:28 -2.7 C 2.45 g/m*3 -2.7 C 0 km/h
3118 18-02-2009 23:54:28 -2.5 C 2.48 g/m*3 -2.5 C 0 km/h
3119 19-02-2009 00:06:28 -2.5 C 2.56 g/m*3 -2.5 C 0 km/h
3120 19-02-2009 00:18:28 -2.4 C 2.58 g/m*3 -2.4 C 0 km/h
3121 19-02-2009 00:30:28 -2.3 C 2.6 g/m*3 -2.3 C 0 km/h
3122 19-02-2009 00:42:28 -2.3 C 2.56 g/m*3 -2.3 C 0 km/h
3123 19-02-2009 00:54:28 -2.2 C 2.58 g/m*3 -2.2 C 0 km/h
3124 19-02-2009 01:06:28 -2.1 C 2.6 g/m*3 -2.1 C 0 km/h
3125 19-02-2009 01:18:28 -2.1 C 2.6 g/m*3 -2.1 C 0 km/h
Sensor: Nr:Datum:Temp:Abs-Feuchte:Windchill:Wind:
Aussen-T/F 3126 19-02-2009 01:30:28 -2.1 C 2.55 g/m*3 -2.1 C 0 km/h
3127 19-02-2009 01:42:28 -2.1 C 2.55 g/m*3 -2.1 C 0 km/h
3128 19-02-2009 01:54:28 -2.3 C 2.52 g/m*3 -2.3 C 0 km/h
3129 19-02-2009 02:06:28 -2.1 C 2.6 g/m*3 -2.1 C 0 km/h
3130 19-02-2009 02:18:28 -2 C 2.57 g/m*3 -2 C 0 km/h
3131 19-02-2009 02:30:28 -2 C 2.57 g/m*3 -2 C 0 km/h
3132 19-02-2009 02:42:28 -2 C 2.57 g/m*3 -2 C 0 km/h
3133 19-02-2009 02:54:28 -2.1 C 2.55 g/m*3 -2.1 C 0 km/h
3134 19-02-2009 03:06:28 -2.2 C 2.58 g/m*3 -2.2 C 0 km/h
3135 19-02-2009 03:18:28 -2.3 C 2.56 g/m*3 -2.3 C 0 km/h
3136 19-02-2009 03:30:29 -2.3 C 2.6 g/m*3 -2.3 C 0 km/h
3137 19-02-2009 03:42:29 -2.1 C 2.64 g/m*3 -2.1 C 0 km/h
3138 19-02-2009 03:54:29 -2.1 C 2.64 g/m*3 -2.1 C 0 km/h
3139 19-02-2009 04:06:29 -2.1 C 2.64 g/m*3 -2.1 C 0 km/h
3140 19-02-2009 04:18:29 -2.2 C 2.58 g/m*3 -2.2 C 0 km/h
3141 19-02-2009 04:30:29 -2.1 C 2.64 g/m*3 -2.1 C 0 km/h
3142 19-02-2009 04:42:29 -2.1 C 2.64 g/m*3 -2.1 C 0 km/h
3143 19-02-2009 04:54:29 -2.1 C 2.64 g/m*3 -2.1 C 0 km/h
3144 19-02-2009 05:06:29 -2.1 C 2.64 g/m*3 -2.1 C 0 km/h
3145 19-02-2009 05:18:29 -2.1 C 2.64 g/m*3 -2.1 C 0 km/h
3146 19-02-2009 05:30:27 -2.2 C 2.62 g/m*3 -2.2 C 0 km/h
3147 19-02-2009 05:42:27 -2.3 C 2.6 g/m*3 -2.3 C 0 km/h
3148 19-02-2009 05:54:27 -2.3 C 2.64 g/m*3 -2.3 C 0 km/h
3149 19-02-2009 06:06:27 -2.3 C 2.64 g/m*3 -2.3 C 0 km/h
3150 19-02-2009 06:18:27 -2.3 C 2.64 g/m*3 -2.3 C 0 km/h
Sensor: Nr:Datum:Temp:Abs-Feuchte:Windchill:Wind:
Aussen-T/F 3151 19-02-2009 06:30:27 -2.2 C 2.66 g/m*3 -2.2 C 0 km/h
3152 19-02-2009 06:42:27 -2.2 C 2.66 g/m*3 -2.2 C 0 km/h
3153 19-02-2009 06:54:27 -2.1 C 2.64 g/m*3 -2.1 C 0 km/h
3154 19-02-2009 07:06:27 -2.1 C 2.55 g/m*3 -2.1 C 0 km/h
3155 19-02-2009 07:18:02 -2 C 2.57 g/m*3 -2 C 0 km/h
3156 19-02-2009 07:30:02 -2 C 2.53 g/m*3 -2 C 0 km/h
3157 19-02-2009 07:42:02 -2 C 2.57 g/m*3 -2 C 0 km/h
3158 19-02-2009 07:54:01 -2 C 2.61 g/m*3 -2 C 0 km/h
3159 19-02-2009 08:06:01 -1.9 C 2.63 g/m*3 -1.9 C 0 km/h
3160 19-02-2009 08:18:02 -1.9 C 2.63 g/m*3 -1.9 C 0 km/h
3161 19-02-2009 08:30:02 -1.6 C 2.69 g/m*3 -1.6 C 0 km/h
3162 19-02-2009 08:42:01 -1.3 C 2.7 g/m*3 -1.3 C 0 km/h
3163 19-02-2009 08:54:01 -1 C 2.71 g/m*3 -1 C 0 km/h
3164 19-02-2009 09:06:01 -0.8 C 2.61 g/m*3 -0.8 C 0 km/h
3165 19-02-2009 09:18:01 -0.9 C 2.55 g/m*3 -0.9 C 0 km/h
3166 19-02-2009 09:30:01 -0.7 C 2.58 g/m*3 -0.7 C 0 km/h
3167 19-02-2009 09:42:00 -0.7 C 2.54 g/m*3 -0.7 C 0 km/h
3168 19-02-2009 09:54:01 -0.6 C 2.56 g/m*3 -0.6 C 0 km/h
3169 19-02-2009 10:06:01 -0.4 C 2.59 g/m*3 -0.4 C 0 km/h
3170 19-02-2009 10:18:00 -0.1 C 2.55 g/m*3 -0.1 C 0 km/h
3171 19-02-2009 10:30:00 0.1 C 2.54 g/m*3 0.1 C 0 km/h
3172 19-02-2009 10:42:00 0.5 C 2.56 g/m*3 0.5 C 0 km/h
3173 19-02-2009 10:54:00 0.5 C 2.46 g/m*3 0.5 C 0 km/h
3174 19-02-2009 11:06:00 0.8 C 2.51 g/m*3 0.8 C 0 km/h
3175 19-02-2009 11:18:59 1 C 2.44 g/m*3 1 C 0 km/h
Sensor: Nr:Datum:Temp:Abs-Feuchte:Windchill:Wind:
Aussen-T/F 3176 19-02-2009 11:29:59 0.9 C 2.47 g/m*3 0.9 C 0 km/h
3177 19-02-2009 11:41:59 1 C 2.44 g/m*3 1 C 0 km/h
3178 19-02-2009 11:54:59 1.1 C 2.4 g/m*3 1.1 C 0 km/h
3179 19-02-2009 12:06:59 1.2 C 2.42 g/m*3 1.2 C 0 km/h
3180 19-02-2009 12:29:59 1.6 C 2.38 g/m*3 1.6 C 0 km/h
3181 19-02-2009 12:30:59 2 C 2.22 g/m*3 2 C 0 km/h
3182 19-02-2009 12:42:59 2.4 C 2.11 g/m*3 2.4 C 0 km/h
3183 19-02-2009 12:54:59 3 C 1.96 g/m*3 3 C 0 km/h
3184 19-02-2009 13:06:58 3.5 C 1.91 g/m*3 3.5 C 0 km/h
3185 19-02-2009 13:18:59 3.9 C 1.96 g/m*3 3.9 C 0 km/h
3186 19-02-2009 13:30:58 4.5 C 1.84 g/m*3 4.5 C 0 km/h
3187 19-02-2009 13:42:58 4.2 C 1.8 g/m*3 4.2 C 0 km/h
3188 19-02-2009 13:54:58 4.3 C 1.82 g/m*3 4.3 C 0 km/h
3189 19-02-2009 14:06:59 4.9 C 1.82 g/m*3 4.9 C 0 km/h
3190 19-02-2009 14:18:58 5.7 C 1.78 g/m*3 5.7 C 0 km/h
3191 19-02-2009 14:30:58 5.8 C 1.43 g/m*3 5.8 C 0 km/h
3192 19-02-2009 14:42:58 6.5 C 1.5 g/m*3 6.5 C 0 km/h
3193 19-02-2009 14:54:58 6.8 C 1.53 g/m*3 6.8 C 0 km/h
3194 19-02-2009 15:06:58 7.1 C 1.56 g/m*3 7.1 C 0 km/h
3195 19-02-2009 15:18:57 6.6 C 1.51 g/m*3 6.6 C 0 km/h
3196 19-02-2009 15:30:57 6.3 C 1.48 g/m*3 6.3 C 0 km/h
3197 19-02-2009 15:42:57 6.7 C 1.52 g/m*3 6.7 C 0 km/h
3198 19-02-2009 15:54:57 7.1 C 1.56 g/m*3 7.1 C 0 km/h
3199 19-02-2009 16:06:57 7.1 C 1.56 g/m*3 7.1 C 0 km/h
3200 19-02-2009 16:18:57 7.4 C 1.59 g/m*3 7.4 C 0 km/h
Sensor: Nr:Datum:Temp:Abs-Feuchte:Windchill:Wind:
Aussen-T/F 3201 19-02-2009 16:30:54 7 C 1.55 g/m*3 7 C 0 km/h
3202 19-02-2009 16:42:54 6.5 C 1.72 g/m*3 6.5 C 0 km/h
3203 19-02-2009 16:54:57 5.8 C 1.79 g/m*3 5.8 C 0 km/h
3204 19-02-2009 17:06:02 5.4 C 2.09 g/m*3 5.4 C 0 km/h
3205 19-02-2009 17:18:02 4.8 C 2.08 g/m*3 4.8 C 0 km/h
3206 19-02-2009 17:30:02 4.4 C 2.15 g/m*3 4.4 C 0 km/h
3207 19-02-2009 17:42:02 4 C 2.29 g/m*3 4 C 0 km/h
3208 19-02-2009 17:54:02 3.7 C 2.43 g/m*3 3.7 C 0 km/h
3209 19-02-2009 18:06:02 3.5 C 2.46 g/m*3 3.5 C 0 km/h
3210 19-02-2009 18:18:02 3.4 C 2.5 g/m*3 3.4 C 0 km/h
3211 19-02-2009 18:30:02 3.3 C 2.43 g/m*3 3.3 C 0 km/h
3212 19-02-2009 18:42:01 3.2 C 2.47 g/m*3 3.2 C 0 km/h
3213 19-02-2009 18:54:01 3.1 C 2.45 g/m*3 3.1 C 0 km/h
3214 19-02-2009 19:06:01 2.9 C 2.48 g/m*3 2.9 C 0 km/h
3215 19-02-2009 19:18:01 2.9 C 2.6 g/m*3 2.9 C 0 km/h
3216 19-02-2009 19:30:01 3 C 2.5 g/m*3 3 C 0 km/h
3217 19-02-2009 19:42:01 2.9 C 2.6 g/m*3 2.9 C 0 km/h
3218 19-02-2009 19:54:00 2.8 C 2.64 g/m*3 2.8 C 0 km/h
3219 19-02-2009 20:06:01 2.7 C 2.68 g/m*3 2.7 C 0 km/h
3220 19-02-2009 20:18:01 2.9 C 2.66 g/m*3 2.9 C 0 km/h
3221 19-02-2009 20:30:01 2.5 C 2.99 g/m*3 2.5 C 0 km/h
3222 19-02-2009 20:42:00 2 C 3.39 g/m*3 2 C 0 km/h
3223 19-02-2009 20:54:01 1.9 C 3.59 g/m*3 1.9 C 0 km/h
3224 19-02-2009 21:06:00 1.8 C 3.73 g/m*3 1.8 C 0 km/h
3225 19-02-2009 21:18:00 1.7 C 3.81 g/m*3 1.7 C 0 km/h
Sensor: Nr:Datum:Temp:Abs-Feuchte:Windchill:Wind:
Aussen-T/F 3226 19-02-2009 21:30:00 1.6 C 3.89 g/m*3 1.6 C 0 km/h
3227 19-02-2009 21:42:00 1.5 C 3.97 g/m*3 1.5 C 0 km/h
3228 19-02-2009 21:54:00 1.3 C 3.97 g/m*3 1.3 C 0 km/h
3229 19-02-2009 22:06:59 1.3 C 4.03 g/m*3 1.3 C 0 km/h
3230 19-02-2009 22:29:59 1.3 C 4.08 g/m*3 1.3 C 0 km/h
3231 19-02-2009 22:30:59 1.3 C 4.13 g/m*3 1.3 C 0 km/h
3232 19-02-2009 22:42:59 1.3 C 4.13 g/m*3 1.3 C 0 km/h
3233 19-02-2009 22:54:59 1.3 C 4.13 g/m*3 1.3 C 0 km/h
3234 19-02-2009 23:06:58 1.2 C 4.1 g/m*3 1.2 C 0 km/h
3235 19-02-2009 23:18:59 1.3 C 4.13 g/m*3 1.3 C 0 km/h
3236 19-02-2009 23:30:59 1.3 C 4.13 g/m*3 1.3 C 0 km/h
3237 19-02-2009 23:42:59 1.3 C 4.08 g/m*3 1.3 C 0 km/h
3238 19-02-2009 23:54:58 1.4 C 4.05 g/m*3 1.4 C 0 km/h
3239 20-02-2009 00:06:59 1.6 C 4.11 g/m*3 1.6 C 0 km/h
3240 20-02-2009 00:18:59 1.6 C 4 g/m*3 1.6 C 0 km/h
3241 20-02-2009 00:30:58 1.6 C 4 g/m*3 1.6 C 0 km/h
3242 20-02-2009 00:42:58 1.6 C 4 g/m*3 1.6 C 0 km/h
3243 20-02-2009 00:54:58 1.7 C 4.03 g/m*3 1.7 C 0 km/h
3244 20-02-2009 01:06:58 1.7 C 4.03 g/m*3 1.7 C 0 km/h
3245 20-02-2009 01:18:58 1.7 C 4.03 g/m*3 1.7 C 0 km/h
3246 20-02-2009 01:30:57 1.7 C 4.03 g/m*3 1.7 C <